<?xml version="1.0" encoding="UTF-8" standalone="no" ?>
<gpx xmlns="http://www.topografix.com/GPX/1/1" xmlns:xsi="http://www.w3.org/2001/XMLSchema-instance" xsi:schemaLocation="http://www.topografix.com/GPX/1/1 http://www.topografix.com/GPX/1/1/gpx.xsd" version="1.1" creator="VisuGPX - https://www.visugpx.com">
  <metadata>
    <name>Trail de Pelasque RunKeeper</name>
    <desc><![CDATA[Avec Iphone Runkeeper]]></desc>
  </metadata>
  <trk>
    <name><![CDATA[Running 8/19/12 9:03 am]]></name>
    <trkseg>
      <trkpt lat="43.95572" lon="7.28006">
        <ele>655.7</ele>
        <time>2012-08-19T04:03:34Z</time>
      </trkpt>
      <trkpt lat="43.95564" lon="7.27997">
        <ele>655.9</ele>
        <time>2012-08-19T04:03:40Z</time>
      </trkpt>
      <trkpt lat="43.95557" lon="7.27985">
        <ele>654.2</ele>
        <time>2012-08-19T04:03:45Z</time>
      </trkpt>
      <trkpt lat="43.9555" lon="7.27974">
        <ele>653</ele>
        <time>2012-08-19T04:03:50Z</time>
      </trkpt>
      <trkpt lat="43.9554" lon="7.27969">
        <ele>652</ele>
        <time>2012-08-19T04:03:55Z</time>
      </trkpt>
      <trkpt lat="43.95531" lon="7.27974">
        <ele>651.2</ele>
        <time>2012-08-19T04:04:00Z</time>
      </trkpt>
      <trkpt lat="43.9552" lon="7.27972">
        <ele>652</ele>
        <time>2012-08-19T04:04:04Z</time>
      </trkpt>
      <trkpt lat="43.95525" lon="7.2796">
        <ele>652.8</ele>
        <time>2012-08-19T04:04:10Z</time>
      </trkpt>
      <trkpt lat="43.95532" lon="7.27952">
        <ele>653.6</ele>
        <time>2012-08-19T04:04:14Z</time>
      </trkpt>
      <trkpt lat="43.95539" lon="7.27942">
        <ele>654.5</ele>
        <time>2012-08-19T04:04:18Z</time>
      </trkpt>
      <trkpt lat="43.95543" lon="7.2793">
        <ele>655.1</ele>
        <time>2012-08-19T04:04:23Z</time>
      </trkpt>
      <trkpt lat="43.95552" lon="7.27931">
        <ele>655.7</ele>
        <time>2012-08-19T04:04:42Z</time>
      </trkpt>
      <trkpt lat="43.9556" lon="7.27922">
        <ele>655.7</ele>
        <time>2012-08-19T04:04:53Z</time>
      </trkpt>
      <trkpt lat="43.95567" lon="7.27913">
        <ele>657.6</ele>
        <time>2012-08-19T04:05:03Z</time>
      </trkpt>
      <trkpt lat="43.95573" lon="7.27903">
        <ele>659.5</ele>
        <time>2012-08-19T04:05:15Z</time>
      </trkpt>
      <trkpt lat="43.95581" lon="7.27895">
        <ele>661.5</ele>
        <time>2012-08-19T04:05:35Z</time>
      </trkpt>
      <trkpt lat="43.9559" lon="7.27894">
        <ele>665.6</ele>
        <time>2012-08-19T04:05:47Z</time>
      </trkpt>
      <trkpt lat="43.95595" lon="7.27884">
        <ele>667.9</ele>
        <time>2012-08-19T04:05:59Z</time>
      </trkpt>
      <trkpt lat="43.95602" lon="7.27893">
        <ele>670.2</ele>
        <time>2012-08-19T04:06:17Z</time>
      </trkpt>
      <trkpt lat="43.95611" lon="7.27899">
        <ele>672.5</ele>
        <time>2012-08-19T04:06:34Z</time>
      </trkpt>
      <trkpt lat="43.9562" lon="7.27905">
        <ele>674.7</ele>
        <time>2012-08-19T04:06:42Z</time>
      </trkpt>
      <trkpt lat="43.95629" lon="7.27914">
        <ele>677</ele>
        <time>2012-08-19T04:06:48Z</time>
      </trkpt>
      <trkpt lat="43.95639" lon="7.27919">
        <ele>679.3</ele>
        <time>2012-08-19T04:06:54Z</time>
      </trkpt>
      <trkpt lat="43.95648" lon="7.27919">
        <ele>682.2</ele>
        <time>2012-08-19T04:06:59Z</time>
      </trkpt>
      <trkpt lat="43.95658" lon="7.27918">
        <ele>684.5</ele>
        <time>2012-08-19T04:07:05Z</time>
      </trkpt>
      <trkpt lat="43.95667" lon="7.27911">
        <ele>687.1</ele>
        <time>2012-08-19T04:07:11Z</time>
      </trkpt>
      <trkpt lat="43.95678" lon="7.27907">
        <ele>689.7</ele>
        <time>2012-08-19T04:07:16Z</time>
      </trkpt>
      <trkpt lat="43.95688" lon="7.27911">
        <ele>690.1</ele>
        <time>2012-08-19T04:07:20Z</time>
      </trkpt>
      <trkpt lat="43.95696" lon="7.27915">
        <ele>690.5</ele>
        <time>2012-08-19T04:07:25Z</time>
      </trkpt>
      <trkpt lat="43.95706" lon="7.27915">
        <ele>690.8</ele>
        <time>2012-08-19T04:07:35Z</time>
      </trkpt>
      <trkpt lat="43.95714" lon="7.27912">
        <ele>691.2</ele>
        <time>2012-08-19T04:07:40Z</time>
      </trkpt>
      <trkpt lat="43.95725" lon="7.27905">
        <ele>690.2</ele>
        <time>2012-08-19T04:07:43Z</time>
      </trkpt>
      <trkpt lat="43.95734" lon="7.27901">
        <ele>690.5</ele>
        <time>2012-08-19T04:07:45Z</time>
      </trkpt>
      <trkpt lat="43.95744" lon="7.27898">
        <ele>690.9</ele>
        <time>2012-08-19T04:07:48Z</time>
      </trkpt>
      <trkpt lat="43.95753" lon="7.27895">
        <ele>690.9</ele>
        <time>2012-08-19T04:07:52Z</time>
      </trkpt>
      <trkpt lat="43.9576" lon="7.27886">
        <ele>690.9</ele>
        <time>2012-08-19T04:07:58Z</time>
      </trkpt>
      <trkpt lat="43.9577" lon="7.27883">
        <ele>690.5</ele>
        <time>2012-08-19T04:08:08Z</time>
      </trkpt>
      <trkpt lat="43.95779" lon="7.27889">
        <ele>690.2</ele>
        <time>2012-08-19T04:08:15Z</time>
      </trkpt>
      <trkpt lat="43.95789" lon="7.27895">
        <ele>689.8</ele>
        <time>2012-08-19T04:08:21Z</time>
      </trkpt>
      <trkpt lat="43.95798" lon="7.27901">
        <ele>689.5</ele>
        <time>2012-08-19T04:08:26Z</time>
      </trkpt>
      <trkpt lat="43.95809" lon="7.27903">
        <ele>689.1</ele>
        <time>2012-08-19T04:08:31Z</time>
      </trkpt>
      <trkpt lat="43.95819" lon="7.27907">
        <ele>688.7</ele>
        <time>2012-08-19T04:08:35Z</time>
      </trkpt>
      <trkpt lat="43.9583" lon="7.27909">
        <ele>689.7</ele>
        <time>2012-08-19T04:08:38Z</time>
      </trkpt>
      <trkpt lat="43.95841" lon="7.27907">
        <ele>691.5</ele>
        <time>2012-08-19T04:08:42Z</time>
      </trkpt>
      <trkpt lat="43.9585" lon="7.27903">
        <ele>693.2</ele>
        <time>2012-08-19T04:08:45Z</time>
      </trkpt>
      <trkpt lat="43.95859" lon="7.27899">
        <ele>695.3</ele>
        <time>2012-08-19T04:08:48Z</time>
      </trkpt>
      <trkpt lat="43.9587" lon="7.27896">
        <ele>697.4</ele>
        <time>2012-08-19T04:08:52Z</time>
      </trkpt>
      <trkpt lat="43.95879" lon="7.27894">
        <ele>699.5</ele>
        <time>2012-08-19T04:08:58Z</time>
      </trkpt>
      <trkpt lat="43.95883" lon="7.27882">
        <ele>701.5</ele>
        <time>2012-08-19T04:09:06Z</time>
      </trkpt>
      <trkpt lat="43.95886" lon="7.27869">
        <ele>703.6</ele>
        <time>2012-08-19T04:09:12Z</time>
      </trkpt>
      <trkpt lat="43.9589" lon="7.27857">
        <ele>706</ele>
        <time>2012-08-19T04:09:17Z</time>
      </trkpt>
      <trkpt lat="43.95893" lon="7.27844">
        <ele>708.4</ele>
        <time>2012-08-19T04:09:24Z</time>
      </trkpt>
      <trkpt lat="43.95895" lon="7.27831">
        <ele>710.7</ele>
        <time>2012-08-19T04:09:29Z</time>
      </trkpt>
      <trkpt lat="43.95897" lon="7.27819">
        <ele>713.1</ele>
        <time>2012-08-19T04:09:36Z</time>
      </trkpt>
      <trkpt lat="43.95898" lon="7.27804">
        <ele>713.4</ele>
        <time>2012-08-19T04:09:42Z</time>
      </trkpt>
      <trkpt lat="43.959" lon="7.27791">
        <ele>713.6</ele>
        <time>2012-08-19T04:09:46Z</time>
      </trkpt>
      <trkpt lat="43.95903" lon="7.27778">
        <ele>713.9</ele>
        <time>2012-08-19T04:09:51Z</time>
      </trkpt>
      <trkpt lat="43.95905" lon="7.27764">
        <ele>713.5</ele>
        <time>2012-08-19T04:09:57Z</time>
      </trkpt>
      <trkpt lat="43.95909" lon="7.27752">
        <ele>713.2</ele>
        <time>2012-08-19T04:10:02Z</time>
      </trkpt>
      <trkpt lat="43.95915" lon="7.2774">
        <ele>712.8</ele>
        <time>2012-08-19T04:10:07Z</time>
      </trkpt>
      <trkpt lat="43.95923" lon="7.27731">
        <ele>712.5</ele>
        <time>2012-08-19T04:10:13Z</time>
      </trkpt>
      <trkpt lat="43.95929" lon="7.2772">
        <ele>711.8</ele>
        <time>2012-08-19T04:10:19Z</time>
      </trkpt>
      <trkpt lat="43.9593" lon="7.27707">
        <ele>711.2</ele>
        <time>2012-08-19T04:10:22Z</time>
      </trkpt>
      <trkpt lat="43.95927" lon="7.27692">
        <ele>710.2</ele>
        <time>2012-08-19T04:10:25Z</time>
      </trkpt>
      <trkpt lat="43.95924" lon="7.27679">
        <ele>709.2</ele>
        <time>2012-08-19T04:10:28Z</time>
      </trkpt>
      <trkpt lat="43.95923" lon="7.27666">
        <ele>708.2</ele>
        <time>2012-08-19T04:10:32Z</time>
      </trkpt>
      <trkpt lat="43.95925" lon="7.27652">
        <ele>707.2</ele>
        <time>2012-08-19T04:10:38Z</time>
      </trkpt>
      <trkpt lat="43.95931" lon="7.2764">
        <ele>706.2</ele>
        <time>2012-08-19T04:10:44Z</time>
      </trkpt>
      <trkpt lat="43.95935" lon="7.27629">
        <ele>705.8</ele>
        <time>2012-08-19T04:10:50Z</time>
      </trkpt>
      <trkpt lat="43.95939" lon="7.27616">
        <ele>705.5</ele>
        <time>2012-08-19T04:10:54Z</time>
      </trkpt>
      <trkpt lat="43.95941" lon="7.276">
        <ele>705</ele>
        <time>2012-08-19T04:10:58Z</time>
      </trkpt>
      <trkpt lat="43.95943" lon="7.27588">
        <ele>704.5</ele>
        <time>2012-08-19T04:11:01Z</time>
      </trkpt>
      <trkpt lat="43.95943" lon="7.27575">
        <ele>704.1</ele>
        <time>2012-08-19T04:11:04Z</time>
      </trkpt>
      <trkpt lat="43.95941" lon="7.27561">
        <ele>703.6</ele>
        <time>2012-08-19T04:11:08Z</time>
      </trkpt>
      <trkpt lat="43.95939" lon="7.27545">
        <ele>703.5</ele>
        <time>2012-08-19T04:11:12Z</time>
      </trkpt>
      <trkpt lat="43.95938" lon="7.27531">
        <ele>703.2</ele>
        <time>2012-08-19T04:11:15Z</time>
      </trkpt>
      <trkpt lat="43.95936" lon="7.27517">
        <ele>702.8</ele>
        <time>2012-08-19T04:11:19Z</time>
      </trkpt>
      <trkpt lat="43.95934" lon="7.27501">
        <ele>702.5</ele>
        <time>2012-08-19T04:11:23Z</time>
      </trkpt>
      <trkpt lat="43.95931" lon="7.27485">
        <ele>702.1</ele>
        <time>2012-08-19T04:11:27Z</time>
      </trkpt>
      <trkpt lat="43.9593" lon="7.27472">
        <ele>701.7</ele>
        <time>2012-08-19T04:11:31Z</time>
      </trkpt>
      <trkpt lat="43.95929" lon="7.27459">
        <ele>701.4</ele>
        <time>2012-08-19T04:11:35Z</time>
      </trkpt>
      <trkpt lat="43.95932" lon="7.27445">
        <ele>701.1</ele>
        <time>2012-08-19T04:11:39Z</time>
      </trkpt>
      <trkpt lat="43.95933" lon="7.27432">
        <ele>704.2</ele>
        <time>2012-08-19T04:11:42Z</time>
      </trkpt>
      <trkpt lat="43.95935" lon="7.2742">
        <ele>706.5</ele>
        <time>2012-08-19T04:11:45Z</time>
      </trkpt>
      <trkpt lat="43.95939" lon="7.27405">
        <ele>708.7</ele>
        <time>2012-08-19T04:11:49Z</time>
      </trkpt>
      <trkpt lat="43.95947" lon="7.27397">
        <ele>708.6</ele>
        <time>2012-08-19T04:11:53Z</time>
      </trkpt>
      <trkpt lat="43.95954" lon="7.27387">
        <ele>708.8</ele>
        <time>2012-08-19T04:11:58Z</time>
      </trkpt>
      <trkpt lat="43.95963" lon="7.27382">
        <ele>709</ele>
        <time>2012-08-19T04:12:05Z</time>
      </trkpt>
      <trkpt lat="43.95965" lon="7.27369">
        <ele>709.2</ele>
        <time>2012-08-19T04:12:11Z</time>
      </trkpt>
      <trkpt lat="43.95963" lon="7.27355">
        <ele>709.4</ele>
        <time>2012-08-19T04:12:16Z</time>
      </trkpt>
      <trkpt lat="43.95957" lon="7.27345">
        <ele>710.2</ele>
        <time>2012-08-19T04:12:25Z</time>
      </trkpt>
      <trkpt lat="43.95954" lon="7.27334">
        <ele>711</ele>
        <time>2012-08-19T04:12:30Z</time>
      </trkpt>
      <trkpt lat="43.95948" lon="7.27322">
        <ele>711.8</ele>
        <time>2012-08-19T04:12:36Z</time>
      </trkpt>
      <trkpt lat="43.95939" lon="7.27314">
        <ele>709.3</ele>
        <time>2012-08-19T04:12:42Z</time>
      </trkpt>
      <trkpt lat="43.95932" lon="7.27306">
        <ele>707.5</ele>
        <time>2012-08-19T04:12:48Z</time>
      </trkpt>
      <trkpt lat="43.9593" lon="7.27291">
        <ele>705.8</ele>
        <time>2012-08-19T04:12:56Z</time>
      </trkpt>
      <trkpt lat="43.95933" lon="7.27278">
        <ele>706.5</ele>
        <time>2012-08-19T04:13:00Z</time>
      </trkpt>
      <trkpt lat="43.95936" lon="7.27265">
        <ele>706</ele>
        <time>2012-08-19T04:13:04Z</time>
      </trkpt>
      <trkpt lat="43.95938" lon="7.27253">
        <ele>705.5</ele>
        <time>2012-08-19T04:13:07Z</time>
      </trkpt>
      <trkpt lat="43.9594" lon="7.27239">
        <ele>707.9</ele>
        <time>2012-08-19T04:13:10Z</time>
      </trkpt>
      <trkpt lat="43.95942" lon="7.27224">
        <ele>710.3</ele>
        <time>2012-08-19T04:13:14Z</time>
      </trkpt>
      <trkpt lat="43.95947" lon="7.27213">
        <ele>712</ele>
        <time>2012-08-19T04:13:20Z</time>
      </trkpt>
      <trkpt lat="43.95952" lon="7.27201">
        <ele>713.7</ele>
        <time>2012-08-19T04:13:26Z</time>
      </trkpt>
      <trkpt lat="43.95957" lon="7.27189">
        <ele>713.8</ele>
        <time>2012-08-19T04:13:31Z</time>
      </trkpt>
      <trkpt lat="43.95963" lon="7.27177">
        <ele>713.9</ele>
        <time>2012-08-19T04:13:36Z</time>
      </trkpt>
      <trkpt lat="43.95969" lon="7.27163">
        <ele>714</ele>
        <time>2012-08-19T04:13:41Z</time>
      </trkpt>
      <trkpt lat="43.95974" lon="7.27152">
        <ele>714.1</ele>
        <time>2012-08-19T04:13:45Z</time>
      </trkpt>
      <trkpt lat="43.9598" lon="7.27139">
        <ele>714.2</ele>
        <time>2012-08-19T04:13:51Z</time>
      </trkpt>
      <trkpt lat="43.95986" lon="7.27126">
        <ele>715.4</ele>
        <time>2012-08-19T04:13:57Z</time>
      </trkpt>
      <trkpt lat="43.95991" lon="7.27113">
        <ele>716.5</ele>
        <time>2012-08-19T04:14:02Z</time>
      </trkpt>
      <trkpt lat="43.95997" lon="7.27103">
        <ele>714.9</ele>
        <time>2012-08-19T04:14:07Z</time>
      </trkpt>
      <trkpt lat="43.96004" lon="7.27094">
        <ele>711.5</ele>
        <time>2012-08-19T04:14:12Z</time>
      </trkpt>
      <trkpt lat="43.96017" lon="7.27086">
        <ele>709</ele>
        <time>2012-08-19T04:14:20Z</time>
      </trkpt>
      <trkpt lat="43.96024" lon="7.2708">
        <ele>706.5</ele>
        <time>2012-08-19T04:14:24Z</time>
      </trkpt>
      <trkpt lat="43.96029" lon="7.27067">
        <ele>705.5</ele>
        <time>2012-08-19T04:14:28Z</time>
      </trkpt>
      <trkpt lat="43.96035" lon="7.27057">
        <ele>704.6</ele>
        <time>2012-08-19T04:14:32Z</time>
      </trkpt>
      <trkpt lat="43.96042" lon="7.27047">
        <ele>703.7</ele>
        <time>2012-08-19T04:14:37Z</time>
      </trkpt>
      <trkpt lat="43.9605" lon="7.2704">
        <ele>702.8</ele>
        <time>2012-08-19T04:14:45Z</time>
      </trkpt>
      <trkpt lat="43.96061" lon="7.27029">
        <ele>701.9</ele>
        <time>2012-08-19T04:14:59Z</time>
      </trkpt>
      <trkpt lat="43.9607" lon="7.27022">
        <ele>701</ele>
        <time>2012-08-19T04:15:04Z</time>
      </trkpt>
      <trkpt lat="43.9608" lon="7.27018">
        <ele>700.1</ele>
        <time>2012-08-19T04:15:07Z</time>
      </trkpt>
      <trkpt lat="43.96089" lon="7.27011">
        <ele>701</ele>
        <time>2012-08-19T04:15:11Z</time>
      </trkpt>
      <trkpt lat="43.96097" lon="7.27004">
        <ele>703.6</ele>
        <time>2012-08-19T04:15:18Z</time>
      </trkpt>
      <trkpt lat="43.96106" lon="7.26998">
        <ele>705.5</ele>
        <time>2012-08-19T04:15:21Z</time>
      </trkpt>
      <trkpt lat="43.96114" lon="7.26992">
        <ele>703.2</ele>
        <time>2012-08-19T04:15:24Z</time>
      </trkpt>
      <trkpt lat="43.96124" lon="7.26985">
        <ele>700.9</ele>
        <time>2012-08-19T04:15:28Z</time>
      </trkpt>
      <trkpt lat="43.96132" lon="7.26979">
        <ele>698.6</ele>
        <time>2012-08-19T04:15:31Z</time>
      </trkpt>
      <trkpt lat="43.96141" lon="7.26977">
        <ele>696.4</ele>
        <time>2012-08-19T04:15:34Z</time>
      </trkpt>
      <trkpt lat="43.9615" lon="7.26972">
        <ele>694.1</ele>
        <time>2012-08-19T04:15:37Z</time>
      </trkpt>
      <trkpt lat="43.96162" lon="7.26966">
        <ele>691.8</ele>
        <time>2012-08-19T04:15:41Z</time>
      </trkpt>
      <trkpt lat="43.96172" lon="7.26966">
        <ele>692.8</ele>
        <time>2012-08-19T04:15:44Z</time>
      </trkpt>
      <trkpt lat="43.96182" lon="7.26965">
        <ele>693.8</ele>
        <time>2012-08-19T04:15:48Z</time>
      </trkpt>
      <trkpt lat="43.96193" lon="7.26962">
        <ele>693</ele>
        <time>2012-08-19T04:15:53Z</time>
      </trkpt>
      <trkpt lat="43.96203" lon="7.26957">
        <ele>692.2</ele>
        <time>2012-08-19T04:15:58Z</time>
      </trkpt>
      <trkpt lat="43.96213" lon="7.26952">
        <ele>691.4</ele>
        <time>2012-08-19T04:16:02Z</time>
      </trkpt>
      <trkpt lat="43.96223" lon="7.26952">
        <ele>694.6</ele>
        <time>2012-08-19T04:16:05Z</time>
      </trkpt>
      <trkpt lat="43.96233" lon="7.26951">
        <ele>697.9</ele>
        <time>2012-08-19T04:16:09Z</time>
      </trkpt>
      <trkpt lat="43.96242" lon="7.26946">
        <ele>701.2</ele>
        <time>2012-08-19T04:16:13Z</time>
      </trkpt>
      <trkpt lat="43.96249" lon="7.26936">
        <ele>702.4</ele>
        <time>2012-08-19T04:16:17Z</time>
      </trkpt>
      <trkpt lat="43.96256" lon="7.26927">
        <ele>703.5</ele>
        <time>2012-08-19T04:16:20Z</time>
      </trkpt>
      <trkpt lat="43.96264" lon="7.26918">
        <ele>704.7</ele>
        <time>2012-08-19T04:16:24Z</time>
      </trkpt>
      <trkpt lat="43.96271" lon="7.26905">
        <ele>705.9</ele>
        <time>2012-08-19T04:16:28Z</time>
      </trkpt>
      <trkpt lat="43.96277" lon="7.26893">
        <ele>707.1</ele>
        <time>2012-08-19T04:16:32Z</time>
      </trkpt>
      <trkpt lat="43.96282" lon="7.2688">
        <ele>708.3</ele>
        <time>2012-08-19T04:16:36Z</time>
      </trkpt>
      <trkpt lat="43.96287" lon="7.26869">
        <ele>709.5</ele>
        <time>2012-08-19T04:16:41Z</time>
      </trkpt>
      <trkpt lat="43.96294" lon="7.26861">
        <ele>710.6</ele>
        <time>2012-08-19T04:16:46Z</time>
      </trkpt>
      <trkpt lat="43.963" lon="7.2685">
        <ele>711.8</ele>
        <time>2012-08-19T04:16:52Z</time>
      </trkpt>
      <trkpt lat="43.96311" lon="7.26845">
        <ele>713</ele>
        <time>2012-08-19T04:16:56Z</time>
      </trkpt>
      <trkpt lat="43.9632" lon="7.26843">
        <ele>714.2</ele>
        <time>2012-08-19T04:17:00Z</time>
      </trkpt>
      <trkpt lat="43.96328" lon="7.26833">
        <ele>717.5</ele>
        <time>2012-08-19T04:17:05Z</time>
      </trkpt>
      <trkpt lat="43.96336" lon="7.26827">
        <ele>721.9</ele>
        <time>2012-08-19T04:17:09Z</time>
      </trkpt>
      <trkpt lat="43.96344" lon="7.26821">
        <ele>726.4</ele>
        <time>2012-08-19T04:17:13Z</time>
      </trkpt>
      <trkpt lat="43.96353" lon="7.26814">
        <ele>727.5</ele>
        <time>2012-08-19T04:17:18Z</time>
      </trkpt>
      <trkpt lat="43.96363" lon="7.26812">
        <ele>728.7</ele>
        <time>2012-08-19T04:17:21Z</time>
      </trkpt>
      <trkpt lat="43.96374" lon="7.2681">
        <ele>729.9</ele>
        <time>2012-08-19T04:17:24Z</time>
      </trkpt>
      <trkpt lat="43.96384" lon="7.26811">
        <ele>731.1</ele>
        <time>2012-08-19T04:17:28Z</time>
      </trkpt>
      <trkpt lat="43.96393" lon="7.26813">
        <ele>732.3</ele>
        <time>2012-08-19T04:17:34Z</time>
      </trkpt>
      <trkpt lat="43.96402" lon="7.26807">
        <ele>733.5</ele>
        <time>2012-08-19T04:17:44Z</time>
      </trkpt>
      <trkpt lat="43.96415" lon="7.26807">
        <ele>734.5</ele>
        <time>2012-08-19T04:17:57Z</time>
      </trkpt>
      <trkpt lat="43.96425" lon="7.26809">
        <ele>735.5</ele>
        <time>2012-08-19T04:18:07Z</time>
      </trkpt>
      <trkpt lat="43.96436" lon="7.26809">
        <ele>736.5</ele>
        <time>2012-08-19T04:18:12Z</time>
      </trkpt>
      <trkpt lat="43.96451" lon="7.26813">
        <ele>736.3</ele>
        <time>2012-08-19T04:18:17Z</time>
      </trkpt>
      <trkpt lat="43.9646" lon="7.26817">
        <ele>736.1</ele>
        <time>2012-08-19T04:18:19Z</time>
      </trkpt>
      <trkpt lat="43.96469" lon="7.26821">
        <ele>735.9</ele>
        <time>2012-08-19T04:18:21Z</time>
      </trkpt>
      <trkpt lat="43.96482" lon="7.26828">
        <ele>735.7</ele>
        <time>2012-08-19T04:18:25Z</time>
      </trkpt>
      <trkpt lat="43.96494" lon="7.26835">
        <ele>735.9</ele>
        <time>2012-08-19T04:18:29Z</time>
      </trkpt>
      <trkpt lat="43.96506" lon="7.26842">
        <ele>736.1</ele>
        <time>2012-08-19T04:18:33Z</time>
      </trkpt>
      <trkpt lat="43.96516" lon="7.26847">
        <ele>736.3</ele>
        <time>2012-08-19T04:18:37Z</time>
      </trkpt>
      <trkpt lat="43.96526" lon="7.26849">
        <ele>736.5</ele>
        <time>2012-08-19T04:18:42Z</time>
      </trkpt>
      <trkpt lat="43.96536" lon="7.26848">
        <ele>736.8</ele>
        <time>2012-08-19T04:18:52Z</time>
      </trkpt>
      <trkpt lat="43.96546" lon="7.26851">
        <ele>737.2</ele>
        <time>2012-08-19T04:18:56Z</time>
      </trkpt>
      <trkpt lat="43.96556" lon="7.26852">
        <ele>737.5</ele>
        <time>2012-08-19T04:19:00Z</time>
      </trkpt>
      <trkpt lat="43.96566" lon="7.26851">
        <ele>737.9</ele>
        <time>2012-08-19T04:19:05Z</time>
      </trkpt>
      <trkpt lat="43.96576" lon="7.26853">
        <ele>738.3</ele>
        <time>2012-08-19T04:19:09Z</time>
      </trkpt>
      <trkpt lat="43.96585" lon="7.26848">
        <ele>740.9</ele>
        <time>2012-08-19T04:19:14Z</time>
      </trkpt>
      <trkpt lat="43.96595" lon="7.26844">
        <ele>743.5</ele>
        <time>2012-08-19T04:19:19Z</time>
      </trkpt>
      <trkpt lat="43.96605" lon="7.26843">
        <ele>745.8</ele>
        <time>2012-08-19T04:19:23Z</time>
      </trkpt>
      <trkpt lat="43.96616" lon="7.26842">
        <ele>748.1</ele>
        <time>2012-08-19T04:19:27Z</time>
      </trkpt>
      <trkpt lat="43.96625" lon="7.2684">
        <ele>750.4</ele>
        <time>2012-08-19T04:19:31Z</time>
      </trkpt>
      <trkpt lat="43.96634" lon="7.26839">
        <ele>752.6</ele>
        <time>2012-08-19T04:19:34Z</time>
      </trkpt>
      <trkpt lat="43.96644" lon="7.26837">
        <ele>752.2</ele>
        <time>2012-08-19T04:19:37Z</time>
      </trkpt>
      <trkpt lat="43.96655" lon="7.26832">
        <ele>751.7</ele>
        <time>2012-08-19T04:19:41Z</time>
      </trkpt>
      <trkpt lat="43.96664" lon="7.26825">
        <ele>751.3</ele>
        <time>2012-08-19T04:19:46Z</time>
      </trkpt>
      <trkpt lat="43.96674" lon="7.2682">
        <ele>750.8</ele>
        <time>2012-08-19T04:19:51Z</time>
      </trkpt>
      <trkpt lat="43.96682" lon="7.26811">
        <ele>753.4</ele>
        <time>2012-08-19T04:19:56Z</time>
      </trkpt>
      <trkpt lat="43.96687" lon="7.268">
        <ele>753.6</ele>
        <time>2012-08-19T04:20:01Z</time>
      </trkpt>
      <trkpt lat="43.96693" lon="7.2679">
        <ele>753.9</ele>
        <time>2012-08-19T04:20:07Z</time>
      </trkpt>
      <trkpt lat="43.967" lon="7.26781">
        <ele>754.2</ele>
        <time>2012-08-19T04:20:12Z</time>
      </trkpt>
      <trkpt lat="43.96709" lon="7.2677">
        <ele>754.5</ele>
        <time>2012-08-19T04:20:32Z</time>
      </trkpt>
      <trkpt lat="43.96718" lon="7.26765">
        <ele>754.7</ele>
        <time>2012-08-19T04:20:39Z</time>
      </trkpt>
      <trkpt lat="43.96726" lon="7.26761">
        <ele>755</ele>
        <time>2012-08-19T04:20:44Z</time>
      </trkpt>
      <trkpt lat="43.96735" lon="7.26756">
        <ele>758</ele>
        <time>2012-08-19T04:20:49Z</time>
      </trkpt>
      <trkpt lat="43.96744" lon="7.2675">
        <ele>761</ele>
        <time>2012-08-19T04:20:53Z</time>
      </trkpt>
      <trkpt lat="43.96754" lon="7.26745">
        <ele>764</ele>
        <time>2012-08-19T04:20:57Z</time>
      </trkpt>
      <trkpt lat="43.96763" lon="7.26741">
        <ele>769.6</ele>
        <time>2012-08-19T04:21:01Z</time>
      </trkpt>
      <trkpt lat="43.96771" lon="7.26735">
        <ele>772.3</ele>
        <time>2012-08-19T04:21:08Z</time>
      </trkpt>
      <trkpt lat="43.96777" lon="7.26724">
        <ele>774.9</ele>
        <time>2012-08-19T04:21:28Z</time>
      </trkpt>
      <trkpt lat="43.96786" lon="7.26722">
        <ele>777.5</ele>
        <time>2012-08-19T04:21:38Z</time>
      </trkpt>
      <trkpt lat="43.96796" lon="7.2672">
        <ele>780.2</ele>
        <time>2012-08-19T04:21:42Z</time>
      </trkpt>
      <trkpt lat="43.96805" lon="7.2672">
        <ele>782.8</ele>
        <time>2012-08-19T04:21:46Z</time>
      </trkpt>
      <trkpt lat="43.96818" lon="7.26724">
        <ele>781.5</ele>
        <time>2012-08-19T04:21:54Z</time>
      </trkpt>
      <trkpt lat="43.96829" lon="7.26728">
        <ele>780.3</ele>
        <time>2012-08-19T04:22:01Z</time>
      </trkpt>
      <trkpt lat="43.96839" lon="7.26729">
        <ele>779</ele>
        <time>2012-08-19T04:22:07Z</time>
      </trkpt>
      <trkpt lat="43.9685" lon="7.26729">
        <ele>779.7</ele>
        <time>2012-08-19T04:22:13Z</time>
      </trkpt>
      <trkpt lat="43.96858" lon="7.26725">
        <ele>780.5</ele>
        <time>2012-08-19T04:22:17Z</time>
      </trkpt>
      <trkpt lat="43.96861" lon="7.26712">
        <ele>778.5</ele>
        <time>2012-08-19T04:22:21Z</time>
      </trkpt>
      <trkpt lat="43.96869" lon="7.26705">
        <ele>776.6</ele>
        <time>2012-08-19T04:22:31Z</time>
      </trkpt>
      <trkpt lat="43.96876" lon="7.26716">
        <ele>774.7</ele>
        <time>2012-08-19T04:22:36Z</time>
      </trkpt>
      <trkpt lat="43.96883" lon="7.26727">
        <ele>772.8</ele>
        <time>2012-08-19T04:22:42Z</time>
      </trkpt>
      <trkpt lat="43.96892" lon="7.26733">
        <ele>770.9</ele>
        <time>2012-08-19T04:22:48Z</time>
      </trkpt>
      <trkpt lat="43.96901" lon="7.26737">
        <ele>769</ele>
        <time>2012-08-19T04:22:53Z</time>
      </trkpt>
      <trkpt lat="43.96911" lon="7.26741">
        <ele>771</ele>
        <time>2012-08-19T04:22:58Z</time>
      </trkpt>
      <trkpt lat="43.96919" lon="7.26751">
        <ele>776.6</ele>
        <time>2012-08-19T04:23:03Z</time>
      </trkpt>
      <trkpt lat="43.96928" lon="7.2676">
        <ele>782.3</ele>
        <time>2012-08-19T04:23:08Z</time>
      </trkpt>
      <trkpt lat="43.96933" lon="7.26771">
        <ele>785.9</ele>
        <time>2012-08-19T04:23:11Z</time>
      </trkpt>
      <trkpt lat="43.96935" lon="7.26785">
        <ele>788.2</ele>
        <time>2012-08-19T04:23:13Z</time>
      </trkpt>
      <trkpt lat="43.96936" lon="7.26801">
        <ele>790.5</ele>
        <time>2012-08-19T04:23:16Z</time>
      </trkpt>
      <trkpt lat="43.96937" lon="7.26815">
        <ele>792.7</ele>
        <time>2012-08-19T04:23:20Z</time>
      </trkpt>
      <trkpt lat="43.96947" lon="7.26824">
        <ele>795</ele>
        <time>2012-08-19T04:23:24Z</time>
      </trkpt>
      <trkpt lat="43.96957" lon="7.26828">
        <ele>797.3</ele>
        <time>2012-08-19T04:23:29Z</time>
      </trkpt>
      <trkpt lat="43.96966" lon="7.26829">
        <ele>799.5</ele>
        <time>2012-08-19T04:23:36Z</time>
      </trkpt>
      <trkpt lat="43.96977" lon="7.26828">
        <ele>801.8</ele>
        <time>2012-08-19T04:23:40Z</time>
      </trkpt>
      <trkpt lat="43.96988" lon="7.26831">
        <ele>804.1</ele>
        <time>2012-08-19T04:23:44Z</time>
      </trkpt>
      <trkpt lat="43.96997" lon="7.26832">
        <ele>802.7</ele>
        <time>2012-08-19T04:23:51Z</time>
      </trkpt>
      <trkpt lat="43.97006" lon="7.26828">
        <ele>800.7</ele>
        <time>2012-08-19T04:23:58Z</time>
      </trkpt>
      <trkpt lat="43.97014" lon="7.26822">
        <ele>798.7</ele>
        <time>2012-08-19T04:24:04Z</time>
      </trkpt>
      <trkpt lat="43.97024" lon="7.26817">
        <ele>798.1</ele>
        <time>2012-08-19T04:24:09Z</time>
      </trkpt>
      <trkpt lat="43.97033" lon="7.26817">
        <ele>797.5</ele>
        <time>2012-08-19T04:24:14Z</time>
      </trkpt>
      <trkpt lat="43.97043" lon="7.26817">
        <ele>796.8</ele>
        <time>2012-08-19T04:24:20Z</time>
      </trkpt>
      <trkpt lat="43.97052" lon="7.26826">
        <ele>796.2</ele>
        <time>2012-08-19T04:24:26Z</time>
      </trkpt>
      <trkpt lat="43.97062" lon="7.26833">
        <ele>795.5</ele>
        <time>2012-08-19T04:24:30Z</time>
      </trkpt>
      <trkpt lat="43.97071" lon="7.26836">
        <ele>794.9</ele>
        <time>2012-08-19T04:24:34Z</time>
      </trkpt>
      <trkpt lat="43.97081" lon="7.2684">
        <ele>793.1</ele>
        <time>2012-08-19T04:24:40Z</time>
      </trkpt>
      <trkpt lat="43.9709" lon="7.26837">
        <ele>791.3</ele>
        <time>2012-08-19T04:24:44Z</time>
      </trkpt>
      <trkpt lat="43.97099" lon="7.26836">
        <ele>789.5</ele>
        <time>2012-08-19T04:24:48Z</time>
      </trkpt>
      <trkpt lat="43.97108" lon="7.26841">
        <ele>788.3</ele>
        <time>2012-08-19T04:24:52Z</time>
      </trkpt>
      <trkpt lat="43.9712" lon="7.26851">
        <ele>787.1</ele>
        <time>2012-08-19T04:24:57Z</time>
      </trkpt>
      <trkpt lat="43.9713" lon="7.26862">
        <ele>785.9</ele>
        <time>2012-08-19T04:25:02Z</time>
      </trkpt>
      <trkpt lat="43.97136" lon="7.2687">
        <ele>787.9</ele>
        <time>2012-08-19T04:25:07Z</time>
      </trkpt>
      <trkpt lat="43.97146" lon="7.26872">
        <ele>789.9</ele>
        <time>2012-08-19T04:25:13Z</time>
      </trkpt>
      <trkpt lat="43.97156" lon="7.26876">
        <ele>791.9</ele>
        <time>2012-08-19T04:25:17Z</time>
      </trkpt>
      <trkpt lat="43.97167" lon="7.2688">
        <ele>793.9</ele>
        <time>2012-08-19T04:25:20Z</time>
      </trkpt>
      <trkpt lat="43.97176" lon="7.26881">
        <ele>794.6</ele>
        <time>2012-08-19T04:25:24Z</time>
      </trkpt>
      <trkpt lat="43.97186" lon="7.26885">
        <ele>796.5</ele>
        <time>2012-08-19T04:25:30Z</time>
      </trkpt>
      <trkpt lat="43.97195" lon="7.26898">
        <ele>798.5</ele>
        <time>2012-08-19T04:25:37Z</time>
      </trkpt>
      <trkpt lat="43.97201" lon="7.26909">
        <ele>800.4</ele>
        <time>2012-08-19T04:25:41Z</time>
      </trkpt>
      <trkpt lat="43.9721" lon="7.26922">
        <ele>802.3</ele>
        <time>2012-08-19T04:25:47Z</time>
      </trkpt>
      <trkpt lat="43.97216" lon="7.26931">
        <ele>804.2</ele>
        <time>2012-08-19T04:25:52Z</time>
      </trkpt>
      <trkpt lat="43.97219" lon="7.26946">
        <ele>806.1</ele>
        <time>2012-08-19T04:25:59Z</time>
      </trkpt>
      <trkpt lat="43.97228" lon="7.26952">
        <ele>804.8</ele>
        <time>2012-08-19T04:26:03Z</time>
      </trkpt>
      <trkpt lat="43.9724" lon="7.26956">
        <ele>803.5</ele>
        <time>2012-08-19T04:26:06Z</time>
      </trkpt>
      <trkpt lat="43.97249" lon="7.2696">
        <ele>802.3</ele>
        <time>2012-08-19T04:26:09Z</time>
      </trkpt>
      <trkpt lat="43.97259" lon="7.26957">
        <ele>801</ele>
        <time>2012-08-19T04:26:15Z</time>
      </trkpt>
      <trkpt lat="43.97267" lon="7.26947">
        <ele>802.1</ele>
        <time>2012-08-19T04:26:21Z</time>
      </trkpt>
      <trkpt lat="43.97273" lon="7.26938">
        <ele>803.2</ele>
        <time>2012-08-19T04:26:27Z</time>
      </trkpt>
      <trkpt lat="43.97282" lon="7.26929">
        <ele>804.3</ele>
        <time>2012-08-19T04:26:33Z</time>
      </trkpt>
      <trkpt lat="43.97291" lon="7.26923">
        <ele>805.4</ele>
        <time>2012-08-19T04:26:38Z</time>
      </trkpt>
      <trkpt lat="43.97295" lon="7.26906">
        <ele>806.5</ele>
        <time>2012-08-19T04:26:46Z</time>
      </trkpt>
      <trkpt lat="43.97303" lon="7.26899">
        <ele>807.5</ele>
        <time>2012-08-19T04:26:59Z</time>
      </trkpt>
      <trkpt lat="43.97311" lon="7.26904">
        <ele>808.6</ele>
        <time>2012-08-19T04:27:08Z</time>
      </trkpt>
      <trkpt lat="43.97322" lon="7.26912">
        <ele>811.1</ele>
        <time>2012-08-19T04:27:16Z</time>
      </trkpt>
      <trkpt lat="43.97332" lon="7.26913">
        <ele>813.5</ele>
        <time>2012-08-19T04:27:21Z</time>
      </trkpt>
      <trkpt lat="43.97347" lon="7.26917">
        <ele>816</ele>
        <time>2012-08-19T04:27:25Z</time>
      </trkpt>
      <trkpt lat="43.9736" lon="7.26919">
        <ele>818.5</ele>
        <time>2012-08-19T04:27:29Z</time>
      </trkpt>
      <trkpt lat="43.97371" lon="7.2692">
        <ele>819.8</ele>
        <time>2012-08-19T04:27:33Z</time>
      </trkpt>
      <trkpt lat="43.97385" lon="7.2692">
        <ele>822.3</ele>
        <time>2012-08-19T04:27:38Z</time>
      </trkpt>
      <trkpt lat="43.97395" lon="7.26915">
        <ele>824.7</ele>
        <time>2012-08-19T04:27:41Z</time>
      </trkpt>
      <trkpt lat="43.97403" lon="7.26908">
        <ele>827.2</ele>
        <time>2012-08-19T04:27:48Z</time>
      </trkpt>
      <trkpt lat="43.97396" lon="7.26898">
        <ele>829.6</ele>
        <time>2012-08-19T04:27:57Z</time>
      </trkpt>
      <trkpt lat="43.97391" lon="7.26886">
        <ele>832.1</ele>
        <time>2012-08-19T04:28:02Z</time>
      </trkpt>
      <trkpt lat="43.9739" lon="7.26873">
        <ele>837.3</ele>
        <time>2012-08-19T04:28:07Z</time>
      </trkpt>
      <trkpt lat="43.97391" lon="7.26858">
        <ele>841.1</ele>
        <time>2012-08-19T04:28:15Z</time>
      </trkpt>
      <trkpt lat="43.9739" lon="7.26843">
        <ele>840.7</ele>
        <time>2012-08-19T04:28:20Z</time>
      </trkpt>
      <trkpt lat="43.97388" lon="7.2683">
        <ele>840.4</ele>
        <time>2012-08-19T04:28:24Z</time>
      </trkpt>
      <trkpt lat="43.97385" lon="7.26816">
        <ele>840</ele>
        <time>2012-08-19T04:28:29Z</time>
      </trkpt>
      <trkpt lat="43.97385" lon="7.26801">
        <ele>839.6</ele>
        <time>2012-08-19T04:28:36Z</time>
      </trkpt>
      <trkpt lat="43.97384" lon="7.26788">
        <ele>838.2</ele>
        <time>2012-08-19T04:28:47Z</time>
      </trkpt>
      <trkpt lat="43.97379" lon="7.26777">
        <ele>836.7</ele>
        <time>2012-08-19T04:28:52Z</time>
      </trkpt>
      <trkpt lat="43.97372" lon="7.26767">
        <ele>838.7</ele>
        <time>2012-08-19T04:28:58Z</time>
      </trkpt>
      <trkpt lat="43.97365" lon="7.26757">
        <ele>840.7</ele>
        <time>2012-08-19T04:29:05Z</time>
      </trkpt>
      <trkpt lat="43.97359" lon="7.26746">
        <ele>842.7</ele>
        <time>2012-08-19T04:29:16Z</time>
      </trkpt>
      <trkpt lat="43.97351" lon="7.26736">
        <ele>842</ele>
        <time>2012-08-19T04:29:27Z</time>
      </trkpt>
      <trkpt lat="43.97345" lon="7.26726">
        <ele>841.3</ele>
        <time>2012-08-19T04:29:31Z</time>
      </trkpt>
      <trkpt lat="43.97337" lon="7.26717">
        <ele>844.7</ele>
        <time>2012-08-19T04:29:35Z</time>
      </trkpt>
      <trkpt lat="43.97328" lon="7.2671">
        <ele>848.2</ele>
        <time>2012-08-19T04:29:40Z</time>
      </trkpt>
      <trkpt lat="43.9732" lon="7.26703">
        <ele>854.2</ele>
        <time>2012-08-19T04:29:47Z</time>
      </trkpt>
      <trkpt lat="43.97316" lon="7.26691">
        <ele>860.2</ele>
        <time>2012-08-19T04:29:56Z</time>
      </trkpt>
      <trkpt lat="43.97321" lon="7.26673">
        <ele>861.2</ele>
        <time>2012-08-19T04:30:11Z</time>
      </trkpt>
      <trkpt lat="43.97324" lon="7.26659">
        <ele>862.2</ele>
        <time>2012-08-19T04:30:20Z</time>
      </trkpt>
      <trkpt lat="43.9732" lon="7.26644">
        <ele>859.7</ele>
        <time>2012-08-19T04:30:25Z</time>
      </trkpt>
      <trkpt lat="43.97313" lon="7.26632">
        <ele>857.3</ele>
        <time>2012-08-19T04:30:29Z</time>
      </trkpt>
      <trkpt lat="43.97306" lon="7.26624">
        <ele>854.8</ele>
        <time>2012-08-19T04:30:35Z</time>
      </trkpt>
      <trkpt lat="43.97296" lon="7.26619">
        <ele>852.4</ele>
        <time>2012-08-19T04:30:47Z</time>
      </trkpt>
      <trkpt lat="43.97286" lon="7.26615">
        <ele>849.9</ele>
        <time>2012-08-19T04:30:55Z</time>
      </trkpt>
      <trkpt lat="43.97277" lon="7.26613">
        <ele>852.5</ele>
        <time>2012-08-19T04:30:59Z</time>
      </trkpt>
      <trkpt lat="43.97281" lon="7.26601">
        <ele>855</ele>
        <time>2012-08-19T04:31:16Z</time>
      </trkpt>
      <trkpt lat="43.97283" lon="7.26589">
        <ele>855.4</ele>
        <time>2012-08-19T04:31:29Z</time>
      </trkpt>
      <trkpt lat="43.97287" lon="7.26577">
        <ele>855.7</ele>
        <time>2012-08-19T04:31:37Z</time>
      </trkpt>
      <trkpt lat="43.97294" lon="7.26567">
        <ele>856.8</ele>
        <time>2012-08-19T04:31:47Z</time>
      </trkpt>
      <trkpt lat="43.973" lon="7.26556">
        <ele>857.9</ele>
        <time>2012-08-19T04:31:57Z</time>
      </trkpt>
      <trkpt lat="43.97301" lon="7.26543">
        <ele>859</ele>
        <time>2012-08-19T04:32:02Z</time>
      </trkpt>
      <trkpt lat="43.973" lon="7.26529">
        <ele>860.1</ele>
        <time>2012-08-19T04:32:06Z</time>
      </trkpt>
      <trkpt lat="43.97298" lon="7.26516">
        <ele>862.5</ele>
        <time>2012-08-19T04:32:10Z</time>
      </trkpt>
      <trkpt lat="43.97293" lon="7.26503">
        <ele>865</ele>
        <time>2012-08-19T04:32:16Z</time>
      </trkpt>
      <trkpt lat="43.97288" lon="7.26491">
        <ele>867.5</ele>
        <time>2012-08-19T04:32:21Z</time>
      </trkpt>
      <trkpt lat="43.97283" lon="7.26478">
        <ele>864.9</ele>
        <time>2012-08-19T04:32:27Z</time>
      </trkpt>
      <trkpt lat="43.97278" lon="7.26468">
        <ele>864.6</ele>
        <time>2012-08-19T04:32:34Z</time>
      </trkpt>
      <trkpt lat="43.97275" lon="7.26455">
        <ele>864</ele>
        <time>2012-08-19T04:32:42Z</time>
      </trkpt>
      <trkpt lat="43.9727" lon="7.26444">
        <ele>863.4</ele>
        <time>2012-08-19T04:32:52Z</time>
      </trkpt>
      <trkpt lat="43.97279" lon="7.26442">
        <ele>867</ele>
        <time>2012-08-19T04:33:02Z</time>
      </trkpt>
      <trkpt lat="43.97288" lon="7.26441">
        <ele>870.6</ele>
        <time>2012-08-19T04:33:06Z</time>
      </trkpt>
      <trkpt lat="43.97298" lon="7.26439">
        <ele>874.3</ele>
        <time>2012-08-19T04:33:09Z</time>
      </trkpt>
      <trkpt lat="43.97307" lon="7.26431">
        <ele>876.3</ele>
        <time>2012-08-19T04:33:13Z</time>
      </trkpt>
      <trkpt lat="43.97314" lon="7.26421">
        <ele>876.9</ele>
        <time>2012-08-19T04:33:18Z</time>
      </trkpt>
      <trkpt lat="43.97319" lon="7.2641">
        <ele>877.5</ele>
        <time>2012-08-19T04:33:24Z</time>
      </trkpt>
      <trkpt lat="43.97321" lon="7.26397">
        <ele>878.2</ele>
        <time>2012-08-19T04:33:29Z</time>
      </trkpt>
      <trkpt lat="43.97322" lon="7.26382">
        <ele>878.8</ele>
        <time>2012-08-19T04:33:34Z</time>
      </trkpt>
      <trkpt lat="43.97324" lon="7.26369">
        <ele>877.2</ele>
        <time>2012-08-19T04:33:38Z</time>
      </trkpt>
      <trkpt lat="43.97327" lon="7.26355">
        <ele>875.5</ele>
        <time>2012-08-19T04:33:43Z</time>
      </trkpt>
      <trkpt lat="43.97334" lon="7.26348">
        <ele>873.2</ele>
        <time>2012-08-19T04:33:48Z</time>
      </trkpt>
      <trkpt lat="43.97344" lon="7.26346">
        <ele>870.8</ele>
        <time>2012-08-19T04:33:55Z</time>
      </trkpt>
      <trkpt lat="43.97356" lon="7.26345">
        <ele>868.5</ele>
        <time>2012-08-19T04:34:15Z</time>
      </trkpt>
      <trkpt lat="43.97366" lon="7.2635">
        <ele>870.5</ele>
        <time>2012-08-19T04:34:22Z</time>
      </trkpt>
      <trkpt lat="43.97376" lon="7.2636">
        <ele>874.3</ele>
        <time>2012-08-19T04:34:27Z</time>
      </trkpt>
      <trkpt lat="43.97389" lon="7.26367">
        <ele>878</ele>
        <time>2012-08-19T04:34:30Z</time>
      </trkpt>
      <trkpt lat="43.97401" lon="7.26372">
        <ele>881.7</ele>
        <time>2012-08-19T04:34:33Z</time>
      </trkpt>
      <trkpt lat="43.97412" lon="7.26377">
        <ele>882.7</ele>
        <time>2012-08-19T04:34:36Z</time>
      </trkpt>
      <trkpt lat="43.97422" lon="7.26381">
        <ele>883.7</ele>
        <time>2012-08-19T04:34:39Z</time>
      </trkpt>
      <trkpt lat="43.97433" lon="7.26385">
        <ele>884.7</ele>
        <time>2012-08-19T04:34:43Z</time>
      </trkpt>
      <trkpt lat="43.97443" lon="7.26389">
        <ele>885.7</ele>
        <time>2012-08-19T04:34:47Z</time>
      </trkpt>
      <trkpt lat="43.97452" lon="7.26394">
        <ele>887.5</ele>
        <time>2012-08-19T04:34:52Z</time>
      </trkpt>
      <trkpt lat="43.97464" lon="7.26394">
        <ele>889.2</ele>
        <time>2012-08-19T04:34:57Z</time>
      </trkpt>
      <trkpt lat="43.97474" lon="7.26396">
        <ele>890.9</ele>
        <time>2012-08-19T04:35:01Z</time>
      </trkpt>
      <trkpt lat="43.97483" lon="7.26398">
        <ele>888.2</ele>
        <time>2012-08-19T04:35:04Z</time>
      </trkpt>
      <trkpt lat="43.97493" lon="7.26402">
        <ele>889.9</ele>
        <time>2012-08-19T04:35:08Z</time>
      </trkpt>
      <trkpt lat="43.97506" lon="7.26408">
        <ele>891.6</ele>
        <time>2012-08-19T04:35:36Z</time>
      </trkpt>
      <trkpt lat="43.97514" lon="7.26425">
        <ele>893.4</ele>
        <time>2012-08-19T04:35:40Z</time>
      </trkpt>
      <trkpt lat="43.97519" lon="7.26438">
        <ele>894.3</ele>
        <time>2012-08-19T04:35:42Z</time>
      </trkpt>
      <trkpt lat="43.97524" lon="7.26453">
        <ele>895.2</ele>
        <time>2012-08-19T04:35:45Z</time>
      </trkpt>
      <trkpt lat="43.9753" lon="7.26468">
        <ele>896.1</ele>
        <time>2012-08-19T04:35:48Z</time>
      </trkpt>
      <trkpt lat="43.97536" lon="7.26479">
        <ele>897</ele>
        <time>2012-08-19T04:35:54Z</time>
      </trkpt>
      <trkpt lat="43.97544" lon="7.26491">
        <ele>897.9</ele>
        <time>2012-08-19T04:35:58Z</time>
      </trkpt>
      <trkpt lat="43.97554" lon="7.26493">
        <ele>898.8</ele>
        <time>2012-08-19T04:36:00Z</time>
      </trkpt>
      <trkpt lat="43.97565" lon="7.26494">
        <ele>899.7</ele>
        <time>2012-08-19T04:36:02Z</time>
      </trkpt>
      <trkpt lat="43.97577" lon="7.26497">
        <ele>900.6</ele>
        <time>2012-08-19T04:36:05Z</time>
      </trkpt>
      <trkpt lat="43.97588" lon="7.26499">
        <ele>897.1</ele>
        <time>2012-08-19T04:36:08Z</time>
      </trkpt>
      <trkpt lat="43.97596" lon="7.26494">
        <ele>893.5</ele>
        <time>2012-08-19T04:36:13Z</time>
      </trkpt>
      <trkpt lat="43.97606" lon="7.26493">
        <ele>894.6</ele>
        <time>2012-08-19T04:36:18Z</time>
      </trkpt>
      <trkpt lat="43.97613" lon="7.26503">
        <ele>894.8</ele>
        <time>2012-08-19T04:36:27Z</time>
      </trkpt>
      <trkpt lat="43.97619" lon="7.26513">
        <ele>899.5</ele>
        <time>2012-08-19T04:36:32Z</time>
      </trkpt>
      <trkpt lat="43.97622" lon="7.26527">
        <ele>899.6</ele>
        <time>2012-08-19T04:36:37Z</time>
      </trkpt>
      <trkpt lat="43.97623" lon="7.2654">
        <ele>899.8</ele>
        <time>2012-08-19T04:36:40Z</time>
      </trkpt>
      <trkpt lat="43.97624" lon="7.26554">
        <ele>900</ele>
        <time>2012-08-19T04:36:43Z</time>
      </trkpt>
      <trkpt lat="43.97627" lon="7.26566">
        <ele>900.2</ele>
        <time>2012-08-19T04:36:47Z</time>
      </trkpt>
      <trkpt lat="43.97625" lon="7.26578">
        <ele>900.4</ele>
        <time>2012-08-19T04:36:52Z</time>
      </trkpt>
      <trkpt lat="43.97632" lon="7.26588">
        <ele>900.5</ele>
        <time>2012-08-19T04:36:56Z</time>
      </trkpt>
      <trkpt lat="43.9764" lon="7.26595">
        <ele>900.7</ele>
        <time>2012-08-19T04:37:00Z</time>
      </trkpt>
      <trkpt lat="43.97649" lon="7.26603">
        <ele>900.9</ele>
        <time>2012-08-19T04:37:04Z</time>
      </trkpt>
      <trkpt lat="43.97658" lon="7.26611">
        <ele>896.5</ele>
        <time>2012-08-19T04:37:09Z</time>
      </trkpt>
      <trkpt lat="43.97666" lon="7.26623">
        <ele>896.5</ele>
        <time>2012-08-19T04:37:13Z</time>
      </trkpt>
      <trkpt lat="43.97672" lon="7.26632">
        <ele>892</ele>
        <time>2012-08-19T04:37:17Z</time>
      </trkpt>
      <trkpt lat="43.97682" lon="7.26626">
        <ele>892.9</ele>
        <time>2012-08-19T04:37:23Z</time>
      </trkpt>
      <trkpt lat="43.9769" lon="7.26619">
        <ele>893.8</ele>
        <time>2012-08-19T04:37:27Z</time>
      </trkpt>
      <trkpt lat="43.97699" lon="7.26615">
        <ele>894.7</ele>
        <time>2012-08-19T04:37:32Z</time>
      </trkpt>
      <trkpt lat="43.97707" lon="7.26622">
        <ele>895.6</ele>
        <time>2012-08-19T04:37:40Z</time>
      </trkpt>
      <trkpt lat="43.97709" lon="7.26635">
        <ele>896.5</ele>
        <time>2012-08-19T04:37:50Z</time>
      </trkpt>
      <trkpt lat="43.97717" lon="7.26639">
        <ele>897.5</ele>
        <time>2012-08-19T04:37:55Z</time>
      </trkpt>
      <trkpt lat="43.97728" lon="7.26644">
        <ele>898.4</ele>
        <time>2012-08-19T04:37:59Z</time>
      </trkpt>
      <trkpt lat="43.97737" lon="7.26648">
        <ele>899.3</ele>
        <time>2012-08-19T04:38:04Z</time>
      </trkpt>
      <trkpt lat="43.97748" lon="7.26656">
        <ele>900.2</ele>
        <time>2012-08-19T04:38:08Z</time>
      </trkpt>
      <trkpt lat="43.97757" lon="7.26665">
        <ele>901.1</ele>
        <time>2012-08-19T04:38:13Z</time>
      </trkpt>
      <trkpt lat="43.97768" lon="7.26676">
        <ele>902</ele>
        <time>2012-08-19T04:38:22Z</time>
      </trkpt>
      <trkpt lat="43.97778" lon="7.26678">
        <ele>902</ele>
        <time>2012-08-19T04:38:26Z</time>
      </trkpt>
      <trkpt lat="43.97789" lon="7.26678">
        <ele>902</ele>
        <time>2012-08-19T04:38:29Z</time>
      </trkpt>
      <trkpt lat="43.97798" lon="7.26679">
        <ele>902</ele>
        <time>2012-08-19T04:38:32Z</time>
      </trkpt>
      <trkpt lat="43.97806" lon="7.26684">
        <ele>902</ele>
        <time>2012-08-19T04:38:36Z</time>
      </trkpt>
      <trkpt lat="43.97816" lon="7.26688">
        <ele>902</ele>
        <time>2012-08-19T04:38:44Z</time>
      </trkpt>
      <trkpt lat="43.97827" lon="7.26696">
        <ele>904.5</ele>
        <time>2012-08-19T04:38:51Z</time>
      </trkpt>
      <trkpt lat="43.97839" lon="7.26697">
        <ele>907.1</ele>
        <time>2012-08-19T04:38:54Z</time>
      </trkpt>
      <trkpt lat="43.9785" lon="7.26696">
        <ele>909.6</ele>
        <time>2012-08-19T04:38:56Z</time>
      </trkpt>
      <trkpt lat="43.97861" lon="7.26693">
        <ele>912.2</ele>
        <time>2012-08-19T04:38:58Z</time>
      </trkpt>
      <trkpt lat="43.97872" lon="7.26689">
        <ele>916.3</ele>
        <time>2012-08-19T04:39:00Z</time>
      </trkpt>
      <trkpt lat="43.97884" lon="7.26688">
        <ele>915</ele>
        <time>2012-08-19T04:39:03Z</time>
      </trkpt>
      <trkpt lat="43.9789" lon="7.26675">
        <ele>913.7</ele>
        <time>2012-08-19T04:39:09Z</time>
      </trkpt>
      <trkpt lat="43.9789" lon="7.26661">
        <ele>912.5</ele>
        <time>2012-08-19T04:39:12Z</time>
      </trkpt>
      <trkpt lat="43.97891" lon="7.26647">
        <ele>911.2</ele>
        <time>2012-08-19T04:39:15Z</time>
      </trkpt>
      <trkpt lat="43.97889" lon="7.26634">
        <ele>909.9</ele>
        <time>2012-08-19T04:39:20Z</time>
      </trkpt>
      <trkpt lat="43.9788" lon="7.26624">
        <ele>908.6</ele>
        <time>2012-08-19T04:39:25Z</time>
      </trkpt>
      <trkpt lat="43.97871" lon="7.26615">
        <ele>904.8</ele>
        <time>2012-08-19T04:39:30Z</time>
      </trkpt>
      <trkpt lat="43.97863" lon="7.26607">
        <ele>901</ele>
        <time>2012-08-19T04:39:34Z</time>
      </trkpt>
      <trkpt lat="43.97856" lon="7.26599">
        <ele>897.2</ele>
        <time>2012-08-19T04:39:38Z</time>
      </trkpt>
      <trkpt lat="43.97847" lon="7.26593">
        <ele>895.5</ele>
        <time>2012-08-19T04:39:44Z</time>
      </trkpt>
      <trkpt lat="43.97842" lon="7.26583">
        <ele>892.2</ele>
        <time>2012-08-19T04:39:49Z</time>
      </trkpt>
      <trkpt lat="43.97836" lon="7.26569">
        <ele>894.3</ele>
        <time>2012-08-19T04:39:54Z</time>
      </trkpt>
      <trkpt lat="43.97831" lon="7.26558">
        <ele>896.4</ele>
        <time>2012-08-19T04:39:58Z</time>
      </trkpt>
      <trkpt lat="43.97828" lon="7.26544">
        <ele>898.5</ele>
        <time>2012-08-19T04:40:02Z</time>
      </trkpt>
      <trkpt lat="43.97823" lon="7.26533">
        <ele>900.5</ele>
        <time>2012-08-19T04:40:07Z</time>
      </trkpt>
      <trkpt lat="43.97818" lon="7.26521">
        <ele>903.5</ele>
        <time>2012-08-19T04:40:12Z</time>
      </trkpt>
      <trkpt lat="43.97814" lon="7.26507">
        <ele>906.5</ele>
        <time>2012-08-19T04:40:17Z</time>
      </trkpt>
      <trkpt lat="43.97811" lon="7.26494">
        <ele>909.5</ele>
        <time>2012-08-19T04:40:23Z</time>
      </trkpt>
      <trkpt lat="43.97808" lon="7.26481">
        <ele>907.5</ele>
        <time>2012-08-19T04:40:28Z</time>
      </trkpt>
      <trkpt lat="43.97807" lon="7.26465">
        <ele>905.4</ele>
        <time>2012-08-19T04:40:32Z</time>
      </trkpt>
      <trkpt lat="43.97804" lon="7.26452">
        <ele>901.2</ele>
        <time>2012-08-19T04:40:36Z</time>
      </trkpt>
      <trkpt lat="43.97802" lon="7.26438">
        <ele>897.4</ele>
        <time>2012-08-19T04:40:40Z</time>
      </trkpt>
      <trkpt lat="43.97801" lon="7.26424">
        <ele>893.5</ele>
        <time>2012-08-19T04:40:45Z</time>
      </trkpt>
      <trkpt lat="43.97797" lon="7.2641">
        <ele>889.7</ele>
        <time>2012-08-19T04:40:50Z</time>
      </trkpt>
      <trkpt lat="43.97795" lon="7.26396">
        <ele>885.9</ele>
        <time>2012-08-19T04:40:54Z</time>
      </trkpt>
      <trkpt lat="43.97792" lon="7.26383">
        <ele>886.2</ele>
        <time>2012-08-19T04:40:58Z</time>
      </trkpt>
      <trkpt lat="43.97788" lon="7.2637">
        <ele>885.5</ele>
        <time>2012-08-19T04:41:03Z</time>
      </trkpt>
      <trkpt lat="43.97786" lon="7.26357">
        <ele>884.9</ele>
        <time>2012-08-19T04:41:07Z</time>
      </trkpt>
      <trkpt lat="43.97787" lon="7.26342">
        <ele>884.3</ele>
        <time>2012-08-19T04:41:12Z</time>
      </trkpt>
      <trkpt lat="43.97795" lon="7.26333">
        <ele>888.7</ele>
        <time>2012-08-19T04:41:19Z</time>
      </trkpt>
      <trkpt lat="43.97803" lon="7.26326">
        <ele>893.2</ele>
        <time>2012-08-19T04:41:25Z</time>
      </trkpt>
      <trkpt lat="43.9781" lon="7.26319">
        <ele>897.6</ele>
        <time>2012-08-19T04:41:32Z</time>
      </trkpt>
      <trkpt lat="43.97819" lon="7.26314">
        <ele>901.7</ele>
        <time>2012-08-19T04:41:38Z</time>
      </trkpt>
      <trkpt lat="43.97828" lon="7.26313">
        <ele>905.8</ele>
        <time>2012-08-19T04:41:44Z</time>
      </trkpt>
      <trkpt lat="43.97837" lon="7.26311">
        <ele>911.2</ele>
        <time>2012-08-19T04:41:50Z</time>
      </trkpt>
      <trkpt lat="43.97847" lon="7.26313">
        <ele>916.5</ele>
        <time>2012-08-19T04:41:59Z</time>
      </trkpt>
      <trkpt lat="43.97856" lon="7.26307">
        <ele>917.8</ele>
        <time>2012-08-19T04:42:04Z</time>
      </trkpt>
      <trkpt lat="43.97866" lon="7.26303">
        <ele>919.1</ele>
        <time>2012-08-19T04:42:09Z</time>
      </trkpt>
      <trkpt lat="43.97875" lon="7.26298">
        <ele>920.4</ele>
        <time>2012-08-19T04:42:15Z</time>
      </trkpt>
      <trkpt lat="43.97884" lon="7.26292">
        <ele>921.6</ele>
        <time>2012-08-19T04:42:20Z</time>
      </trkpt>
      <trkpt lat="43.97892" lon="7.26284">
        <ele>922.9</ele>
        <time>2012-08-19T04:42:26Z</time>
      </trkpt>
      <trkpt lat="43.97897" lon="7.26272">
        <ele>924.2</ele>
        <time>2012-08-19T04:42:36Z</time>
      </trkpt>
      <trkpt lat="43.97902" lon="7.2626">
        <ele>925.5</ele>
        <time>2012-08-19T04:42:44Z</time>
      </trkpt>
      <trkpt lat="43.97907" lon="7.26249">
        <ele>926.7</ele>
        <time>2012-08-19T04:42:51Z</time>
      </trkpt>
      <trkpt lat="43.97912" lon="7.26237">
        <ele>930.3</ele>
        <time>2012-08-19T04:42:56Z</time>
      </trkpt>
      <trkpt lat="43.97922" lon="7.26226">
        <ele>928.5</ele>
        <time>2012-08-19T04:43:08Z</time>
      </trkpt>
      <trkpt lat="43.97932" lon="7.26222">
        <ele>926.8</ele>
        <time>2012-08-19T04:43:16Z</time>
      </trkpt>
      <trkpt lat="43.97941" lon="7.26221">
        <ele>925.1</ele>
        <time>2012-08-19T04:43:23Z</time>
      </trkpt>
      <trkpt lat="43.97952" lon="7.26219">
        <ele>923.4</ele>
        <time>2012-08-19T04:43:28Z</time>
      </trkpt>
      <trkpt lat="43.97962" lon="7.26217">
        <ele>921.6</ele>
        <time>2012-08-19T04:43:33Z</time>
      </trkpt>
      <trkpt lat="43.97972" lon="7.26213">
        <ele>919.9</ele>
        <time>2012-08-19T04:43:39Z</time>
      </trkpt>
      <trkpt lat="43.97981" lon="7.26211">
        <ele>918.2</ele>
        <time>2012-08-19T04:43:44Z</time>
      </trkpt>
      <trkpt lat="43.9799" lon="7.26208">
        <ele>916.5</ele>
        <time>2012-08-19T04:43:49Z</time>
      </trkpt>
      <trkpt lat="43.97998" lon="7.262">
        <ele>914.7</ele>
        <time>2012-08-19T04:43:55Z</time>
      </trkpt>
      <trkpt lat="43.98006" lon="7.26193">
        <ele>917</ele>
        <time>2012-08-19T04:44:01Z</time>
      </trkpt>
      <trkpt lat="43.98013" lon="7.26183">
        <ele>915</ele>
        <time>2012-08-19T04:44:07Z</time>
      </trkpt>
      <trkpt lat="43.98022" lon="7.26188">
        <ele>917</ele>
        <time>2012-08-19T04:44:16Z</time>
      </trkpt>
      <trkpt lat="43.9803" lon="7.26198">
        <ele>919</ele>
        <time>2012-08-19T04:44:25Z</time>
      </trkpt>
      <trkpt lat="43.98036" lon="7.26208">
        <ele>921</ele>
        <time>2012-08-19T04:44:31Z</time>
      </trkpt>
      <trkpt lat="43.98043" lon="7.26217">
        <ele>923</ele>
        <time>2012-08-19T04:44:37Z</time>
      </trkpt>
      <trkpt lat="43.98053" lon="7.26222">
        <ele>925</ele>
        <time>2012-08-19T04:44:44Z</time>
      </trkpt>
      <trkpt lat="43.98062" lon="7.26228">
        <ele>927</ele>
        <time>2012-08-19T04:44:48Z</time>
      </trkpt>
      <trkpt lat="43.98071" lon="7.26233">
        <ele>929</ele>
        <time>2012-08-19T04:44:52Z</time>
      </trkpt>
      <trkpt lat="43.98075" lon="7.26245">
        <ele>931</ele>
        <time>2012-08-19T04:45:05Z</time>
      </trkpt>
      <trkpt lat="43.9808" lon="7.26258">
        <ele>937.9</ele>
        <time>2012-08-19T04:45:09Z</time>
      </trkpt>
      <trkpt lat="43.98085" lon="7.26269">
        <ele>940.5</ele>
        <time>2012-08-19T04:45:12Z</time>
      </trkpt>
      <trkpt lat="43.98092" lon="7.26279">
        <ele>940.3</ele>
        <time>2012-08-19T04:45:15Z</time>
      </trkpt>
      <trkpt lat="43.98103" lon="7.26286">
        <ele>940.1</ele>
        <time>2012-08-19T04:45:19Z</time>
      </trkpt>
      <trkpt lat="43.98113" lon="7.26292">
        <ele>939.9</ele>
        <time>2012-08-19T04:45:21Z</time>
      </trkpt>
      <trkpt lat="43.98123" lon="7.26296">
        <ele>939.7</ele>
        <time>2012-08-19T04:45:24Z</time>
      </trkpt>
      <trkpt lat="43.98132" lon="7.26297">
        <ele>939.5</ele>
        <time>2012-08-19T04:45:28Z</time>
      </trkpt>
      <trkpt lat="43.98141" lon="7.26294">
        <ele>939.4</ele>
        <time>2012-08-19T04:45:33Z</time>
      </trkpt>
      <trkpt lat="43.98151" lon="7.26291">
        <ele>939.2</ele>
        <time>2012-08-19T04:45:38Z</time>
      </trkpt>
      <trkpt lat="43.9816" lon="7.26289">
        <ele>939</ele>
        <time>2012-08-19T04:45:45Z</time>
      </trkpt>
      <trkpt lat="43.9817" lon="7.26284">
        <ele>938.7</ele>
        <time>2012-08-19T04:45:56Z</time>
      </trkpt>
      <trkpt lat="43.9818" lon="7.26287">
        <ele>933.5</ele>
        <time>2012-08-19T04:46:02Z</time>
      </trkpt>
      <trkpt lat="43.98189" lon="7.26288">
        <ele>928.7</ele>
        <time>2012-08-19T04:46:11Z</time>
      </trkpt>
      <trkpt lat="43.98199" lon="7.2628">
        <ele>928.6</ele>
        <time>2012-08-19T04:46:16Z</time>
      </trkpt>
      <trkpt lat="43.98211" lon="7.2628">
        <ele>928.5</ele>
        <time>2012-08-19T04:46:20Z</time>
      </trkpt>
      <trkpt lat="43.98223" lon="7.26284">
        <ele>931.9</ele>
        <time>2012-08-19T04:46:22Z</time>
      </trkpt>
      <trkpt lat="43.98232" lon="7.26288">
        <ele>935.3</ele>
        <time>2012-08-19T04:46:24Z</time>
      </trkpt>
      <trkpt lat="43.98242" lon="7.26286">
        <ele>938.6</ele>
        <time>2012-08-19T04:46:28Z</time>
      </trkpt>
      <trkpt lat="43.98252" lon="7.26281">
        <ele>942</ele>
        <time>2012-08-19T04:46:33Z</time>
      </trkpt>
      <trkpt lat="43.9826" lon="7.26288">
        <ele>944.7</ele>
        <time>2012-08-19T04:46:40Z</time>
      </trkpt>
      <trkpt lat="43.98266" lon="7.26299">
        <ele>947.5</ele>
        <time>2012-08-19T04:46:46Z</time>
      </trkpt>
      <trkpt lat="43.98276" lon="7.26301">
        <ele>950.3</ele>
        <time>2012-08-19T04:46:52Z</time>
      </trkpt>
      <trkpt lat="43.98286" lon="7.26301">
        <ele>953.1</ele>
        <time>2012-08-19T04:46:58Z</time>
      </trkpt>
      <trkpt lat="43.98294" lon="7.26311">
        <ele>955.9</ele>
        <time>2012-08-19T04:47:07Z</time>
      </trkpt>
      <trkpt lat="43.98303" lon="7.26316">
        <ele>958.7</ele>
        <time>2012-08-19T04:47:17Z</time>
      </trkpt>
      <trkpt lat="43.98311" lon="7.26323">
        <ele>961.5</ele>
        <time>2012-08-19T04:47:22Z</time>
      </trkpt>
      <trkpt lat="43.98319" lon="7.26331">
        <ele>960.9</ele>
        <time>2012-08-19T04:47:25Z</time>
      </trkpt>
      <trkpt lat="43.9833" lon="7.26337">
        <ele>960.3</ele>
        <time>2012-08-19T04:47:28Z</time>
      </trkpt>
      <trkpt lat="43.98339" lon="7.26342">
        <ele>960.5</ele>
        <time>2012-08-19T04:47:31Z</time>
      </trkpt>
      <trkpt lat="43.98347" lon="7.26352">
        <ele>960.8</ele>
        <time>2012-08-19T04:47:34Z</time>
      </trkpt>
      <trkpt lat="43.98351" lon="7.26364">
        <ele>961.7</ele>
        <time>2012-08-19T04:47:37Z</time>
      </trkpt>
      <trkpt lat="43.98361" lon="7.26372">
        <ele>962.6</ele>
        <time>2012-08-19T04:47:41Z</time>
      </trkpt>
      <trkpt lat="43.98373" lon="7.26376">
        <ele>963.5</ele>
        <time>2012-08-19T04:47:44Z</time>
      </trkpt>
      <trkpt lat="43.98383" lon="7.26373">
        <ele>964.5</ele>
        <time>2012-08-19T04:47:47Z</time>
      </trkpt>
      <trkpt lat="43.98394" lon="7.2637">
        <ele>965.4</ele>
        <time>2012-08-19T04:47:51Z</time>
      </trkpt>
      <trkpt lat="43.98404" lon="7.26367">
        <ele>966.3</ele>
        <time>2012-08-19T04:47:55Z</time>
      </trkpt>
      <trkpt lat="43.98413" lon="7.26362">
        <ele>967.2</ele>
        <time>2012-08-19T04:48:00Z</time>
      </trkpt>
      <trkpt lat="43.9842" lon="7.26352">
        <ele>968.1</ele>
        <time>2012-08-19T04:48:04Z</time>
      </trkpt>
      <trkpt lat="43.98426" lon="7.26342">
        <ele>970.5</ele>
        <time>2012-08-19T04:48:08Z</time>
      </trkpt>
      <trkpt lat="43.98433" lon="7.26334">
        <ele>971.9</ele>
        <time>2012-08-19T04:48:12Z</time>
      </trkpt>
      <trkpt lat="43.98442" lon="7.26332">
        <ele>973.4</ele>
        <time>2012-08-19T04:48:18Z</time>
      </trkpt>
      <trkpt lat="43.98451" lon="7.26327">
        <ele>971.4</ele>
        <time>2012-08-19T04:48:28Z</time>
      </trkpt>
      <trkpt lat="43.98461" lon="7.26324">
        <ele>969.4</ele>
        <time>2012-08-19T04:48:38Z</time>
      </trkpt>
      <trkpt lat="43.98469" lon="7.26318">
        <ele>967.4</ele>
        <time>2012-08-19T04:48:43Z</time>
      </trkpt>
      <trkpt lat="43.98476" lon="7.26309">
        <ele>965.4</ele>
        <time>2012-08-19T04:48:48Z</time>
      </trkpt>
      <trkpt lat="43.98484" lon="7.263">
        <ele>963.4</ele>
        <time>2012-08-19T04:48:52Z</time>
      </trkpt>
      <trkpt lat="43.98492" lon="7.26294">
        <ele>964.8</ele>
        <time>2012-08-19T04:48:56Z</time>
      </trkpt>
      <trkpt lat="43.98501" lon="7.26293">
        <ele>966.3</ele>
        <time>2012-08-19T04:49:01Z</time>
      </trkpt>
      <trkpt lat="43.98509" lon="7.26285">
        <ele>967.5</ele>
        <time>2012-08-19T04:49:16Z</time>
      </trkpt>
      <trkpt lat="43.98517" lon="7.26288">
        <ele>967.4</ele>
        <time>2012-08-19T04:49:20Z</time>
      </trkpt>
      <trkpt lat="43.98527" lon="7.26292">
        <ele>967.2</ele>
        <time>2012-08-19T04:49:24Z</time>
      </trkpt>
      <trkpt lat="43.98535" lon="7.26297">
        <ele>967</ele>
        <time>2012-08-19T04:49:29Z</time>
      </trkpt>
      <trkpt lat="43.98543" lon="7.26306">
        <ele>970.3</ele>
        <time>2012-08-19T04:49:34Z</time>
      </trkpt>
      <trkpt lat="43.98549" lon="7.26317">
        <ele>973.5</ele>
        <time>2012-08-19T04:49:38Z</time>
      </trkpt>
      <trkpt lat="43.98554" lon="7.2633">
        <ele>976.8</ele>
        <time>2012-08-19T04:49:42Z</time>
      </trkpt>
      <trkpt lat="43.98558" lon="7.26342">
        <ele>980.1</ele>
        <time>2012-08-19T04:49:46Z</time>
      </trkpt>
      <trkpt lat="43.98565" lon="7.26351">
        <ele>983.4</ele>
        <time>2012-08-19T04:49:51Z</time>
      </trkpt>
      <trkpt lat="43.98574" lon="7.26364">
        <ele>983.2</ele>
        <time>2012-08-19T04:50:01Z</time>
      </trkpt>
      <trkpt lat="43.98584" lon="7.26367">
        <ele>983</ele>
        <time>2012-08-19T04:50:06Z</time>
      </trkpt>
      <trkpt lat="43.98593" lon="7.26369">
        <ele>983</ele>
        <time>2012-08-19T04:50:11Z</time>
      </trkpt>
      <trkpt lat="43.98603" lon="7.26369">
        <ele>983</ele>
        <time>2012-08-19T04:50:16Z</time>
      </trkpt>
      <trkpt lat="43.98609" lon="7.26357">
        <ele>981.4</ele>
        <time>2012-08-19T04:50:22Z</time>
      </trkpt>
      <trkpt lat="43.9861" lon="7.26344">
        <ele>979.7</ele>
        <time>2012-08-19T04:50:25Z</time>
      </trkpt>
      <trkpt lat="43.98612" lon="7.26328">
        <ele>978.1</ele>
        <time>2012-08-19T04:50:27Z</time>
      </trkpt>
      <trkpt lat="43.98615" lon="7.26309">
        <ele>976.5</ele>
        <time>2012-08-19T04:50:29Z</time>
      </trkpt>
      <trkpt lat="43.98615" lon="7.26296">
        <ele>974.8</ele>
        <time>2012-08-19T04:50:31Z</time>
      </trkpt>
      <trkpt lat="43.98613" lon="7.26284">
        <ele>973.2</ele>
        <time>2012-08-19T04:50:34Z</time>
      </trkpt>
      <trkpt lat="43.98608" lon="7.26271">
        <ele>971.2</ele>
        <time>2012-08-19T04:50:38Z</time>
      </trkpt>
      <trkpt lat="43.98599" lon="7.26261">
        <ele>969.2</ele>
        <time>2012-08-19T04:50:42Z</time>
      </trkpt>
      <trkpt lat="43.98593" lon="7.2625">
        <ele>967.2</ele>
        <time>2012-08-19T04:50:47Z</time>
      </trkpt>
      <trkpt lat="43.98594" lon="7.26237">
        <ele>965.2</ele>
        <time>2012-08-19T04:50:53Z</time>
      </trkpt>
      <trkpt lat="43.98594" lon="7.26223">
        <ele>963.2</ele>
        <time>2012-08-19T04:51:00Z</time>
      </trkpt>
      <trkpt lat="43.9859" lon="7.2621">
        <ele>962.8</ele>
        <time>2012-08-19T04:51:06Z</time>
      </trkpt>
      <trkpt lat="43.98585" lon="7.26196">
        <ele>962.5</ele>
        <time>2012-08-19T04:51:13Z</time>
      </trkpt>
      <trkpt lat="43.98579" lon="7.26183">
        <ele>962.1</ele>
        <time>2012-08-19T04:51:17Z</time>
      </trkpt>
      <trkpt lat="43.98578" lon="7.26168">
        <ele>961.7</ele>
        <time>2012-08-19T04:51:21Z</time>
      </trkpt>
      <trkpt lat="43.98585" lon="7.2616">
        <ele>966.3</ele>
        <time>2012-08-19T04:51:28Z</time>
      </trkpt>
      <trkpt lat="43.98595" lon="7.26159">
        <ele>968.9</ele>
        <time>2012-08-19T04:51:33Z</time>
      </trkpt>
      <trkpt lat="43.98606" lon="7.26155">
        <ele>971.9</ele>
        <time>2012-08-19T04:51:37Z</time>
      </trkpt>
      <trkpt lat="43.98615" lon="7.26151">
        <ele>974.9</ele>
        <time>2012-08-19T04:51:40Z</time>
      </trkpt>
      <trkpt lat="43.98625" lon="7.26145">
        <ele>977.9</ele>
        <time>2012-08-19T04:51:44Z</time>
      </trkpt>
      <trkpt lat="43.98632" lon="7.26135">
        <ele>980.9</ele>
        <time>2012-08-19T04:51:50Z</time>
      </trkpt>
      <trkpt lat="43.98635" lon="7.26123">
        <ele>983.9</ele>
        <time>2012-08-19T04:51:54Z</time>
      </trkpt>
      <trkpt lat="43.9864" lon="7.26111">
        <ele>986.9</ele>
        <time>2012-08-19T04:51:58Z</time>
      </trkpt>
      <trkpt lat="43.98647" lon="7.261">
        <ele>987</ele>
        <time>2012-08-19T04:52:02Z</time>
      </trkpt>
      <trkpt lat="43.98656" lon="7.2609">
        <ele>987.1</ele>
        <time>2012-08-19T04:52:05Z</time>
      </trkpt>
      <trkpt lat="43.98663" lon="7.2608">
        <ele>987.2</ele>
        <time>2012-08-19T04:52:07Z</time>
      </trkpt>
      <trkpt lat="43.98669" lon="7.26067">
        <ele>982.4</ele>
        <time>2012-08-19T04:52:12Z</time>
      </trkpt>
      <trkpt lat="43.98671" lon="7.26053">
        <ele>979.5</ele>
        <time>2012-08-19T04:52:16Z</time>
      </trkpt>
      <trkpt lat="43.98674" lon="7.2604">
        <ele>976.5</ele>
        <time>2012-08-19T04:52:19Z</time>
      </trkpt>
      <trkpt lat="43.98677" lon="7.26029">
        <ele>973.6</ele>
        <time>2012-08-19T04:52:22Z</time>
      </trkpt>
      <trkpt lat="43.98683" lon="7.26015">
        <ele>972.8</ele>
        <time>2012-08-19T04:52:26Z</time>
      </trkpt>
      <trkpt lat="43.9869" lon="7.26006">
        <ele>969.4</ele>
        <time>2012-08-19T04:52:30Z</time>
      </trkpt>
      <trkpt lat="43.98698" lon="7.25997">
        <ele>965.9</ele>
        <time>2012-08-19T04:52:34Z</time>
      </trkpt>
      <trkpt lat="43.98706" lon="7.25989">
        <ele>962.5</ele>
        <time>2012-08-19T04:52:39Z</time>
      </trkpt>
      <trkpt lat="43.98713" lon="7.25979">
        <ele>961.9</ele>
        <time>2012-08-19T04:52:45Z</time>
      </trkpt>
      <trkpt lat="43.98719" lon="7.25969">
        <ele>964</ele>
        <time>2012-08-19T04:52:51Z</time>
      </trkpt>
      <trkpt lat="43.98725" lon="7.25961">
        <ele>966.1</ele>
        <time>2012-08-19T04:52:59Z</time>
      </trkpt>
      <trkpt lat="43.98735" lon="7.25961">
        <ele>968.2</ele>
        <time>2012-08-19T04:53:08Z</time>
      </trkpt>
      <trkpt lat="43.98744" lon="7.25957">
        <ele>970.3</ele>
        <time>2012-08-19T04:53:17Z</time>
      </trkpt>
      <trkpt lat="43.98753" lon="7.25959">
        <ele>972.4</ele>
        <time>2012-08-19T04:53:25Z</time>
      </trkpt>
      <trkpt lat="43.98761" lon="7.25969">
        <ele>973.1</ele>
        <time>2012-08-19T04:53:32Z</time>
      </trkpt>
      <trkpt lat="43.9877" lon="7.25982">
        <ele>971.7</ele>
        <time>2012-08-19T04:53:36Z</time>
      </trkpt>
      <trkpt lat="43.98778" lon="7.25995">
        <ele>975.9</ele>
        <time>2012-08-19T04:53:42Z</time>
      </trkpt>
      <trkpt lat="43.98782" lon="7.26006">
        <ele>980.1</ele>
        <time>2012-08-19T04:53:50Z</time>
      </trkpt>
      <trkpt lat="43.9879" lon="7.26021">
        <ele>984.3</ele>
        <time>2012-08-19T04:54:10Z</time>
      </trkpt>
      <trkpt lat="43.98799" lon="7.26031">
        <ele>988.5</ele>
        <time>2012-08-19T04:54:24Z</time>
      </trkpt>
      <trkpt lat="43.98806" lon="7.26043">
        <ele>990</ele>
        <time>2012-08-19T04:54:32Z</time>
      </trkpt>
      <trkpt lat="43.98814" lon="7.26052">
        <ele>991.5</ele>
        <time>2012-08-19T04:54:38Z</time>
      </trkpt>
      <trkpt lat="43.98822" lon="7.26063">
        <ele>993.1</ele>
        <time>2012-08-19T04:54:44Z</time>
      </trkpt>
      <trkpt lat="43.98831" lon="7.26077">
        <ele>994.6</ele>
        <time>2012-08-19T04:54:47Z</time>
      </trkpt>
      <trkpt lat="43.98839" lon="7.26086">
        <ele>995.5</ele>
        <time>2012-08-19T04:54:49Z</time>
      </trkpt>
      <trkpt lat="43.98847" lon="7.26097">
        <ele>997.8</ele>
        <time>2012-08-19T04:54:52Z</time>
      </trkpt>
      <trkpt lat="43.98854" lon="7.26109">
        <ele>1005.9</ele>
        <time>2012-08-19T04:54:56Z</time>
      </trkpt>
      <trkpt lat="43.98861" lon="7.2612">
        <ele>1011.1</ele>
        <time>2012-08-19T04:55:02Z</time>
      </trkpt>
      <trkpt lat="43.9887" lon="7.26128">
        <ele>1016.3</ele>
        <time>2012-08-19T04:55:11Z</time>
      </trkpt>
      <trkpt lat="43.9888" lon="7.26128">
        <ele>1021.5</ele>
        <time>2012-08-19T04:55:16Z</time>
      </trkpt>
      <trkpt lat="43.98889" lon="7.26128">
        <ele>1026.6</ele>
        <time>2012-08-19T04:55:20Z</time>
      </trkpt>
      <trkpt lat="43.98898" lon="7.26134">
        <ele>1031.8</ele>
        <time>2012-08-19T04:55:24Z</time>
      </trkpt>
      <trkpt lat="43.98908" lon="7.26134">
        <ele>1037</ele>
        <time>2012-08-19T04:55:29Z</time>
      </trkpt>
      <trkpt lat="43.98917" lon="7.26133">
        <ele>1042.5</ele>
        <time>2012-08-19T04:55:36Z</time>
      </trkpt>
      <trkpt lat="43.98925" lon="7.26142">
        <ele>1047.9</ele>
        <time>2012-08-19T04:55:40Z</time>
      </trkpt>
      <trkpt lat="43.98935" lon="7.26147">
        <ele>1054</ele>
        <time>2012-08-19T04:55:44Z</time>
      </trkpt>
      <trkpt lat="43.98945" lon="7.26143">
        <ele>1060.1</ele>
        <time>2012-08-19T04:55:49Z</time>
      </trkpt>
      <trkpt lat="43.98957" lon="7.26144">
        <ele>1060.4</ele>
        <time>2012-08-19T04:55:58Z</time>
      </trkpt>
      <trkpt lat="43.98966" lon="7.26149">
        <ele>1060.6</ele>
        <time>2012-08-19T04:56:15Z</time>
      </trkpt>
      <trkpt lat="43.98975" lon="7.26147">
        <ele>1060.9</ele>
        <time>2012-08-19T04:56:20Z</time>
      </trkpt>
      <trkpt lat="43.98983" lon="7.26154">
        <ele>1061.2</ele>
        <time>2012-08-19T04:56:30Z</time>
      </trkpt>
      <trkpt lat="43.98991" lon="7.26163">
        <ele>1057.6</ele>
        <time>2012-08-19T04:56:36Z</time>
      </trkpt>
      <trkpt lat="43.98998" lon="7.26171">
        <ele>1054.1</ele>
        <time>2012-08-19T04:56:42Z</time>
      </trkpt>
      <trkpt lat="43.99006" lon="7.26162">
        <ele>1050.5</ele>
        <time>2012-08-19T04:56:54Z</time>
      </trkpt>
      <trkpt lat="43.99011" lon="7.26149">
        <ele>1046.7</ele>
        <time>2012-08-19T04:56:57Z</time>
      </trkpt>
      <trkpt lat="43.99017" lon="7.26137">
        <ele>1042.9</ele>
        <time>2012-08-19T04:57:00Z</time>
      </trkpt>
      <trkpt lat="43.99023" lon="7.26123">
        <ele>1037.6</ele>
        <time>2012-08-19T04:57:03Z</time>
      </trkpt>
      <trkpt lat="43.99031" lon="7.26108">
        <ele>1032.4</ele>
        <time>2012-08-19T04:57:06Z</time>
      </trkpt>
      <trkpt lat="43.99035" lon="7.26092">
        <ele>1027.1</ele>
        <time>2012-08-19T04:57:09Z</time>
      </trkpt>
      <trkpt lat="43.99036" lon="7.26074">
        <ele>1021.8</ele>
        <time>2012-08-19T04:57:12Z</time>
      </trkpt>
      <trkpt lat="43.99037" lon="7.26057">
        <ele>1016.5</ele>
        <time>2012-08-19T04:57:14Z</time>
      </trkpt>
      <trkpt lat="43.99036" lon="7.2604">
        <ele>1011.3</ele>
        <time>2012-08-19T04:57:16Z</time>
      </trkpt>
      <trkpt lat="43.99034" lon="7.26024">
        <ele>1009.8</ele>
        <time>2012-08-19T04:57:19Z</time>
      </trkpt>
      <trkpt lat="43.99032" lon="7.2601">
        <ele>1013.6</ele>
        <time>2012-08-19T04:57:22Z</time>
      </trkpt>
      <trkpt lat="43.99032" lon="7.25997">
        <ele>1017.5</ele>
        <time>2012-08-19T04:57:27Z</time>
      </trkpt>
      <trkpt lat="43.99036" lon="7.25985">
        <ele>1021.3</ele>
        <time>2012-08-19T04:57:35Z</time>
      </trkpt>
      <trkpt lat="43.99037" lon="7.25972">
        <ele>1025.1</ele>
        <time>2012-08-19T04:57:44Z</time>
      </trkpt>
      <trkpt lat="43.99042" lon="7.25962">
        <ele>1030.4</ele>
        <time>2012-08-19T04:57:50Z</time>
      </trkpt>
      <trkpt lat="43.99049" lon="7.25952">
        <ele>1035.6</ele>
        <time>2012-08-19T04:57:54Z</time>
      </trkpt>
      <trkpt lat="43.99054" lon="7.25942">
        <ele>1040.8</ele>
        <time>2012-08-19T04:57:59Z</time>
      </trkpt>
      <trkpt lat="43.99056" lon="7.25929">
        <ele>1046</ele>
        <time>2012-08-19T04:58:08Z</time>
      </trkpt>
      <trkpt lat="43.99055" lon="7.25914">
        <ele>1051.2</ele>
        <time>2012-08-19T04:58:15Z</time>
      </trkpt>
      <trkpt lat="43.99054" lon="7.25902">
        <ele>1056.4</ele>
        <time>2012-08-19T04:58:20Z</time>
      </trkpt>
      <trkpt lat="43.99052" lon="7.25888">
        <ele>1061.5</ele>
        <time>2012-08-19T04:58:26Z</time>
      </trkpt>
      <trkpt lat="43.99052" lon="7.25876">
        <ele>1061.5</ele>
        <time>2012-08-19T04:58:31Z</time>
      </trkpt>
      <trkpt lat="43.99053" lon="7.25862">
        <ele>1061.2</ele>
        <time>2012-08-19T04:58:37Z</time>
      </trkpt>
      <trkpt lat="43.99056" lon="7.2585">
        <ele>1060.9</ele>
        <time>2012-08-19T04:58:44Z</time>
      </trkpt>
      <trkpt lat="43.99058" lon="7.25837">
        <ele>1060.6</ele>
        <time>2012-08-19T04:58:53Z</time>
      </trkpt>
      <trkpt lat="43.99055" lon="7.25824">
        <ele>1060.4</ele>
        <time>2012-08-19T04:59:02Z</time>
      </trkpt>
      <trkpt lat="43.99053" lon="7.25811">
        <ele>1060.1</ele>
        <time>2012-08-19T04:59:10Z</time>
      </trkpt>
      <trkpt lat="43.99053" lon="7.25798">
        <ele>1059.9</ele>
        <time>2012-08-19T04:59:18Z</time>
      </trkpt>
      <trkpt lat="43.99056" lon="7.25786">
        <ele>1058.4</ele>
        <time>2012-08-19T04:59:30Z</time>
      </trkpt>
      <trkpt lat="43.99053" lon="7.25772">
        <ele>1056.8</ele>
        <time>2012-08-19T04:59:39Z</time>
      </trkpt>
      <trkpt lat="43.99053" lon="7.25758">
        <ele>1055.3</ele>
        <time>2012-08-19T04:59:45Z</time>
      </trkpt>
      <trkpt lat="43.99052" lon="7.25746">
        <ele>1053.7</ele>
        <time>2012-08-19T04:59:51Z</time>
      </trkpt>
      <trkpt lat="43.9905" lon="7.25732">
        <ele>1052.2</ele>
        <time>2012-08-19T05:00:01Z</time>
      </trkpt>
      <trkpt lat="43.99053" lon="7.25719">
        <ele>1050.8</ele>
        <time>2012-08-19T05:00:12Z</time>
      </trkpt>
      <trkpt lat="43.99057" lon="7.25706">
        <ele>1049.5</ele>
        <time>2012-08-19T05:00:20Z</time>
      </trkpt>
      <trkpt lat="43.99063" lon="7.25696">
        <ele>1048.1</ele>
        <time>2012-08-19T05:00:26Z</time>
      </trkpt>
      <trkpt lat="43.99068" lon="7.25685">
        <ele>1046.7</ele>
        <time>2012-08-19T05:00:32Z</time>
      </trkpt>
      <trkpt lat="43.99075" lon="7.25675">
        <ele>1045.4</ele>
        <time>2012-08-19T05:00:38Z</time>
      </trkpt>
      <trkpt lat="43.99081" lon="7.25666">
        <ele>1045.5</ele>
        <time>2012-08-19T05:00:44Z</time>
      </trkpt>
      <trkpt lat="43.9909" lon="7.25659">
        <ele>1047.1</ele>
        <time>2012-08-19T05:00:49Z</time>
      </trkpt>
      <trkpt lat="43.99099" lon="7.25657">
        <ele>1048.6</ele>
        <time>2012-08-19T05:00:54Z</time>
      </trkpt>
      <trkpt lat="43.9911" lon="7.25651">
        <ele>1050.2</ele>
        <time>2012-08-19T05:01:13Z</time>
      </trkpt>
      <trkpt lat="43.9912" lon="7.25657">
        <ele>1051.7</ele>
        <time>2012-08-19T05:01:18Z</time>
      </trkpt>
      <trkpt lat="43.9913" lon="7.25657">
        <ele>1053.3</ele>
        <time>2012-08-19T05:01:24Z</time>
      </trkpt>
      <trkpt lat="43.9914" lon="7.25657">
        <ele>1054.8</ele>
        <time>2012-08-19T05:01:31Z</time>
      </trkpt>
      <trkpt lat="43.9915" lon="7.25655">
        <ele>1056.4</ele>
        <time>2012-08-19T05:01:38Z</time>
      </trkpt>
      <trkpt lat="43.9916" lon="7.25653">
        <ele>1057.9</ele>
        <time>2012-08-19T05:01:44Z</time>
      </trkpt>
      <trkpt lat="43.99172" lon="7.25654">
        <ele>1061.4</ele>
        <time>2012-08-19T05:01:50Z</time>
      </trkpt>
      <trkpt lat="43.99183" lon="7.2566">
        <ele>1064.8</ele>
        <time>2012-08-19T05:01:52Z</time>
      </trkpt>
      <trkpt lat="43.99194" lon="7.25664">
        <ele>1066.7</ele>
        <time>2012-08-19T05:01:54Z</time>
      </trkpt>
      <trkpt lat="43.99205" lon="7.25666">
        <ele>1068.6</ele>
        <time>2012-08-19T05:01:56Z</time>
      </trkpt>
      <trkpt lat="43.99214" lon="7.25668">
        <ele>1068.1</ele>
        <time>2012-08-19T05:01:58Z</time>
      </trkpt>
      <trkpt lat="43.99226" lon="7.25668">
        <ele>1067.5</ele>
        <time>2012-08-19T05:02:01Z</time>
      </trkpt>
      <trkpt lat="43.99235" lon="7.25664">
        <ele>1067</ele>
        <time>2012-08-19T05:02:04Z</time>
      </trkpt>
      <trkpt lat="43.99245" lon="7.25654">
        <ele>1066.5</ele>
        <time>2012-08-19T05:02:08Z</time>
      </trkpt>
      <trkpt lat="43.99253" lon="7.25644">
        <ele>1065.9</ele>
        <time>2012-08-19T05:02:12Z</time>
      </trkpt>
      <trkpt lat="43.9926" lon="7.25635">
        <ele>1067.7</ele>
        <time>2012-08-19T05:02:17Z</time>
      </trkpt>
      <trkpt lat="43.99269" lon="7.25627">
        <ele>1069.5</ele>
        <time>2012-08-19T05:02:24Z</time>
      </trkpt>
      <trkpt lat="43.99276" lon="7.25617">
        <ele>1069.5</ele>
        <time>2012-08-19T05:02:30Z</time>
      </trkpt>
      <trkpt lat="43.99284" lon="7.25611">
        <ele>1069.4</ele>
        <time>2012-08-19T05:02:37Z</time>
      </trkpt>
      <trkpt lat="43.9929" lon="7.256">
        <ele>1069.3</ele>
        <time>2012-08-19T05:02:42Z</time>
      </trkpt>
      <trkpt lat="43.99298" lon="7.25593">
        <ele>1069.2</ele>
        <time>2012-08-19T05:02:46Z</time>
      </trkpt>
      <trkpt lat="43.99308" lon="7.25589">
        <ele>1071.5</ele>
        <time>2012-08-19T05:02:54Z</time>
      </trkpt>
      <trkpt lat="43.99318" lon="7.25583">
        <ele>1073.9</ele>
        <time>2012-08-19T05:03:12Z</time>
      </trkpt>
      <trkpt lat="43.99327" lon="7.25586">
        <ele>1076.3</ele>
        <time>2012-08-19T05:03:19Z</time>
      </trkpt>
      <trkpt lat="43.99339" lon="7.25583">
        <ele>1082.5</ele>
        <time>2012-08-19T05:03:32Z</time>
      </trkpt>
      <trkpt lat="43.99344" lon="7.25571">
        <ele>1087</ele>
        <time>2012-08-19T05:03:42Z</time>
      </trkpt>
      <trkpt lat="43.99352" lon="7.25565">
        <ele>1089.1</ele>
        <time>2012-08-19T05:03:52Z</time>
      </trkpt>
      <trkpt lat="43.99363" lon="7.2556">
        <ele>1091.2</ele>
        <time>2012-08-19T05:03:59Z</time>
      </trkpt>
      <trkpt lat="43.99373" lon="7.2556">
        <ele>1093.3</ele>
        <time>2012-08-19T05:04:07Z</time>
      </trkpt>
      <trkpt lat="43.99381" lon="7.25552">
        <ele>1095.4</ele>
        <time>2012-08-19T05:04:15Z</time>
      </trkpt>
      <trkpt lat="43.99388" lon="7.25541">
        <ele>1097.5</ele>
        <time>2012-08-19T05:04:24Z</time>
      </trkpt>
      <trkpt lat="43.99396" lon="7.25532">
        <ele>1101.4</ele>
        <time>2012-08-19T05:04:30Z</time>
      </trkpt>
      <trkpt lat="43.99403" lon="7.2552">
        <ele>1105.3</ele>
        <time>2012-08-19T05:04:34Z</time>
      </trkpt>
      <trkpt lat="43.99411" lon="7.25512">
        <ele>1109.2</ele>
        <time>2012-08-19T05:04:41Z</time>
      </trkpt>
      <trkpt lat="43.99416" lon="7.25527">
        <ele>1113.1</ele>
        <time>2012-08-19T05:05:09Z</time>
      </trkpt>
      <trkpt lat="43.99423" lon="7.25537">
        <ele>1113.1</ele>
        <time>2012-08-19T05:05:17Z</time>
      </trkpt>
      <trkpt lat="43.99427" lon="7.25549">
        <ele>1114.9</ele>
        <time>2012-08-19T05:05:26Z</time>
      </trkpt>
      <trkpt lat="43.99429" lon="7.25562">
        <ele>1116.7</ele>
        <time>2012-08-19T05:05:33Z</time>
      </trkpt>
      <trkpt lat="43.9943" lon="7.25575">
        <ele>1118.5</ele>
        <time>2012-08-19T05:05:42Z</time>
      </trkpt>
      <trkpt lat="43.99425" lon="7.25587">
        <ele>1120.4</ele>
        <time>2012-08-19T05:05:47Z</time>
      </trkpt>
      <trkpt lat="43.9943" lon="7.25574">
        <ele>1122.2</ele>
        <time>2012-08-19T05:05:52Z</time>
      </trkpt>
      <trkpt lat="43.99434" lon="7.25563">
        <ele>1124</ele>
        <time>2012-08-19T05:05:56Z</time>
      </trkpt>
      <trkpt lat="43.99425" lon="7.25567">
        <ele>1124</ele>
        <time>2012-08-19T05:06:16Z</time>
      </trkpt>
      <trkpt lat="43.9942" lon="7.25579">
        <ele>1126.4</ele>
        <time>2012-08-19T05:06:23Z</time>
      </trkpt>
      <trkpt lat="43.99413" lon="7.25591">
        <ele>1126.4</ele>
        <time>2012-08-19T05:06:29Z</time>
      </trkpt>
      <trkpt lat="43.9941" lon="7.25605">
        <ele>1122.5</ele>
        <time>2012-08-19T05:06:31Z</time>
      </trkpt>
      <trkpt lat="43.99408" lon="7.25621">
        <ele>1118.5</ele>
        <time>2012-08-19T05:06:33Z</time>
      </trkpt>
      <trkpt lat="43.99403" lon="7.25634">
        <ele>1114.6</ele>
        <time>2012-08-19T05:06:36Z</time>
      </trkpt>
      <trkpt lat="43.99394" lon="7.25645">
        <ele>1110.7</ele>
        <time>2012-08-19T05:06:40Z</time>
      </trkpt>
      <trkpt lat="43.99389" lon="7.25633">
        <ele>1106.8</ele>
        <time>2012-08-19T05:06:46Z</time>
      </trkpt>
      <trkpt lat="43.99378" lon="7.25625">
        <ele>1105.6</ele>
        <time>2012-08-19T05:06:51Z</time>
      </trkpt>
      <trkpt lat="43.99367" lon="7.25619">
        <ele>1104.5</ele>
        <time>2012-08-19T05:06:54Z</time>
      </trkpt>
      <trkpt lat="43.99357" lon="7.25612">
        <ele>1103.3</ele>
        <time>2012-08-19T05:06:58Z</time>
      </trkpt>
      <trkpt lat="43.99349" lon="7.25607">
        <ele>1102.1</ele>
        <time>2012-08-19T05:07:05Z</time>
      </trkpt>
      <trkpt lat="43.99349" lon="7.25624">
        <ele>1098.5</ele>
        <time>2012-08-19T05:07:10Z</time>
      </trkpt>
      <trkpt lat="43.99345" lon="7.25638">
        <ele>1097.4</ele>
        <time>2012-08-19T05:07:14Z</time>
      </trkpt>
      <trkpt lat="43.9934" lon="7.2565">
        <ele>1097.5</ele>
        <time>2012-08-19T05:07:18Z</time>
      </trkpt>
      <trkpt lat="43.99333" lon="7.25659">
        <ele>1097.5</ele>
        <time>2012-08-19T05:07:21Z</time>
      </trkpt>
      <trkpt lat="43.99324" lon="7.25666">
        <ele>1097.6</ele>
        <time>2012-08-19T05:07:24Z</time>
      </trkpt>
      <trkpt lat="43.99315" lon="7.25672">
        <ele>1097.7</ele>
        <time>2012-08-19T05:07:26Z</time>
      </trkpt>
      <trkpt lat="43.99305" lon="7.25679">
        <ele>1097.8</ele>
        <time>2012-08-19T05:07:29Z</time>
      </trkpt>
      <trkpt lat="43.99296" lon="7.25689">
        <ele>1095.2</ele>
        <time>2012-08-19T05:07:33Z</time>
      </trkpt>
      <trkpt lat="43.99287" lon="7.25687">
        <ele>1092.5</ele>
        <time>2012-08-19T05:07:37Z</time>
      </trkpt>
      <trkpt lat="43.99278" lon="7.25677">
        <ele>1089.9</ele>
        <time>2012-08-19T05:07:40Z</time>
      </trkpt>
      <trkpt lat="43.99267" lon="7.25674">
        <ele>1091.3</ele>
        <time>2012-08-19T05:07:43Z</time>
      </trkpt>
      <trkpt lat="43.99257" lon="7.25674">
        <ele>1092.6</ele>
        <time>2012-08-19T05:07:47Z</time>
      </trkpt>
      <trkpt lat="43.99247" lon="7.25675">
        <ele>1094</ele>
        <time>2012-08-19T05:07:52Z</time>
      </trkpt>
      <trkpt lat="43.99239" lon="7.25702">
        <ele>1095.4</ele>
        <time>2012-08-19T05:07:57Z</time>
      </trkpt>
      <trkpt lat="43.99236" lon="7.25718">
        <ele>1096.7</ele>
        <time>2012-08-19T05:07:58Z</time>
      </trkpt>
      <trkpt lat="43.99231" lon="7.25731">
        <ele>1098.1</ele>
        <time>2012-08-19T05:08:00Z</time>
      </trkpt>
      <trkpt lat="43.99224" lon="7.25742">
        <ele>1099.5</ele>
        <time>2012-08-19T05:08:02Z</time>
      </trkpt>
      <trkpt lat="43.99218" lon="7.25751">
        <ele>1100.8</ele>
        <time>2012-08-19T05:08:04Z</time>
      </trkpt>
      <trkpt lat="43.99212" lon="7.2576">
        <ele>1102.2</ele>
        <time>2012-08-19T05:08:06Z</time>
      </trkpt>
      <trkpt lat="43.99204" lon="7.25769">
        <ele>1103.5</ele>
        <time>2012-08-19T05:08:10Z</time>
      </trkpt>
      <trkpt lat="43.99194" lon="7.25769">
        <ele>1101.6</ele>
        <time>2012-08-19T05:08:14Z</time>
      </trkpt>
      <trkpt lat="43.99185" lon="7.25768">
        <ele>1099</ele>
        <time>2012-08-19T05:08:18Z</time>
      </trkpt>
      <trkpt lat="43.99181" lon="7.25756">
        <ele>1096.4</ele>
        <time>2012-08-19T05:08:22Z</time>
      </trkpt>
      <trkpt lat="43.99175" lon="7.25742">
        <ele>1093.7</ele>
        <time>2012-08-19T05:08:27Z</time>
      </trkpt>
      <trkpt lat="43.9917" lon="7.25727">
        <ele>1093.7</ele>
        <time>2012-08-19T05:08:35Z</time>
      </trkpt>
      <trkpt lat="43.99161" lon="7.25719">
        <ele>1093.7</ele>
        <time>2012-08-19T05:08:38Z</time>
      </trkpt>
      <trkpt lat="43.99159" lon="7.25732">
        <ele>1093.7</ele>
        <time>2012-08-19T05:08:58Z</time>
      </trkpt>
      <trkpt lat="43.99155" lon="7.25748">
        <ele>1095.5</ele>
        <time>2012-08-19T05:09:08Z</time>
      </trkpt>
      <trkpt lat="43.99152" lon="7.25761">
        <ele>1097.4</ele>
        <time>2012-08-19T05:09:13Z</time>
      </trkpt>
      <trkpt lat="43.99156" lon="7.25773">
        <ele>1099.2</ele>
        <time>2012-08-19T05:09:25Z</time>
      </trkpt>
      <trkpt lat="43.99156" lon="7.25787">
        <ele>1101</ele>
        <time>2012-08-19T05:09:28Z</time>
      </trkpt>
      <trkpt lat="43.99156" lon="7.258">
        <ele>1106.1</ele>
        <time>2012-08-19T05:09:36Z</time>
      </trkpt>
      <trkpt lat="43.99156" lon="7.25813">
        <ele>1107.9</ele>
        <time>2012-08-19T05:09:40Z</time>
      </trkpt>
      <trkpt lat="43.99153" lon="7.25829">
        <ele>1109.9</ele>
        <time>2012-08-19T05:09:44Z</time>
      </trkpt>
      <trkpt lat="43.99149" lon="7.25841">
        <ele>1111.9</ele>
        <time>2012-08-19T05:09:53Z</time>
      </trkpt>
      <trkpt lat="43.99149" lon="7.25853">
        <ele>1113.9</ele>
        <time>2012-08-19T05:10:05Z</time>
      </trkpt>
      <trkpt lat="43.99151" lon="7.25866">
        <ele>1115.9</ele>
        <time>2012-08-19T05:10:13Z</time>
      </trkpt>
      <trkpt lat="43.99152" lon="7.25879">
        <ele>1117.9</ele>
        <time>2012-08-19T05:10:21Z</time>
      </trkpt>
      <trkpt lat="43.99149" lon="7.25892">
        <ele>1118.1</ele>
        <time>2012-08-19T05:10:32Z</time>
      </trkpt>
      <trkpt lat="43.99146" lon="7.25904">
        <ele>1118.3</ele>
        <time>2012-08-19T05:10:39Z</time>
      </trkpt>
      <trkpt lat="43.99139" lon="7.25914">
        <ele>1118.5</ele>
        <time>2012-08-19T05:10:50Z</time>
      </trkpt>
      <trkpt lat="43.99143" lon="7.25928">
        <ele>1118.8</ele>
        <time>2012-08-19T05:10:57Z</time>
      </trkpt>
      <trkpt lat="43.99146" lon="7.25939">
        <ele>1119.1</ele>
        <time>2012-08-19T05:11:07Z</time>
      </trkpt>
      <trkpt lat="43.99148" lon="7.25952">
        <ele>1119.4</ele>
        <time>2012-08-19T05:11:14Z</time>
      </trkpt>
      <trkpt lat="43.99149" lon="7.25965">
        <ele>1119.5</ele>
        <time>2012-08-19T05:11:24Z</time>
      </trkpt>
      <trkpt lat="43.99147" lon="7.25978">
        <ele>1119.5</ele>
        <time>2012-08-19T05:11:35Z</time>
      </trkpt>
      <trkpt lat="43.99147" lon="7.25991">
        <ele>1119.6</ele>
        <time>2012-08-19T05:11:48Z</time>
      </trkpt>
      <trkpt lat="43.99155" lon="7.26">
        <ele>1119.7</ele>
        <time>2012-08-19T05:11:58Z</time>
      </trkpt>
      <trkpt lat="43.99163" lon="7.26006">
        <ele>1119.2</ele>
        <time>2012-08-19T05:12:08Z</time>
      </trkpt>
      <trkpt lat="43.9917" lon="7.26014">
        <ele>1118.6</ele>
        <time>2012-08-19T05:12:16Z</time>
      </trkpt>
      <trkpt lat="43.9918" lon="7.26019">
        <ele>1118.1</ele>
        <time>2012-08-19T05:12:29Z</time>
      </trkpt>
      <trkpt lat="43.99179" lon="7.26033">
        <ele>1117.5</ele>
        <time>2012-08-19T05:12:37Z</time>
      </trkpt>
      <trkpt lat="43.99184" lon="7.26044">
        <ele>1116.8</ele>
        <time>2012-08-19T05:12:42Z</time>
      </trkpt>
      <trkpt lat="43.99191" lon="7.26054">
        <ele>1116.2</ele>
        <time>2012-08-19T05:12:49Z</time>
      </trkpt>
      <trkpt lat="43.99195" lon="7.26065">
        <ele>1121.5</ele>
        <time>2012-08-19T05:12:58Z</time>
      </trkpt>
      <trkpt lat="43.99199" lon="7.26076">
        <ele>1124.7</ele>
        <time>2012-08-19T05:13:05Z</time>
      </trkpt>
      <trkpt lat="43.99201" lon="7.2609">
        <ele>1128</ele>
        <time>2012-08-19T05:13:11Z</time>
      </trkpt>
      <trkpt lat="43.99206" lon="7.26103">
        <ele>1131.3</ele>
        <time>2012-08-19T05:13:18Z</time>
      </trkpt>
      <trkpt lat="43.99212" lon="7.26113">
        <ele>1134.5</ele>
        <time>2012-08-19T05:13:23Z</time>
      </trkpt>
      <trkpt lat="43.99218" lon="7.26124">
        <ele>1138.5</ele>
        <time>2012-08-19T05:13:36Z</time>
      </trkpt>
      <trkpt lat="43.99225" lon="7.26132">
        <ele>1142.4</ele>
        <time>2012-08-19T05:13:48Z</time>
      </trkpt>
      <trkpt lat="43.99234" lon="7.26135">
        <ele>1146.3</ele>
        <time>2012-08-19T05:14:03Z</time>
      </trkpt>
      <trkpt lat="43.99243" lon="7.26143">
        <ele>1150.2</ele>
        <time>2012-08-19T05:14:10Z</time>
      </trkpt>
      <trkpt lat="43.99254" lon="7.26146">
        <ele>1154.1</ele>
        <time>2012-08-19T05:14:15Z</time>
      </trkpt>
      <trkpt lat="43.99262" lon="7.26153">
        <ele>1158</ele>
        <time>2012-08-19T05:14:24Z</time>
      </trkpt>
      <trkpt lat="43.99269" lon="7.26163">
        <ele>1157.5</ele>
        <time>2012-08-19T05:14:33Z</time>
      </trkpt>
      <trkpt lat="43.99271" lon="7.26177">
        <ele>1159.1</ele>
        <time>2012-08-19T05:14:44Z</time>
      </trkpt>
      <trkpt lat="43.99268" lon="7.2619">
        <ele>1160.6</ele>
        <time>2012-08-19T05:14:50Z</time>
      </trkpt>
      <trkpt lat="43.9926" lon="7.26199">
        <ele>1162.2</ele>
        <time>2012-08-19T05:14:57Z</time>
      </trkpt>
      <trkpt lat="43.99251" lon="7.26207">
        <ele>1163.7</ele>
        <time>2012-08-19T05:15:04Z</time>
      </trkpt>
      <trkpt lat="43.99245" lon="7.26218">
        <ele>1164</ele>
        <time>2012-08-19T05:15:10Z</time>
      </trkpt>
      <trkpt lat="43.99239" lon="7.26228">
        <ele>1164.3</ele>
        <time>2012-08-19T05:15:16Z</time>
      </trkpt>
      <trkpt lat="43.99233" lon="7.26237">
        <ele>1164.5</ele>
        <time>2012-08-19T05:15:21Z</time>
      </trkpt>
      <trkpt lat="43.99226" lon="7.26245">
        <ele>1164.8</ele>
        <time>2012-08-19T05:15:27Z</time>
      </trkpt>
      <trkpt lat="43.99218" lon="7.26256">
        <ele>1165.1</ele>
        <time>2012-08-19T05:15:34Z</time>
      </trkpt>
      <trkpt lat="43.99213" lon="7.26266">
        <ele>1168.9</ele>
        <time>2012-08-19T05:15:40Z</time>
      </trkpt>
      <trkpt lat="43.99205" lon="7.26272">
        <ele>1171.2</ele>
        <time>2012-08-19T05:15:49Z</time>
      </trkpt>
      <trkpt lat="43.99196" lon="7.26275">
        <ele>1173.5</ele>
        <time>2012-08-19T05:15:58Z</time>
      </trkpt>
      <trkpt lat="43.99189" lon="7.26284">
        <ele>1175.7</ele>
        <time>2012-08-19T05:16:08Z</time>
      </trkpt>
      <trkpt lat="43.99181" lon="7.2629">
        <ele>1178</ele>
        <time>2012-08-19T05:16:17Z</time>
      </trkpt>
      <trkpt lat="43.99173" lon="7.26297">
        <ele>1178.7</ele>
        <time>2012-08-19T05:16:26Z</time>
      </trkpt>
      <trkpt lat="43.99164" lon="7.26301">
        <ele>1180.7</ele>
        <time>2012-08-19T05:16:36Z</time>
      </trkpt>
      <trkpt lat="43.99156" lon="7.26308">
        <ele>1182.7</ele>
        <time>2012-08-19T05:16:43Z</time>
      </trkpt>
      <trkpt lat="43.99144" lon="7.26314">
        <ele>1181.5</ele>
        <time>2012-08-19T05:16:53Z</time>
      </trkpt>
      <trkpt lat="43.99135" lon="7.26317">
        <ele>1180.2</ele>
        <time>2012-08-19T05:17:01Z</time>
      </trkpt>
      <trkpt lat="43.99126" lon="7.26317">
        <ele>1178.9</ele>
        <time>2012-08-19T05:17:12Z</time>
      </trkpt>
      <trkpt lat="43.99117" lon="7.26313">
        <ele>1174.1</ele>
        <time>2012-08-19T05:17:26Z</time>
      </trkpt>
      <trkpt lat="43.99115" lon="7.263">
        <ele>1172.5</ele>
        <time>2012-08-19T05:17:31Z</time>
      </trkpt>
      <trkpt lat="43.99111" lon="7.26287">
        <ele>1171</ele>
        <time>2012-08-19T05:17:37Z</time>
      </trkpt>
      <trkpt lat="43.99102" lon="7.26283">
        <ele>1169.5</ele>
        <time>2012-08-19T05:17:43Z</time>
      </trkpt>
      <trkpt lat="43.99091" lon="7.26282">
        <ele>1167.9</ele>
        <time>2012-08-19T05:17:51Z</time>
      </trkpt>
      <trkpt lat="43.99085" lon="7.26292">
        <ele>1167.9</ele>
        <time>2012-08-19T05:17:58Z</time>
      </trkpt>
      <trkpt lat="43.99086" lon="7.26306">
        <ele>1167.9</ele>
        <time>2012-08-19T05:18:09Z</time>
      </trkpt>
      <trkpt lat="43.9909" lon="7.26318">
        <ele>1167.9</ele>
        <time>2012-08-19T05:18:18Z</time>
      </trkpt>
      <trkpt lat="43.99091" lon="7.26332">
        <ele>1171.2</ele>
        <time>2012-08-19T05:18:23Z</time>
      </trkpt>
      <trkpt lat="43.99084" lon="7.26344">
        <ele>1174.5</ele>
        <time>2012-08-19T05:18:29Z</time>
      </trkpt>
      <trkpt lat="43.99079" lon="7.26355">
        <ele>1176.7</ele>
        <time>2012-08-19T05:18:32Z</time>
      </trkpt>
      <trkpt lat="43.99072" lon="7.26365">
        <ele>1179</ele>
        <time>2012-08-19T05:18:36Z</time>
      </trkpt>
      <trkpt lat="43.99063" lon="7.26372">
        <ele>1179.5</ele>
        <time>2012-08-19T05:18:42Z</time>
      </trkpt>
      <trkpt lat="43.99053" lon="7.26371">
        <ele>1179.9</ele>
        <time>2012-08-19T05:18:49Z</time>
      </trkpt>
      <trkpt lat="43.99044" lon="7.26367">
        <ele>1180.4</ele>
        <time>2012-08-19T05:18:57Z</time>
      </trkpt>
      <trkpt lat="43.99036" lon="7.26361">
        <ele>1180.8</ele>
        <time>2012-08-19T05:19:07Z</time>
      </trkpt>
      <trkpt lat="43.99043" lon="7.2637">
        <ele>1181.3</ele>
        <time>2012-08-19T05:19:25Z</time>
      </trkpt>
      <trkpt lat="43.99051" lon="7.26378">
        <ele>1181.7</ele>
        <time>2012-08-19T05:19:32Z</time>
      </trkpt>
      <trkpt lat="43.99057" lon="7.26389">
        <ele>1182.2</ele>
        <time>2012-08-19T05:19:39Z</time>
      </trkpt>
      <trkpt lat="43.99062" lon="7.26399">
        <ele>1182.6</ele>
        <time>2012-08-19T05:19:44Z</time>
      </trkpt>
      <trkpt lat="43.99065" lon="7.26411">
        <ele>1183.1</ele>
        <time>2012-08-19T05:19:50Z</time>
      </trkpt>
      <trkpt lat="43.99072" lon="7.26426">
        <ele>1184.5</ele>
        <time>2012-08-19T05:19:56Z</time>
      </trkpt>
      <trkpt lat="43.99077" lon="7.26439">
        <ele>1186.8</ele>
        <time>2012-08-19T05:20:02Z</time>
      </trkpt>
      <trkpt lat="43.99091" lon="7.26439">
        <ele>1187.6</ele>
        <time>2012-08-19T05:20:16Z</time>
      </trkpt>
      <trkpt lat="43.99102" lon="7.2644">
        <ele>1188.5</ele>
        <time>2012-08-19T05:20:22Z</time>
      </trkpt>
      <trkpt lat="43.99112" lon="7.26442">
        <ele>1189.3</ele>
        <time>2012-08-19T05:20:26Z</time>
      </trkpt>
      <trkpt lat="43.99122" lon="7.26447">
        <ele>1188.5</ele>
        <time>2012-08-19T05:20:30Z</time>
      </trkpt>
      <trkpt lat="43.99134" lon="7.26449">
        <ele>1187.6</ele>
        <time>2012-08-19T05:20:33Z</time>
      </trkpt>
      <trkpt lat="43.99143" lon="7.26448">
        <ele>1186.8</ele>
        <time>2012-08-19T05:20:35Z</time>
      </trkpt>
      <trkpt lat="43.99153" lon="7.2645">
        <ele>1186</ele>
        <time>2012-08-19T05:20:38Z</time>
      </trkpt>
      <trkpt lat="43.99162" lon="7.26456">
        <ele>1185.2</ele>
        <time>2012-08-19T05:20:43Z</time>
      </trkpt>
      <trkpt lat="43.99171" lon="7.26464">
        <ele>1184.4</ele>
        <time>2012-08-19T05:20:47Z</time>
      </trkpt>
      <trkpt lat="43.99178" lon="7.26473">
        <ele>1183.5</ele>
        <time>2012-08-19T05:20:52Z</time>
      </trkpt>
      <trkpt lat="43.99186" lon="7.26481">
        <ele>1181.6</ele>
        <time>2012-08-19T05:20:57Z</time>
      </trkpt>
      <trkpt lat="43.99193" lon="7.26489">
        <ele>1179.7</ele>
        <time>2012-08-19T05:21:01Z</time>
      </trkpt>
      <trkpt lat="43.99197" lon="7.265">
        <ele>1177.8</ele>
        <time>2012-08-19T05:21:07Z</time>
      </trkpt>
      <trkpt lat="43.99199" lon="7.26514">
        <ele>1175.9</ele>
        <time>2012-08-19T05:21:15Z</time>
      </trkpt>
      <trkpt lat="43.99197" lon="7.26527">
        <ele>1175.6</ele>
        <time>2012-08-19T05:21:19Z</time>
      </trkpt>
      <trkpt lat="43.99194" lon="7.26543">
        <ele>1175.4</ele>
        <time>2012-08-19T05:21:23Z</time>
      </trkpt>
      <trkpt lat="43.99188" lon="7.26555">
        <ele>1175.1</ele>
        <time>2012-08-19T05:21:28Z</time>
      </trkpt>
      <trkpt lat="43.99181" lon="7.26564">
        <ele>1174.8</ele>
        <time>2012-08-19T05:21:33Z</time>
      </trkpt>
      <trkpt lat="43.99173" lon="7.26573">
        <ele>1174.5</ele>
        <time>2012-08-19T05:21:38Z</time>
      </trkpt>
      <trkpt lat="43.99167" lon="7.26584">
        <ele>1173.8</ele>
        <time>2012-08-19T05:21:43Z</time>
      </trkpt>
      <trkpt lat="43.99167" lon="7.26597">
        <ele>1173.1</ele>
        <time>2012-08-19T05:21:49Z</time>
      </trkpt>
      <trkpt lat="43.9917" lon="7.26609">
        <ele>1172.6</ele>
        <time>2012-08-19T05:21:54Z</time>
      </trkpt>
      <trkpt lat="43.99173" lon="7.26621">
        <ele>1172.2</ele>
        <time>2012-08-19T05:21:59Z</time>
      </trkpt>
      <trkpt lat="43.99176" lon="7.26634">
        <ele>1171.7</ele>
        <time>2012-08-19T05:22:05Z</time>
      </trkpt>
      <trkpt lat="43.99179" lon="7.26645">
        <ele>1171.3</ele>
        <time>2012-08-19T05:22:11Z</time>
      </trkpt>
      <trkpt lat="43.99184" lon="7.26657">
        <ele>1170.8</ele>
        <time>2012-08-19T05:22:17Z</time>
      </trkpt>
      <trkpt lat="43.9919" lon="7.26667">
        <ele>1169.8</ele>
        <time>2012-08-19T05:22:23Z</time>
      </trkpt>
      <trkpt lat="43.99196" lon="7.26678">
        <ele>1168.8</ele>
        <time>2012-08-19T05:22:29Z</time>
      </trkpt>
      <trkpt lat="43.99203" lon="7.2669">
        <ele>1167.8</ele>
        <time>2012-08-19T05:22:35Z</time>
      </trkpt>
      <trkpt lat="43.99208" lon="7.26703">
        <ele>1166.8</ele>
        <time>2012-08-19T05:22:40Z</time>
      </trkpt>
      <trkpt lat="43.99212" lon="7.26717">
        <ele>1166.3</ele>
        <time>2012-08-19T05:22:45Z</time>
      </trkpt>
      <trkpt lat="43.99214" lon="7.26732">
        <ele>1165.7</ele>
        <time>2012-08-19T05:22:50Z</time>
      </trkpt>
      <trkpt lat="43.99214" lon="7.26746">
        <ele>1165.2</ele>
        <time>2012-08-19T05:22:55Z</time>
      </trkpt>
      <trkpt lat="43.99209" lon="7.26757">
        <ele>1166</ele>
        <time>2012-08-19T05:23:00Z</time>
      </trkpt>
      <trkpt lat="43.99203" lon="7.26769">
        <ele>1166.8</ele>
        <time>2012-08-19T05:23:04Z</time>
      </trkpt>
      <trkpt lat="43.99196" lon="7.26781">
        <ele>1167.6</ele>
        <time>2012-08-19T05:23:08Z</time>
      </trkpt>
      <trkpt lat="43.99189" lon="7.2679">
        <ele>1168.5</ele>
        <time>2012-08-19T05:23:12Z</time>
      </trkpt>
      <trkpt lat="43.99181" lon="7.26799">
        <ele>1169.8</ele>
        <time>2012-08-19T05:23:16Z</time>
      </trkpt>
      <trkpt lat="43.99173" lon="7.26807">
        <ele>1171.2</ele>
        <time>2012-08-19T05:23:21Z</time>
      </trkpt>
      <trkpt lat="43.99163" lon="7.26812">
        <ele>1174</ele>
        <time>2012-08-19T05:23:27Z</time>
      </trkpt>
      <trkpt lat="43.99154" lon="7.26818">
        <ele>1176.8</ele>
        <time>2012-08-19T05:23:32Z</time>
      </trkpt>
      <trkpt lat="43.99145" lon="7.26823">
        <ele>1179.6</ele>
        <time>2012-08-19T05:23:36Z</time>
      </trkpt>
      <trkpt lat="43.99136" lon="7.26829">
        <ele>1182.5</ele>
        <time>2012-08-19T05:23:42Z</time>
      </trkpt>
      <trkpt lat="43.99126" lon="7.26833">
        <ele>1185.3</ele>
        <time>2012-08-19T05:23:49Z</time>
      </trkpt>
      <trkpt lat="43.99117" lon="7.26836">
        <ele>1186.7</ele>
        <time>2012-08-19T05:23:56Z</time>
      </trkpt>
      <trkpt lat="43.99108" lon="7.26838">
        <ele>1188.2</ele>
        <time>2012-08-19T05:24:02Z</time>
      </trkpt>
      <trkpt lat="43.99098" lon="7.26837">
        <ele>1189.6</ele>
        <time>2012-08-19T05:24:10Z</time>
      </trkpt>
      <trkpt lat="43.99088" lon="7.26837">
        <ele>1191.1</ele>
        <time>2012-08-19T05:24:17Z</time>
      </trkpt>
      <trkpt lat="43.99079" lon="7.26833">
        <ele>1191.4</ele>
        <time>2012-08-19T05:24:24Z</time>
      </trkpt>
      <trkpt lat="43.9907" lon="7.2683">
        <ele>1191.6</ele>
        <time>2012-08-19T05:24:30Z</time>
      </trkpt>
      <trkpt lat="43.99061" lon="7.26825">
        <ele>1190.5</ele>
        <time>2012-08-19T05:24:36Z</time>
      </trkpt>
      <trkpt lat="43.99052" lon="7.26827">
        <ele>1189.3</ele>
        <time>2012-08-19T05:24:42Z</time>
      </trkpt>
      <trkpt lat="43.99044" lon="7.26831">
        <ele>1188.1</ele>
        <time>2012-08-19T05:24:46Z</time>
      </trkpt>
      <trkpt lat="43.99036" lon="7.26839">
        <ele>1188.7</ele>
        <time>2012-08-19T05:24:50Z</time>
      </trkpt>
      <trkpt lat="43.9903" lon="7.26849">
        <ele>1189.4</ele>
        <time>2012-08-19T05:24:56Z</time>
      </trkpt>
      <trkpt lat="43.99029" lon="7.26862">
        <ele>1190</ele>
        <time>2012-08-19T05:25:03Z</time>
      </trkpt>
      <trkpt lat="43.99028" lon="7.26876">
        <ele>1190.6</ele>
        <time>2012-08-19T05:25:10Z</time>
      </trkpt>
      <trkpt lat="43.9902" lon="7.26884">
        <ele>1191.3</ele>
        <time>2012-08-19T05:25:17Z</time>
      </trkpt>
      <trkpt lat="43.99014" lon="7.26894">
        <ele>1191.9</ele>
        <time>2012-08-19T05:25:22Z</time>
      </trkpt>
      <trkpt lat="43.99005" lon="7.26902">
        <ele>1191.8</ele>
        <time>2012-08-19T05:25:26Z</time>
      </trkpt>
      <trkpt lat="43.98995" lon="7.2691">
        <ele>1191.7</ele>
        <time>2012-08-19T05:25:30Z</time>
      </trkpt>
      <trkpt lat="43.98986" lon="7.26916">
        <ele>1191.6</ele>
        <time>2012-08-19T05:25:34Z</time>
      </trkpt>
      <trkpt lat="43.98977" lon="7.26921">
        <ele>1194.2</ele>
        <time>2012-08-19T05:25:38Z</time>
      </trkpt>
      <trkpt lat="43.98967" lon="7.26927">
        <ele>1195.1</ele>
        <time>2012-08-19T05:25:43Z</time>
      </trkpt>
      <trkpt lat="43.98961" lon="7.26938">
        <ele>1194.2</ele>
        <time>2012-08-19T05:25:48Z</time>
      </trkpt>
      <trkpt lat="43.9896" lon="7.26951">
        <ele>1193.3</ele>
        <time>2012-08-19T05:25:53Z</time>
      </trkpt>
      <trkpt lat="43.98961" lon="7.26965">
        <ele>1192.4</ele>
        <time>2012-08-19T05:25:59Z</time>
      </trkpt>
      <trkpt lat="43.98962" lon="7.2698">
        <ele>1191.5</ele>
        <time>2012-08-19T05:26:07Z</time>
      </trkpt>
      <trkpt lat="43.98958" lon="7.26992">
        <ele>1190.5</ele>
        <time>2012-08-19T05:26:12Z</time>
      </trkpt>
      <trkpt lat="43.98953" lon="7.27004">
        <ele>1189.6</ele>
        <time>2012-08-19T05:26:17Z</time>
      </trkpt>
      <trkpt lat="43.98946" lon="7.27012">
        <ele>1190.6</ele>
        <time>2012-08-19T05:26:21Z</time>
      </trkpt>
      <trkpt lat="43.98938" lon="7.27019">
        <ele>1191.6</ele>
        <time>2012-08-19T05:26:25Z</time>
      </trkpt>
      <trkpt lat="43.98931" lon="7.27026">
        <ele>1192.6</ele>
        <time>2012-08-19T05:26:29Z</time>
      </trkpt>
      <trkpt lat="43.98923" lon="7.27034">
        <ele>1191</ele>
        <time>2012-08-19T05:26:33Z</time>
      </trkpt>
      <trkpt lat="43.98921" lon="7.27046">
        <ele>1191</ele>
        <time>2012-08-19T05:26:37Z</time>
      </trkpt>
      <trkpt lat="43.98921" lon="7.2706">
        <ele>1191</ele>
        <time>2012-08-19T05:26:41Z</time>
      </trkpt>
      <trkpt lat="43.98924" lon="7.27074">
        <ele>1191</ele>
        <time>2012-08-19T05:26:46Z</time>
      </trkpt>
      <trkpt lat="43.98926" lon="7.27088">
        <ele>1191</ele>
        <time>2012-08-19T05:26:55Z</time>
      </trkpt>
      <trkpt lat="43.98931" lon="7.27101">
        <ele>1191</ele>
        <time>2012-08-19T05:27:03Z</time>
      </trkpt>
      <trkpt lat="43.98921" lon="7.27105">
        <ele>1190.1</ele>
        <time>2012-08-19T05:27:12Z</time>
      </trkpt>
      <trkpt lat="43.9891" lon="7.27108">
        <ele>1189.2</ele>
        <time>2012-08-19T05:27:16Z</time>
      </trkpt>
      <trkpt lat="43.989" lon="7.27112">
        <ele>1188.3</ele>
        <time>2012-08-19T05:27:19Z</time>
      </trkpt>
      <trkpt lat="43.9889" lon="7.27117">
        <ele>1187.4</ele>
        <time>2012-08-19T05:27:22Z</time>
      </trkpt>
      <trkpt lat="43.98882" lon="7.27121">
        <ele>1186.5</ele>
        <time>2012-08-19T05:27:25Z</time>
      </trkpt>
      <trkpt lat="43.98872" lon="7.27123">
        <ele>1185.5</ele>
        <time>2012-08-19T05:27:28Z</time>
      </trkpt>
      <trkpt lat="43.98863" lon="7.27123">
        <ele>1184.6</ele>
        <time>2012-08-19T05:27:32Z</time>
      </trkpt>
      <trkpt lat="43.98852" lon="7.27119">
        <ele>1183.7</ele>
        <time>2012-08-19T05:27:37Z</time>
      </trkpt>
      <trkpt lat="43.98841" lon="7.27118">
        <ele>1181.1</ele>
        <time>2012-08-19T05:27:42Z</time>
      </trkpt>
      <trkpt lat="43.98829" lon="7.27116">
        <ele>1178.5</ele>
        <time>2012-08-19T05:27:46Z</time>
      </trkpt>
      <trkpt lat="43.98818" lon="7.27112">
        <ele>1175.8</ele>
        <time>2012-08-19T05:27:49Z</time>
      </trkpt>
      <trkpt lat="43.98808" lon="7.27116">
        <ele>1174.1</ele>
        <time>2012-08-19T05:27:58Z</time>
      </trkpt>
      <trkpt lat="43.98799" lon="7.27111">
        <ele>1172.4</ele>
        <time>2012-08-19T05:28:03Z</time>
      </trkpt>
      <trkpt lat="43.98789" lon="7.2711">
        <ele>1166.9</ele>
        <time>2012-08-19T05:28:08Z</time>
      </trkpt>
      <trkpt lat="43.98778" lon="7.27114">
        <ele>1161.5</ele>
        <time>2012-08-19T05:28:14Z</time>
      </trkpt>
      <trkpt lat="43.98769" lon="7.27115">
        <ele>1156</ele>
        <time>2012-08-19T05:28:18Z</time>
      </trkpt>
      <trkpt lat="43.9876" lon="7.27121">
        <ele>1150.5</ele>
        <time>2012-08-19T05:28:22Z</time>
      </trkpt>
      <trkpt lat="43.98751" lon="7.27127">
        <ele>1144.2</ele>
        <time>2012-08-19T05:28:26Z</time>
      </trkpt>
      <trkpt lat="43.98743" lon="7.27133">
        <ele>1137.8</ele>
        <time>2012-08-19T05:28:35Z</time>
      </trkpt>
      <trkpt lat="43.98736" lon="7.27141">
        <ele>1133.2</ele>
        <time>2012-08-19T05:28:39Z</time>
      </trkpt>
      <trkpt lat="43.98726" lon="7.27141">
        <ele>1128.5</ele>
        <time>2012-08-19T05:28:45Z</time>
      </trkpt>
      <trkpt lat="43.98717" lon="7.27145">
        <ele>1123.9</ele>
        <time>2012-08-19T05:28:52Z</time>
      </trkpt>
      <trkpt lat="43.98709" lon="7.2715">
        <ele>1119.3</ele>
        <time>2012-08-19T05:28:56Z</time>
      </trkpt>
      <trkpt lat="43.98702" lon="7.2716">
        <ele>1114.6</ele>
        <time>2012-08-19T05:29:00Z</time>
      </trkpt>
      <trkpt lat="43.98693" lon="7.27168">
        <ele>1113.7</ele>
        <time>2012-08-19T05:29:04Z</time>
      </trkpt>
      <trkpt lat="43.98682" lon="7.27167">
        <ele>1112.8</ele>
        <time>2012-08-19T05:29:08Z</time>
      </trkpt>
      <trkpt lat="43.98675" lon="7.27158">
        <ele>1111.9</ele>
        <time>2012-08-19T05:29:12Z</time>
      </trkpt>
      <trkpt lat="43.98671" lon="7.27147">
        <ele>1111</ele>
        <time>2012-08-19T05:29:17Z</time>
      </trkpt>
      <trkpt lat="43.9866" lon="7.27143">
        <ele>1111</ele>
        <time>2012-08-19T05:29:23Z</time>
      </trkpt>
      <trkpt lat="43.98649" lon="7.27143">
        <ele>1111</ele>
        <time>2012-08-19T05:29:27Z</time>
      </trkpt>
      <trkpt lat="43.9864" lon="7.27145">
        <ele>1111</ele>
        <time>2012-08-19T05:29:31Z</time>
      </trkpt>
      <trkpt lat="43.9863" lon="7.27153">
        <ele>1111</ele>
        <time>2012-08-19T05:29:35Z</time>
      </trkpt>
      <trkpt lat="43.98619" lon="7.27155">
        <ele>1111</ele>
        <time>2012-08-19T05:29:39Z</time>
      </trkpt>
      <trkpt lat="43.98608" lon="7.27156">
        <ele>1111</ele>
        <time>2012-08-19T05:29:43Z</time>
      </trkpt>
      <trkpt lat="43.98599" lon="7.2716">
        <ele>1111</ele>
        <time>2012-08-19T05:29:46Z</time>
      </trkpt>
      <trkpt lat="43.9859" lon="7.27164">
        <ele>1111</ele>
        <time>2012-08-19T05:29:49Z</time>
      </trkpt>
      <trkpt lat="43.98581" lon="7.27167">
        <ele>1112.3</ele>
        <time>2012-08-19T05:29:52Z</time>
      </trkpt>
      <trkpt lat="43.98572" lon="7.27167">
        <ele>1113.5</ele>
        <time>2012-08-19T05:29:56Z</time>
      </trkpt>
      <trkpt lat="43.98561" lon="7.27169">
        <ele>1114.8</ele>
        <time>2012-08-19T05:30:03Z</time>
      </trkpt>
      <trkpt lat="43.98553" lon="7.27177">
        <ele>1116.1</ele>
        <time>2012-08-19T05:30:08Z</time>
      </trkpt>
      <trkpt lat="43.98546" lon="7.27185">
        <ele>1117.4</ele>
        <time>2012-08-19T05:30:12Z</time>
      </trkpt>
      <trkpt lat="43.9854" lon="7.27194">
        <ele>1116.5</ele>
        <time>2012-08-19T05:30:16Z</time>
      </trkpt>
      <trkpt lat="43.98531" lon="7.27202">
        <ele>1115.5</ele>
        <time>2012-08-19T05:30:20Z</time>
      </trkpt>
      <trkpt lat="43.9852" lon="7.27203">
        <ele>1114.6</ele>
        <time>2012-08-19T05:30:24Z</time>
      </trkpt>
      <trkpt lat="43.98511" lon="7.27202">
        <ele>1113.7</ele>
        <time>2012-08-19T05:30:27Z</time>
      </trkpt>
      <trkpt lat="43.98502" lon="7.27209">
        <ele>1112.8</ele>
        <time>2012-08-19T05:30:32Z</time>
      </trkpt>
      <trkpt lat="43.98496" lon="7.2722">
        <ele>1111.9</ele>
        <time>2012-08-19T05:30:36Z</time>
      </trkpt>
      <trkpt lat="43.98491" lon="7.27234">
        <ele>1109.7</ele>
        <time>2012-08-19T05:30:41Z</time>
      </trkpt>
      <trkpt lat="43.98488" lon="7.27247">
        <ele>1107.4</ele>
        <time>2012-08-19T05:30:46Z</time>
      </trkpt>
      <trkpt lat="43.98485" lon="7.27259">
        <ele>1105</ele>
        <time>2012-08-19T05:31:09Z</time>
      </trkpt>
      <trkpt lat="43.98477" lon="7.27271">
        <ele>1102.6</ele>
        <time>2012-08-19T05:31:13Z</time>
      </trkpt>
      <trkpt lat="43.9847" lon="7.27281">
        <ele>1100.3</ele>
        <time>2012-08-19T05:31:16Z</time>
      </trkpt>
      <trkpt lat="43.98462" lon="7.2729">
        <ele>1100.1</ele>
        <time>2012-08-19T05:31:19Z</time>
      </trkpt>
      <trkpt lat="43.98456" lon="7.27302">
        <ele>1099.9</ele>
        <time>2012-08-19T05:31:23Z</time>
      </trkpt>
      <trkpt lat="43.98452" lon="7.27314">
        <ele>1101.6</ele>
        <time>2012-08-19T05:31:27Z</time>
      </trkpt>
      <trkpt lat="43.98449" lon="7.27326">
        <ele>1103.4</ele>
        <time>2012-08-19T05:31:34Z</time>
      </trkpt>
      <trkpt lat="43.98446" lon="7.27341">
        <ele>1105.1</ele>
        <time>2012-08-19T05:31:40Z</time>
      </trkpt>
      <trkpt lat="43.98443" lon="7.27353">
        <ele>1106.8</ele>
        <time>2012-08-19T05:31:43Z</time>
      </trkpt>
      <trkpt lat="43.98442" lon="7.27365">
        <ele>1108.5</ele>
        <time>2012-08-19T05:31:47Z</time>
      </trkpt>
      <trkpt lat="43.98441" lon="7.27378">
        <ele>1110.5</ele>
        <time>2012-08-19T05:31:54Z</time>
      </trkpt>
      <trkpt lat="43.98441" lon="7.27391">
        <ele>1112.4</ele>
        <time>2012-08-19T05:32:04Z</time>
      </trkpt>
      <trkpt lat="43.98445" lon="7.27405">
        <ele>1115.1</ele>
        <time>2012-08-19T05:32:10Z</time>
      </trkpt>
      <trkpt lat="43.98449" lon="7.27418">
        <ele>1117.8</ele>
        <time>2012-08-19T05:32:17Z</time>
      </trkpt>
      <trkpt lat="43.98447" lon="7.27431">
        <ele>1120.5</ele>
        <time>2012-08-19T05:32:24Z</time>
      </trkpt>
      <trkpt lat="43.98451" lon="7.27443">
        <ele>1123.3</ele>
        <time>2012-08-19T05:32:35Z</time>
      </trkpt>
      <trkpt lat="43.98452" lon="7.27458">
        <ele>1124.1</ele>
        <time>2012-08-19T05:32:42Z</time>
      </trkpt>
      <trkpt lat="43.98452" lon="7.27472">
        <ele>1124.9</ele>
        <time>2012-08-19T05:32:51Z</time>
      </trkpt>
      <trkpt lat="43.98455" lon="7.27484">
        <ele>1125.5</ele>
        <time>2012-08-19T05:32:57Z</time>
      </trkpt>
      <trkpt lat="43.98457" lon="7.27497">
        <ele>1126.2</ele>
        <time>2012-08-19T05:33:04Z</time>
      </trkpt>
      <trkpt lat="43.98454" lon="7.27513">
        <ele>1126.8</ele>
        <time>2012-08-19T05:33:13Z</time>
      </trkpt>
      <trkpt lat="43.98451" lon="7.27526">
        <ele>1127.5</ele>
        <time>2012-08-19T05:33:21Z</time>
      </trkpt>
      <trkpt lat="43.98445" lon="7.27538">
        <ele>1128.1</ele>
        <time>2012-08-19T05:33:30Z</time>
      </trkpt>
      <trkpt lat="43.98438" lon="7.27548">
        <ele>1127.9</ele>
        <time>2012-08-19T05:33:36Z</time>
      </trkpt>
      <trkpt lat="43.98431" lon="7.27557">
        <ele>1127.7</ele>
        <time>2012-08-19T05:33:42Z</time>
      </trkpt>
      <trkpt lat="43.98423" lon="7.27568">
        <ele>1127.5</ele>
        <time>2012-08-19T05:33:49Z</time>
      </trkpt>
      <trkpt lat="43.98414" lon="7.27579">
        <ele>1127.4</ele>
        <time>2012-08-19T05:33:53Z</time>
      </trkpt>
      <trkpt lat="43.98407" lon="7.27591">
        <ele>1127.9</ele>
        <time>2012-08-19T05:33:57Z</time>
      </trkpt>
      <trkpt lat="43.98399" lon="7.27603">
        <ele>1128.5</ele>
        <time>2012-08-19T05:34:03Z</time>
      </trkpt>
      <trkpt lat="43.98392" lon="7.27613">
        <ele>1129.2</ele>
        <time>2012-08-19T05:34:10Z</time>
      </trkpt>
      <trkpt lat="43.98385" lon="7.27624">
        <ele>1129.9</ele>
        <time>2012-08-19T05:34:18Z</time>
      </trkpt>
      <trkpt lat="43.9838" lon="7.27635">
        <ele>1130.6</ele>
        <time>2012-08-19T05:34:27Z</time>
      </trkpt>
      <trkpt lat="43.98373" lon="7.27646">
        <ele>1131.4</ele>
        <time>2012-08-19T05:34:34Z</time>
      </trkpt>
      <trkpt lat="43.98366" lon="7.27655">
        <ele>1132.1</ele>
        <time>2012-08-19T05:34:40Z</time>
      </trkpt>
      <trkpt lat="43.98359" lon="7.27667">
        <ele>1132.8</ele>
        <time>2012-08-19T05:34:46Z</time>
      </trkpt>
      <trkpt lat="43.98354" lon="7.27679">
        <ele>1133.5</ele>
        <time>2012-08-19T05:34:51Z</time>
      </trkpt>
      <trkpt lat="43.98348" lon="7.27689">
        <ele>1133</ele>
        <time>2012-08-19T05:34:57Z</time>
      </trkpt>
      <trkpt lat="43.98339" lon="7.27698">
        <ele>1132.8</ele>
        <time>2012-08-19T05:35:02Z</time>
      </trkpt>
      <trkpt lat="43.9833" lon="7.27705">
        <ele>1131.9</ele>
        <time>2012-08-19T05:35:07Z</time>
      </trkpt>
      <trkpt lat="43.98322" lon="7.27712">
        <ele>1131</ele>
        <time>2012-08-19T05:35:11Z</time>
      </trkpt>
      <trkpt lat="43.98313" lon="7.27717">
        <ele>1130.1</ele>
        <time>2012-08-19T05:35:15Z</time>
      </trkpt>
      <trkpt lat="43.98303" lon="7.27721">
        <ele>1129.8</ele>
        <time>2012-08-19T05:35:20Z</time>
      </trkpt>
      <trkpt lat="43.98293" lon="7.27722">
        <ele>1129.5</ele>
        <time>2012-08-19T05:35:25Z</time>
      </trkpt>
      <trkpt lat="43.98284" lon="7.27725">
        <ele>1129.3</ele>
        <time>2012-08-19T05:35:30Z</time>
      </trkpt>
      <trkpt lat="43.98274" lon="7.27722">
        <ele>1129</ele>
        <time>2012-08-19T05:35:34Z</time>
      </trkpt>
      <trkpt lat="43.98265" lon="7.2772">
        <ele>1128.7</ele>
        <time>2012-08-19T05:35:39Z</time>
      </trkpt>
      <trkpt lat="43.98255" lon="7.27719">
        <ele>1130.3</ele>
        <time>2012-08-19T05:35:46Z</time>
      </trkpt>
      <trkpt lat="43.98246" lon="7.27717">
        <ele>1133.1</ele>
        <time>2012-08-19T05:35:52Z</time>
      </trkpt>
      <trkpt lat="43.98236" lon="7.27711">
        <ele>1135.5</ele>
        <time>2012-08-19T05:35:58Z</time>
      </trkpt>
      <trkpt lat="43.98229" lon="7.27703">
        <ele>1138</ele>
        <time>2012-08-19T05:36:03Z</time>
      </trkpt>
      <trkpt lat="43.9822" lon="7.27696">
        <ele>1140.5</ele>
        <time>2012-08-19T05:36:09Z</time>
      </trkpt>
      <trkpt lat="43.98211" lon="7.27687">
        <ele>1142.9</ele>
        <time>2012-08-19T05:36:16Z</time>
      </trkpt>
      <trkpt lat="43.98203" lon="7.27679">
        <ele>1144.7</ele>
        <time>2012-08-19T05:36:23Z</time>
      </trkpt>
      <trkpt lat="43.98193" lon="7.27675">
        <ele>1146.5</ele>
        <time>2012-08-19T05:36:31Z</time>
      </trkpt>
      <trkpt lat="43.98183" lon="7.27669">
        <ele>1145.3</ele>
        <time>2012-08-19T05:36:38Z</time>
      </trkpt>
      <trkpt lat="43.98174" lon="7.27663">
        <ele>1144</ele>
        <time>2012-08-19T05:36:43Z</time>
      </trkpt>
      <trkpt lat="43.98166" lon="7.27658">
        <ele>1146.3</ele>
        <time>2012-08-19T05:36:48Z</time>
      </trkpt>
      <trkpt lat="43.98157" lon="7.2765">
        <ele>1146.7</ele>
        <time>2012-08-19T05:36:54Z</time>
      </trkpt>
      <trkpt lat="43.9815" lon="7.27641">
        <ele>1147.2</ele>
        <time>2012-08-19T05:37:00Z</time>
      </trkpt>
      <trkpt lat="43.98142" lon="7.27632">
        <ele>1147.6</ele>
        <time>2012-08-19T05:37:08Z</time>
      </trkpt>
      <trkpt lat="43.98133" lon="7.27626">
        <ele>1148.1</ele>
        <time>2012-08-19T05:37:14Z</time>
      </trkpt>
      <trkpt lat="43.98125" lon="7.27619">
        <ele>1148.5</ele>
        <time>2012-08-19T05:37:20Z</time>
      </trkpt>
      <trkpt lat="43.98117" lon="7.27611">
        <ele>1149</ele>
        <time>2012-08-19T05:37:25Z</time>
      </trkpt>
      <trkpt lat="43.98108" lon="7.27603">
        <ele>1149.5</ele>
        <time>2012-08-19T05:37:30Z</time>
      </trkpt>
      <trkpt lat="43.98098" lon="7.27601">
        <ele>1149.9</ele>
        <time>2012-08-19T05:37:35Z</time>
      </trkpt>
      <trkpt lat="43.98088" lon="7.27602">
        <ele>1155.2</ele>
        <time>2012-08-19T05:37:40Z</time>
      </trkpt>
      <trkpt lat="43.98079" lon="7.27596">
        <ele>1160.5</ele>
        <time>2012-08-19T05:37:45Z</time>
      </trkpt>
      <trkpt lat="43.98071" lon="7.27588">
        <ele>1162.2</ele>
        <time>2012-08-19T05:37:49Z</time>
      </trkpt>
      <trkpt lat="43.98062" lon="7.27582">
        <ele>1163.9</ele>
        <time>2012-08-19T05:37:53Z</time>
      </trkpt>
      <trkpt lat="43.98053" lon="7.27578">
        <ele>1165.6</ele>
        <time>2012-08-19T05:37:58Z</time>
      </trkpt>
      <trkpt lat="43.98043" lon="7.27576">
        <ele>1164.6</ele>
        <time>2012-08-19T05:38:02Z</time>
      </trkpt>
      <trkpt lat="43.98034" lon="7.27572">
        <ele>1163.6</ele>
        <time>2012-08-19T05:38:06Z</time>
      </trkpt>
      <trkpt lat="43.98026" lon="7.27563">
        <ele>1162.6</ele>
        <time>2012-08-19T05:38:10Z</time>
      </trkpt>
      <trkpt lat="43.98018" lon="7.27555">
        <ele>1161.6</ele>
        <time>2012-08-19T05:38:14Z</time>
      </trkpt>
      <trkpt lat="43.98011" lon="7.27547">
        <ele>1160.6</ele>
        <time>2012-08-19T05:38:18Z</time>
      </trkpt>
      <trkpt lat="43.98002" lon="7.27537">
        <ele>1159.6</ele>
        <time>2012-08-19T05:38:23Z</time>
      </trkpt>
      <trkpt lat="43.97996" lon="7.27525">
        <ele>1159.4</ele>
        <time>2012-08-19T05:38:27Z</time>
      </trkpt>
      <trkpt lat="43.97988" lon="7.27514">
        <ele>1159.1</ele>
        <time>2012-08-19T05:38:31Z</time>
      </trkpt>
      <trkpt lat="43.9798" lon="7.27505">
        <ele>1158.8</ele>
        <time>2012-08-19T05:38:35Z</time>
      </trkpt>
      <trkpt lat="43.97973" lon="7.27495">
        <ele>1158.5</ele>
        <time>2012-08-19T05:38:40Z</time>
      </trkpt>
      <trkpt lat="43.97966" lon="7.27486">
        <ele>1155</ele>
        <time>2012-08-19T05:38:45Z</time>
      </trkpt>
      <trkpt lat="43.97957" lon="7.27477">
        <ele>1154.2</ele>
        <time>2012-08-19T05:38:49Z</time>
      </trkpt>
      <trkpt lat="43.97949" lon="7.27471">
        <ele>1153.4</ele>
        <time>2012-08-19T05:38:52Z</time>
      </trkpt>
      <trkpt lat="43.97941" lon="7.27465">
        <ele>1152.5</ele>
        <time>2012-08-19T05:38:55Z</time>
      </trkpt>
      <trkpt lat="43.97932" lon="7.27461">
        <ele>1151.7</ele>
        <time>2012-08-19T05:38:58Z</time>
      </trkpt>
      <trkpt lat="43.97921" lon="7.27456">
        <ele>1151.2</ele>
        <time>2012-08-19T05:39:02Z</time>
      </trkpt>
      <trkpt lat="43.97911" lon="7.27449">
        <ele>1150.6</ele>
        <time>2012-08-19T05:39:05Z</time>
      </trkpt>
      <trkpt lat="43.97903" lon="7.27443">
        <ele>1147.6</ele>
        <time>2012-08-19T05:39:08Z</time>
      </trkpt>
      <trkpt lat="43.97895" lon="7.27434">
        <ele>1144.6</ele>
        <time>2012-08-19T05:39:11Z</time>
      </trkpt>
      <trkpt lat="43.97888" lon="7.27426">
        <ele>1141.6</ele>
        <time>2012-08-19T05:39:14Z</time>
      </trkpt>
      <trkpt lat="43.97879" lon="7.2742">
        <ele>1138.6</ele>
        <time>2012-08-19T05:39:17Z</time>
      </trkpt>
      <trkpt lat="43.97869" lon="7.27415">
        <ele>1138.9</ele>
        <time>2012-08-19T05:39:20Z</time>
      </trkpt>
      <trkpt lat="43.9786" lon="7.27413">
        <ele>1139.2</ele>
        <time>2012-08-19T05:39:23Z</time>
      </trkpt>
      <trkpt lat="43.97851" lon="7.27413">
        <ele>1139.5</ele>
        <time>2012-08-19T05:39:27Z</time>
      </trkpt>
      <trkpt lat="43.97841" lon="7.2741">
        <ele>1137.8</ele>
        <time>2012-08-19T05:39:31Z</time>
      </trkpt>
      <trkpt lat="43.9783" lon="7.2741">
        <ele>1136.2</ele>
        <time>2012-08-19T05:39:36Z</time>
      </trkpt>
      <trkpt lat="43.9782" lon="7.27415">
        <ele>1134.3</ele>
        <time>2012-08-19T05:39:40Z</time>
      </trkpt>
      <trkpt lat="43.97811" lon="7.27416">
        <ele>1132.4</ele>
        <time>2012-08-19T05:39:44Z</time>
      </trkpt>
      <trkpt lat="43.97799" lon="7.2742">
        <ele>1130.5</ele>
        <time>2012-08-19T05:39:48Z</time>
      </trkpt>
      <trkpt lat="43.9779" lon="7.27423">
        <ele>1130.2</ele>
        <time>2012-08-19T05:39:51Z</time>
      </trkpt>
      <trkpt lat="43.9778" lon="7.27426">
        <ele>1129.9</ele>
        <time>2012-08-19T05:39:55Z</time>
      </trkpt>
      <trkpt lat="43.97772" lon="7.27435">
        <ele>1129.6</ele>
        <time>2012-08-19T05:40:00Z</time>
      </trkpt>
      <trkpt lat="43.97762" lon="7.27443">
        <ele>1129.4</ele>
        <time>2012-08-19T05:40:05Z</time>
      </trkpt>
      <trkpt lat="43.97754" lon="7.27453">
        <ele>1126.5</ele>
        <time>2012-08-19T05:40:09Z</time>
      </trkpt>
      <trkpt lat="43.97745" lon="7.2746">
        <ele>1123.5</ele>
        <time>2012-08-19T05:40:13Z</time>
      </trkpt>
      <trkpt lat="43.97735" lon="7.27467">
        <ele>1122.5</ele>
        <time>2012-08-19T05:40:17Z</time>
      </trkpt>
      <trkpt lat="43.97726" lon="7.27474">
        <ele>1121.5</ele>
        <time>2012-08-19T05:40:20Z</time>
      </trkpt>
      <trkpt lat="43.97718" lon="7.27482">
        <ele>1120.5</ele>
        <time>2012-08-19T05:40:23Z</time>
      </trkpt>
      <trkpt lat="43.97711" lon="7.27491">
        <ele>1119.5</ele>
        <time>2012-08-19T05:40:26Z</time>
      </trkpt>
      <trkpt lat="43.97703" lon="7.27497">
        <ele>1118.5</ele>
        <time>2012-08-19T05:40:29Z</time>
      </trkpt>
      <trkpt lat="43.97692" lon="7.27503">
        <ele>1115.9</ele>
        <time>2012-08-19T05:40:33Z</time>
      </trkpt>
      <trkpt lat="43.97682" lon="7.27509">
        <ele>1113.3</ele>
        <time>2012-08-19T05:40:37Z</time>
      </trkpt>
      <trkpt lat="43.97673" lon="7.27512">
        <ele>1108.7</ele>
        <time>2012-08-19T05:40:41Z</time>
      </trkpt>
      <trkpt lat="43.97665" lon="7.27516">
        <ele>1104.2</ele>
        <time>2012-08-19T05:40:46Z</time>
      </trkpt>
      <trkpt lat="43.97654" lon="7.27517">
        <ele>1102.3</ele>
        <time>2012-08-19T05:40:50Z</time>
      </trkpt>
      <trkpt lat="43.97644" lon="7.27517">
        <ele>1100.4</ele>
        <time>2012-08-19T05:40:54Z</time>
      </trkpt>
      <trkpt lat="43.97634" lon="7.27517">
        <ele>1098.5</ele>
        <time>2012-08-19T05:41:00Z</time>
      </trkpt>
      <trkpt lat="43.97624" lon="7.27516">
        <ele>1096.5</ele>
        <time>2012-08-19T05:41:05Z</time>
      </trkpt>
      <trkpt lat="43.97614" lon="7.27516">
        <ele>1094.6</ele>
        <time>2012-08-19T05:41:10Z</time>
      </trkpt>
      <trkpt lat="43.97604" lon="7.27516">
        <ele>1092.7</ele>
        <time>2012-08-19T05:41:15Z</time>
      </trkpt>
      <trkpt lat="43.97594" lon="7.27514">
        <ele>1089</ele>
        <time>2012-08-19T05:41:19Z</time>
      </trkpt>
      <trkpt lat="43.97583" lon="7.27513">
        <ele>1085.3</ele>
        <time>2012-08-19T05:41:23Z</time>
      </trkpt>
      <trkpt lat="43.97573" lon="7.27511">
        <ele>1081.5</ele>
        <time>2012-08-19T05:41:27Z</time>
      </trkpt>
      <trkpt lat="43.97564" lon="7.27511">
        <ele>1079.7</ele>
        <time>2012-08-19T05:41:32Z</time>
      </trkpt>
      <trkpt lat="43.97553" lon="7.27513">
        <ele>1080.3</ele>
        <time>2012-08-19T05:41:37Z</time>
      </trkpt>
      <trkpt lat="43.97543" lon="7.27518">
        <ele>1080.8</ele>
        <time>2012-08-19T05:41:41Z</time>
      </trkpt>
      <trkpt lat="43.97533" lon="7.27527">
        <ele>1081.4</ele>
        <time>2012-08-19T05:41:44Z</time>
      </trkpt>
      <trkpt lat="43.97522" lon="7.27534">
        <ele>1081.9</ele>
        <time>2012-08-19T05:41:47Z</time>
      </trkpt>
      <trkpt lat="43.97511" lon="7.27541">
        <ele>1082.5</ele>
        <time>2012-08-19T05:41:50Z</time>
      </trkpt>
      <trkpt lat="43.97502" lon="7.27547">
        <ele>1083</ele>
        <time>2012-08-19T05:41:53Z</time>
      </trkpt>
      <trkpt lat="43.97496" lon="7.27557">
        <ele>1080.5</ele>
        <time>2012-08-19T05:41:57Z</time>
      </trkpt>
      <trkpt lat="43.97488" lon="7.27565">
        <ele>1079.9</ele>
        <time>2012-08-19T05:42:06Z</time>
      </trkpt>
      <trkpt lat="43.97479" lon="7.27573">
        <ele>1079.3</ele>
        <time>2012-08-19T05:42:11Z</time>
      </trkpt>
      <trkpt lat="43.97471" lon="7.27584">
        <ele>1078.6</ele>
        <time>2012-08-19T05:42:16Z</time>
      </trkpt>
      <trkpt lat="43.97463" lon="7.27595">
        <ele>1078</ele>
        <time>2012-08-19T05:42:20Z</time>
      </trkpt>
      <trkpt lat="43.97453" lon="7.27603">
        <ele>1077.3</ele>
        <time>2012-08-19T05:42:24Z</time>
      </trkpt>
      <trkpt lat="43.97444" lon="7.27609">
        <ele>1076.5</ele>
        <time>2012-08-19T05:42:27Z</time>
      </trkpt>
      <trkpt lat="43.97436" lon="7.27615">
        <ele>1075.8</ele>
        <time>2012-08-19T05:42:30Z</time>
      </trkpt>
      <trkpt lat="43.97427" lon="7.27622">
        <ele>1075.1</ele>
        <time>2012-08-19T05:42:34Z</time>
      </trkpt>
      <trkpt lat="43.97418" lon="7.2763">
        <ele>1074.6</ele>
        <time>2012-08-19T05:42:39Z</time>
      </trkpt>
      <trkpt lat="43.9741" lon="7.27638">
        <ele>1074.2</ele>
        <time>2012-08-19T05:42:43Z</time>
      </trkpt>
      <trkpt lat="43.97403" lon="7.27649">
        <ele>1076.7</ele>
        <time>2012-08-19T05:42:47Z</time>
      </trkpt>
      <trkpt lat="43.97392" lon="7.27654">
        <ele>1079.3</ele>
        <time>2012-08-19T05:42:53Z</time>
      </trkpt>
      <trkpt lat="43.97383" lon="7.27658">
        <ele>1081.8</ele>
        <time>2012-08-19T05:42:58Z</time>
      </trkpt>
      <trkpt lat="43.97373" lon="7.27663">
        <ele>1084.4</ele>
        <time>2012-08-19T05:43:04Z</time>
      </trkpt>
      <trkpt lat="43.97363" lon="7.27663">
        <ele>1086.9</ele>
        <time>2012-08-19T05:43:11Z</time>
      </trkpt>
      <trkpt lat="43.97354" lon="7.2766">
        <ele>1084.6</ele>
        <time>2012-08-19T05:43:17Z</time>
      </trkpt>
      <trkpt lat="43.97343" lon="7.27662">
        <ele>1082.4</ele>
        <time>2012-08-19T05:43:23Z</time>
      </trkpt>
      <trkpt lat="43.97334" lon="7.27659">
        <ele>1081</ele>
        <time>2012-08-19T05:43:27Z</time>
      </trkpt>
      <trkpt lat="43.97324" lon="7.27654">
        <ele>1079.6</ele>
        <time>2012-08-19T05:43:32Z</time>
      </trkpt>
      <trkpt lat="43.97315" lon="7.27647">
        <ele>1078</ele>
        <time>2012-08-19T05:43:39Z</time>
      </trkpt>
      <trkpt lat="43.97309" lon="7.27637">
        <ele>1076.4</ele>
        <time>2012-08-19T05:43:46Z</time>
      </trkpt>
      <trkpt lat="43.97302" lon="7.27628">
        <ele>1074.7</ele>
        <time>2012-08-19T05:43:56Z</time>
      </trkpt>
      <trkpt lat="43.97292" lon="7.27624">
        <ele>1073.1</ele>
        <time>2012-08-19T05:44:05Z</time>
      </trkpt>
      <trkpt lat="43.97283" lon="7.27626">
        <ele>1071.5</ele>
        <time>2012-08-19T05:44:11Z</time>
      </trkpt>
      <trkpt lat="43.97273" lon="7.27628">
        <ele>1069.8</ele>
        <time>2012-08-19T05:44:16Z</time>
      </trkpt>
      <trkpt lat="43.97264" lon="7.2763">
        <ele>1070.8</ele>
        <time>2012-08-19T05:44:21Z</time>
      </trkpt>
      <trkpt lat="43.97254" lon="7.27631">
        <ele>1074.1</ele>
        <time>2012-08-19T05:44:26Z</time>
      </trkpt>
      <trkpt lat="43.97245" lon="7.2763">
        <ele>1075.4</ele>
        <time>2012-08-19T05:44:31Z</time>
      </trkpt>
      <trkpt lat="43.97236" lon="7.27633">
        <ele>1075.7</ele>
        <time>2012-08-19T05:44:35Z</time>
      </trkpt>
      <trkpt lat="43.97226" lon="7.27637">
        <ele>1076.1</ele>
        <time>2012-08-19T05:44:39Z</time>
      </trkpt>
      <trkpt lat="43.97217" lon="7.27639">
        <ele>1076.5</ele>
        <time>2012-08-19T05:44:43Z</time>
      </trkpt>
      <trkpt lat="43.97205" lon="7.27638">
        <ele>1076.8</ele>
        <time>2012-08-19T05:44:47Z</time>
      </trkpt>
      <trkpt lat="43.97195" lon="7.27633">
        <ele>1077.2</ele>
        <time>2012-08-19T05:44:51Z</time>
      </trkpt>
      <trkpt lat="43.97185" lon="7.27628">
        <ele>1077.5</ele>
        <time>2012-08-19T05:44:56Z</time>
      </trkpt>
      <trkpt lat="43.97176" lon="7.27621">
        <ele>1077.9</ele>
        <time>2012-08-19T05:45:01Z</time>
      </trkpt>
      <trkpt lat="43.9717" lon="7.27609">
        <ele>1078.3</ele>
        <time>2012-08-19T05:45:06Z</time>
      </trkpt>
      <trkpt lat="43.97164" lon="7.27598">
        <ele>1076</ele>
        <time>2012-08-19T05:45:12Z</time>
      </trkpt>
      <trkpt lat="43.97158" lon="7.27587">
        <ele>1074.3</ele>
        <time>2012-08-19T05:45:17Z</time>
      </trkpt>
      <trkpt lat="43.9715" lon="7.2758">
        <ele>1073.5</ele>
        <time>2012-08-19T05:45:22Z</time>
      </trkpt>
      <trkpt lat="43.97143" lon="7.27572">
        <ele>1072.6</ele>
        <time>2012-08-19T05:45:26Z</time>
      </trkpt>
      <trkpt lat="43.97134" lon="7.27562">
        <ele>1071.8</ele>
        <time>2012-08-19T05:45:30Z</time>
      </trkpt>
      <trkpt lat="43.97127" lon="7.27552">
        <ele>1071</ele>
        <time>2012-08-19T05:45:34Z</time>
      </trkpt>
      <trkpt lat="43.9712" lon="7.27544">
        <ele>1070.2</ele>
        <time>2012-08-19T05:45:38Z</time>
      </trkpt>
      <trkpt lat="43.97112" lon="7.27535">
        <ele>1069.4</ele>
        <time>2012-08-19T05:45:42Z</time>
      </trkpt>
      <trkpt lat="43.97105" lon="7.27526">
        <ele>1068.5</ele>
        <time>2012-08-19T05:45:47Z</time>
      </trkpt>
      <trkpt lat="43.97098" lon="7.27515">
        <ele>1066.2</ele>
        <time>2012-08-19T05:45:52Z</time>
      </trkpt>
      <trkpt lat="43.97092" lon="7.27505">
        <ele>1063.8</ele>
        <time>2012-08-19T05:45:56Z</time>
      </trkpt>
      <trkpt lat="43.97086" lon="7.27493">
        <ele>1061.5</ele>
        <time>2012-08-19T05:46:00Z</time>
      </trkpt>
      <trkpt lat="43.97082" lon="7.27482">
        <ele>1058.8</ele>
        <time>2012-08-19T05:46:03Z</time>
      </trkpt>
      <trkpt lat="43.97075" lon="7.27469">
        <ele>1057.3</ele>
        <time>2012-08-19T05:46:07Z</time>
      </trkpt>
      <trkpt lat="43.9707" lon="7.27458">
        <ele>1055.7</ele>
        <time>2012-08-19T05:46:10Z</time>
      </trkpt>
      <trkpt lat="43.97063" lon="7.27446">
        <ele>1054.2</ele>
        <time>2012-08-19T05:46:14Z</time>
      </trkpt>
      <trkpt lat="43.97058" lon="7.27433">
        <ele>1050.9</ele>
        <time>2012-08-19T05:46:19Z</time>
      </trkpt>
      <trkpt lat="43.97054" lon="7.27421">
        <ele>1047.6</ele>
        <time>2012-08-19T05:46:24Z</time>
      </trkpt>
      <trkpt lat="43.97049" lon="7.2741">
        <ele>1044.4</ele>
        <time>2012-08-19T05:46:30Z</time>
      </trkpt>
      <trkpt lat="43.97051" lon="7.27396">
        <ele>1041.1</ele>
        <time>2012-08-19T05:46:37Z</time>
      </trkpt>
      <trkpt lat="43.97047" lon="7.27383">
        <ele>1039.4</ele>
        <time>2012-08-19T05:46:43Z</time>
      </trkpt>
      <trkpt lat="43.97043" lon="7.27369">
        <ele>1037.6</ele>
        <time>2012-08-19T05:46:48Z</time>
      </trkpt>
      <trkpt lat="43.97038" lon="7.27359">
        <ele>1035.9</ele>
        <time>2012-08-19T05:46:52Z</time>
      </trkpt>
      <trkpt lat="43.97032" lon="7.27349">
        <ele>1032.6</ele>
        <time>2012-08-19T05:46:56Z</time>
      </trkpt>
      <trkpt lat="43.97024" lon="7.27339">
        <ele>1029.4</ele>
        <time>2012-08-19T05:47:00Z</time>
      </trkpt>
      <trkpt lat="43.9702" lon="7.27328">
        <ele>1026.1</ele>
        <time>2012-08-19T05:47:04Z</time>
      </trkpt>
      <trkpt lat="43.97015" lon="7.27317">
        <ele>1022.8</ele>
        <time>2012-08-19T05:47:08Z</time>
      </trkpt>
      <trkpt lat="43.97014" lon="7.27304">
        <ele>1021.3</ele>
        <time>2012-08-19T05:47:13Z</time>
      </trkpt>
      <trkpt lat="43.97013" lon="7.2729">
        <ele>1019.7</ele>
        <time>2012-08-19T05:47:19Z</time>
      </trkpt>
      <trkpt lat="43.97013" lon="7.27275">
        <ele>1018.2</ele>
        <time>2012-08-19T05:47:25Z</time>
      </trkpt>
      <trkpt lat="43.9701" lon="7.27263">
        <ele>1014.3</ele>
        <time>2012-08-19T05:47:29Z</time>
      </trkpt>
      <trkpt lat="43.97004" lon="7.27251">
        <ele>1010.4</ele>
        <time>2012-08-19T05:47:32Z</time>
      </trkpt>
      <trkpt lat="43.96997" lon="7.2724">
        <ele>1006</ele>
        <time>2012-08-19T05:47:35Z</time>
      </trkpt>
      <trkpt lat="43.96991" lon="7.2723">
        <ele>1001.6</ele>
        <time>2012-08-19T05:47:38Z</time>
      </trkpt>
      <trkpt lat="43.96983" lon="7.2722">
        <ele>998.8</ele>
        <time>2012-08-19T05:47:42Z</time>
      </trkpt>
      <trkpt lat="43.96974" lon="7.27212">
        <ele>996</ele>
        <time>2012-08-19T05:47:48Z</time>
      </trkpt>
      <trkpt lat="43.96967" lon="7.27202">
        <ele>993.2</ele>
        <time>2012-08-19T05:47:54Z</time>
      </trkpt>
      <trkpt lat="43.9696" lon="7.27194">
        <ele>990.4</ele>
        <time>2012-08-19T05:48:00Z</time>
      </trkpt>
      <trkpt lat="43.96956" lon="7.27182">
        <ele>987.5</ele>
        <time>2012-08-19T05:48:08Z</time>
      </trkpt>
      <trkpt lat="43.96947" lon="7.27179">
        <ele>984.7</ele>
        <time>2012-08-19T05:48:16Z</time>
      </trkpt>
      <trkpt lat="43.96938" lon="7.27174">
        <ele>981.9</ele>
        <time>2012-08-19T05:48:24Z</time>
      </trkpt>
      <trkpt lat="43.96929" lon="7.27169">
        <ele>979.1</ele>
        <time>2012-08-19T05:48:34Z</time>
      </trkpt>
      <trkpt lat="43.96923" lon="7.2716">
        <ele>976.3</ele>
        <time>2012-08-19T05:48:40Z</time>
      </trkpt>
      <trkpt lat="43.96915" lon="7.27152">
        <ele>973.4</ele>
        <time>2012-08-19T05:48:53Z</time>
      </trkpt>
      <trkpt lat="43.96906" lon="7.27149">
        <ele>970.5</ele>
        <time>2012-08-19T05:49:01Z</time>
      </trkpt>
      <trkpt lat="43.96898" lon="7.2714">
        <ele>967.5</ele>
        <time>2012-08-19T05:49:08Z</time>
      </trkpt>
      <trkpt lat="43.96891" lon="7.2713">
        <ele>964.6</ele>
        <time>2012-08-19T05:49:14Z</time>
      </trkpt>
      <trkpt lat="43.96886" lon="7.27119">
        <ele>961.7</ele>
        <time>2012-08-19T05:49:19Z</time>
      </trkpt>
      <trkpt lat="43.96876" lon="7.27112">
        <ele>958.8</ele>
        <time>2012-08-19T05:49:25Z</time>
      </trkpt>
      <trkpt lat="43.96867" lon="7.27108">
        <ele>955.9</ele>
        <time>2012-08-19T05:49:29Z</time>
      </trkpt>
      <trkpt lat="43.96858" lon="7.27113">
        <ele>953</ele>
        <time>2012-08-19T05:49:34Z</time>
      </trkpt>
      <trkpt lat="43.96848" lon="7.27116">
        <ele>950.3</ele>
        <time>2012-08-19T05:49:39Z</time>
      </trkpt>
      <trkpt lat="43.9684" lon="7.27121">
        <ele>948.5</ele>
        <time>2012-08-19T05:49:44Z</time>
      </trkpt>
      <trkpt lat="43.96831" lon="7.27126">
        <ele>946.6</ele>
        <time>2012-08-19T05:49:51Z</time>
      </trkpt>
      <trkpt lat="43.96821" lon="7.27129">
        <ele>945.4</ele>
        <time>2012-08-19T05:49:57Z</time>
      </trkpt>
      <trkpt lat="43.96811" lon="7.27129">
        <ele>944.1</ele>
        <time>2012-08-19T05:50:02Z</time>
      </trkpt>
      <trkpt lat="43.96801" lon="7.27134">
        <ele>942.8</ele>
        <time>2012-08-19T05:50:08Z</time>
      </trkpt>
      <trkpt lat="43.96792" lon="7.27138">
        <ele>941.5</ele>
        <time>2012-08-19T05:50:12Z</time>
      </trkpt>
      <trkpt lat="43.96783" lon="7.27144">
        <ele>940.3</ele>
        <time>2012-08-19T05:50:16Z</time>
      </trkpt>
      <trkpt lat="43.96772" lon="7.27148">
        <ele>939</ele>
        <time>2012-08-19T05:50:20Z</time>
      </trkpt>
      <trkpt lat="43.96761" lon="7.27152">
        <ele>936.5</ele>
        <time>2012-08-19T05:50:24Z</time>
      </trkpt>
      <trkpt lat="43.96752" lon="7.27155">
        <ele>934.1</ele>
        <time>2012-08-19T05:50:28Z</time>
      </trkpt>
      <trkpt lat="43.96742" lon="7.27157">
        <ele>931.5</ele>
        <time>2012-08-19T05:50:32Z</time>
      </trkpt>
      <trkpt lat="43.96731" lon="7.2716">
        <ele>930.3</ele>
        <time>2012-08-19T05:50:37Z</time>
      </trkpt>
      <trkpt lat="43.96721" lon="7.27162">
        <ele>928.6</ele>
        <time>2012-08-19T05:50:41Z</time>
      </trkpt>
      <trkpt lat="43.96714" lon="7.27173">
        <ele>927</ele>
        <time>2012-08-19T05:50:45Z</time>
      </trkpt>
      <trkpt lat="43.96712" lon="7.27185">
        <ele>925.4</ele>
        <time>2012-08-19T05:50:49Z</time>
      </trkpt>
      <trkpt lat="43.96708" lon="7.27198">
        <ele>923.7</ele>
        <time>2012-08-19T05:50:54Z</time>
      </trkpt>
      <trkpt lat="43.96702" lon="7.27207">
        <ele>922.1</ele>
        <time>2012-08-19T05:50:59Z</time>
      </trkpt>
      <trkpt lat="43.96693" lon="7.27217">
        <ele>920.5</ele>
        <time>2012-08-19T05:51:03Z</time>
      </trkpt>
      <trkpt lat="43.96686" lon="7.27224">
        <ele>918.8</ele>
        <time>2012-08-19T05:51:06Z</time>
      </trkpt>
      <trkpt lat="43.96676" lon="7.27232">
        <ele>918.4</ele>
        <time>2012-08-19T05:51:10Z</time>
      </trkpt>
      <trkpt lat="43.96667" lon="7.27238">
        <ele>917.9</ele>
        <time>2012-08-19T05:51:14Z</time>
      </trkpt>
      <trkpt lat="43.9666" lon="7.27247">
        <ele>917.9</ele>
        <time>2012-08-19T05:51:18Z</time>
      </trkpt>
      <trkpt lat="43.96655" lon="7.27257">
        <ele>917.9</ele>
        <time>2012-08-19T05:51:22Z</time>
      </trkpt>
      <trkpt lat="43.96649" lon="7.27268">
        <ele>915.8</ele>
        <time>2012-08-19T05:51:28Z</time>
      </trkpt>
      <trkpt lat="43.96645" lon="7.27281">
        <ele>913.7</ele>
        <time>2012-08-19T05:51:35Z</time>
      </trkpt>
      <trkpt lat="43.9664" lon="7.27292">
        <ele>911.6</ele>
        <time>2012-08-19T05:51:40Z</time>
      </trkpt>
      <trkpt lat="43.96635" lon="7.27305">
        <ele>909.5</ele>
        <time>2012-08-19T05:51:46Z</time>
      </trkpt>
      <trkpt lat="43.96628" lon="7.27319">
        <ele>907.5</ele>
        <time>2012-08-19T05:51:50Z</time>
      </trkpt>
      <trkpt lat="43.96619" lon="7.27329">
        <ele>905.1</ele>
        <time>2012-08-19T05:51:54Z</time>
      </trkpt>
      <trkpt lat="43.96611" lon="7.27337">
        <ele>902.7</ele>
        <time>2012-08-19T05:51:57Z</time>
      </trkpt>
      <trkpt lat="43.96603" lon="7.27347">
        <ele>900.4</ele>
        <time>2012-08-19T05:52:00Z</time>
      </trkpt>
      <trkpt lat="43.96598" lon="7.27357">
        <ele>898</ele>
        <time>2012-08-19T05:52:02Z</time>
      </trkpt>
      <trkpt lat="43.96593" lon="7.27368">
        <ele>895.2</ele>
        <time>2012-08-19T05:52:04Z</time>
      </trkpt>
      <trkpt lat="43.96586" lon="7.27383">
        <ele>892.4</ele>
        <time>2012-08-19T05:52:07Z</time>
      </trkpt>
      <trkpt lat="43.96583" lon="7.27396">
        <ele>892</ele>
        <time>2012-08-19T05:52:10Z</time>
      </trkpt>
      <trkpt lat="43.96581" lon="7.27414">
        <ele>891.6</ele>
        <time>2012-08-19T05:52:14Z</time>
      </trkpt>
      <trkpt lat="43.96579" lon="7.27426">
        <ele>891.3</ele>
        <time>2012-08-19T05:52:16Z</time>
      </trkpt>
      <trkpt lat="43.96577" lon="7.27438">
        <ele>890.9</ele>
        <time>2012-08-19T05:52:18Z</time>
      </trkpt>
      <trkpt lat="43.96575" lon="7.27454">
        <ele>890.5</ele>
        <time>2012-08-19T05:52:21Z</time>
      </trkpt>
      <trkpt lat="43.96575" lon="7.2747">
        <ele>890.3</ele>
        <time>2012-08-19T05:52:25Z</time>
      </trkpt>
      <trkpt lat="43.96574" lon="7.27486">
        <ele>890</ele>
        <time>2012-08-19T05:52:29Z</time>
      </trkpt>
      <trkpt lat="43.96573" lon="7.27499">
        <ele>889.7</ele>
        <time>2012-08-19T05:52:32Z</time>
      </trkpt>
      <trkpt lat="43.96572" lon="7.27517">
        <ele>889.5</ele>
        <time>2012-08-19T05:52:35Z</time>
      </trkpt>
      <trkpt lat="43.96569" lon="7.2753">
        <ele>889.2</ele>
        <time>2012-08-19T05:52:38Z</time>
      </trkpt>
      <trkpt lat="43.96565" lon="7.27542">
        <ele>888.9</ele>
        <time>2012-08-19T05:52:42Z</time>
      </trkpt>
      <trkpt lat="43.96561" lon="7.27556">
        <ele>888.7</ele>
        <time>2012-08-19T05:52:47Z</time>
      </trkpt>
      <trkpt lat="43.96558" lon="7.2757">
        <ele>888.5</ele>
        <time>2012-08-19T05:52:52Z</time>
      </trkpt>
      <trkpt lat="43.96558" lon="7.27584">
        <ele>888.4</ele>
        <time>2012-08-19T05:52:58Z</time>
      </trkpt>
      <trkpt lat="43.96556" lon="7.27599">
        <ele>888.2</ele>
        <time>2012-08-19T05:53:04Z</time>
      </trkpt>
      <trkpt lat="43.96554" lon="7.27613">
        <ele>888</ele>
        <time>2012-08-19T05:53:07Z</time>
      </trkpt>
      <trkpt lat="43.96551" lon="7.27625">
        <ele>888</ele>
        <time>2012-08-19T05:53:11Z</time>
      </trkpt>
      <trkpt lat="43.9655" lon="7.27638">
        <ele>884.5</ele>
        <time>2012-08-19T05:53:15Z</time>
      </trkpt>
      <trkpt lat="43.96545" lon="7.27649">
        <ele>880.9</ele>
        <time>2012-08-19T05:53:19Z</time>
      </trkpt>
      <trkpt lat="43.96545" lon="7.27662">
        <ele>877.6</ele>
        <time>2012-08-19T05:53:23Z</time>
      </trkpt>
      <trkpt lat="43.96545" lon="7.27677">
        <ele>874.4</ele>
        <time>2012-08-19T05:53:29Z</time>
      </trkpt>
      <trkpt lat="43.96544" lon="7.2769">
        <ele>871.1</ele>
        <time>2012-08-19T05:53:37Z</time>
      </trkpt>
      <trkpt lat="43.96542" lon="7.27703">
        <ele>867.8</ele>
        <time>2012-08-19T05:53:46Z</time>
      </trkpt>
      <trkpt lat="43.96539" lon="7.27718">
        <ele>864.5</ele>
        <time>2012-08-19T05:53:54Z</time>
      </trkpt>
      <trkpt lat="43.96537" lon="7.2773">
        <ele>861.3</ele>
        <time>2012-08-19T05:53:58Z</time>
      </trkpt>
      <trkpt lat="43.96533" lon="7.27745">
        <ele>858</ele>
        <time>2012-08-19T05:54:01Z</time>
      </trkpt>
      <trkpt lat="43.96531" lon="7.2776">
        <ele>855.8</ele>
        <time>2012-08-19T05:54:05Z</time>
      </trkpt>
      <trkpt lat="43.96529" lon="7.27774">
        <ele>853.6</ele>
        <time>2012-08-19T05:54:09Z</time>
      </trkpt>
      <trkpt lat="43.96523" lon="7.27786">
        <ele>855</ele>
        <time>2012-08-19T05:54:15Z</time>
      </trkpt>
      <trkpt lat="43.96516" lon="7.27796">
        <ele>856.4</ele>
        <time>2012-08-19T05:54:20Z</time>
      </trkpt>
      <trkpt lat="43.96507" lon="7.27799">
        <ele>857.5</ele>
        <time>2012-08-19T05:54:26Z</time>
      </trkpt>
      <trkpt lat="43.96498" lon="7.27804">
        <ele>858.5</ele>
        <time>2012-08-19T05:54:31Z</time>
      </trkpt>
      <trkpt lat="43.96494" lon="7.27815">
        <ele>859.6</ele>
        <time>2012-08-19T05:54:39Z</time>
      </trkpt>
      <trkpt lat="43.96486" lon="7.27822">
        <ele>858.4</ele>
        <time>2012-08-19T05:54:45Z</time>
      </trkpt>
      <trkpt lat="43.96479" lon="7.27832">
        <ele>858</ele>
        <time>2012-08-19T05:54:50Z</time>
      </trkpt>
      <trkpt lat="43.96474" lon="7.27846">
        <ele>857.6</ele>
        <time>2012-08-19T05:54:56Z</time>
      </trkpt>
      <trkpt lat="43.96468" lon="7.27858">
        <ele>857.3</ele>
        <time>2012-08-19T05:55:00Z</time>
      </trkpt>
      <trkpt lat="43.96462" lon="7.27867">
        <ele>855.8</ele>
        <time>2012-08-19T05:55:04Z</time>
      </trkpt>
      <trkpt lat="43.96457" lon="7.27879">
        <ele>854.4</ele>
        <time>2012-08-19T05:55:10Z</time>
      </trkpt>
      <trkpt lat="43.96454" lon="7.27892">
        <ele>852.9</ele>
        <time>2012-08-19T05:55:22Z</time>
      </trkpt>
      <trkpt lat="43.96446" lon="7.27899">
        <ele>851.5</ele>
        <time>2012-08-19T05:55:28Z</time>
      </trkpt>
      <trkpt lat="43.96442" lon="7.27911">
        <ele>850</ele>
        <time>2012-08-19T05:55:33Z</time>
      </trkpt>
      <trkpt lat="43.96437" lon="7.27923">
        <ele>848.5</ele>
        <time>2012-08-19T05:55:37Z</time>
      </trkpt>
      <trkpt lat="43.96432" lon="7.27934">
        <ele>846.9</ele>
        <time>2012-08-19T05:55:40Z</time>
      </trkpt>
      <trkpt lat="43.96427" lon="7.27946">
        <ele>847.7</ele>
        <time>2012-08-19T05:55:43Z</time>
      </trkpt>
      <trkpt lat="43.96421" lon="7.27956">
        <ele>847.6</ele>
        <time>2012-08-19T05:55:50Z</time>
      </trkpt>
      <trkpt lat="43.96414" lon="7.27963">
        <ele>845.6</ele>
        <time>2012-08-19T05:55:54Z</time>
      </trkpt>
      <trkpt lat="43.96408" lon="7.27975">
        <ele>843.6</ele>
        <time>2012-08-19T05:55:59Z</time>
      </trkpt>
      <trkpt lat="43.96405" lon="7.27988">
        <ele>841.6</ele>
        <time>2012-08-19T05:56:09Z</time>
      </trkpt>
      <trkpt lat="43.96393" lon="7.27986">
        <ele>839.6</ele>
        <time>2012-08-19T05:56:54Z</time>
      </trkpt>
      <trkpt lat="43.96382" lon="7.27986">
        <ele>837.6</ele>
        <time>2012-08-19T05:57:02Z</time>
      </trkpt>
      <trkpt lat="43.96373" lon="7.27987">
        <ele>835.6</ele>
        <time>2012-08-19T05:57:06Z</time>
      </trkpt>
      <trkpt lat="43.96363" lon="7.27991">
        <ele>833.5</ele>
        <time>2012-08-19T05:57:11Z</time>
      </trkpt>
      <trkpt lat="43.96359" lon="7.28003">
        <ele>831.4</ele>
        <time>2012-08-19T05:57:16Z</time>
      </trkpt>
      <trkpt lat="43.96352" lon="7.28015">
        <ele>829.3</ele>
        <time>2012-08-19T05:57:21Z</time>
      </trkpt>
      <trkpt lat="43.96349" lon="7.28027">
        <ele>827.2</ele>
        <time>2012-08-19T05:57:25Z</time>
      </trkpt>
      <trkpt lat="43.96346" lon="7.2804">
        <ele>825.1</ele>
        <time>2012-08-19T05:57:29Z</time>
      </trkpt>
      <trkpt lat="43.96344" lon="7.28053">
        <ele>824.9</ele>
        <time>2012-08-19T05:57:32Z</time>
      </trkpt>
      <trkpt lat="43.96343" lon="7.28068">
        <ele>824.5</ele>
        <time>2012-08-19T05:57:35Z</time>
      </trkpt>
      <trkpt lat="43.96344" lon="7.28082">
        <ele>824</ele>
        <time>2012-08-19T05:57:38Z</time>
      </trkpt>
      <trkpt lat="43.96346" lon="7.28097">
        <ele>823.5</ele>
        <time>2012-08-19T05:57:41Z</time>
      </trkpt>
      <trkpt lat="43.96349" lon="7.28109">
        <ele>823.1</ele>
        <time>2012-08-19T05:57:44Z</time>
      </trkpt>
      <trkpt lat="43.96353" lon="7.28123">
        <ele>822.6</ele>
        <time>2012-08-19T05:57:48Z</time>
      </trkpt>
      <trkpt lat="43.96355" lon="7.28138">
        <ele>822.4</ele>
        <time>2012-08-19T05:57:52Z</time>
      </trkpt>
      <trkpt lat="43.96355" lon="7.28152">
        <ele>822.5</ele>
        <time>2012-08-19T05:57:56Z</time>
      </trkpt>
      <trkpt lat="43.96354" lon="7.28167">
        <ele>822.5</ele>
        <time>2012-08-19T05:58:00Z</time>
      </trkpt>
      <trkpt lat="43.96353" lon="7.2818">
        <ele>822.6</ele>
        <time>2012-08-19T05:58:03Z</time>
      </trkpt>
      <trkpt lat="43.9635" lon="7.28194">
        <ele>822.7</ele>
        <time>2012-08-19T05:58:06Z</time>
      </trkpt>
      <trkpt lat="43.96348" lon="7.28207">
        <ele>822.8</ele>
        <time>2012-08-19T05:58:09Z</time>
      </trkpt>
      <trkpt lat="43.96343" lon="7.28222">
        <ele>823.2</ele>
        <time>2012-08-19T05:58:13Z</time>
      </trkpt>
      <trkpt lat="43.96335" lon="7.28231">
        <ele>823.5</ele>
        <time>2012-08-19T05:58:17Z</time>
      </trkpt>
      <trkpt lat="43.96329" lon="7.2824">
        <ele>823.8</ele>
        <time>2012-08-19T05:58:24Z</time>
      </trkpt>
      <trkpt lat="43.96322" lon="7.28252">
        <ele>824.1</ele>
        <time>2012-08-19T05:58:29Z</time>
      </trkpt>
      <trkpt lat="43.96315" lon="7.28263">
        <ele>824.4</ele>
        <time>2012-08-19T05:58:33Z</time>
      </trkpt>
      <trkpt lat="43.96309" lon="7.28272">
        <ele>824.6</ele>
        <time>2012-08-19T05:58:36Z</time>
      </trkpt>
      <trkpt lat="43.96302" lon="7.28283">
        <ele>824.5</ele>
        <time>2012-08-19T05:58:39Z</time>
      </trkpt>
      <trkpt lat="43.96294" lon="7.28295">
        <ele>824.5</ele>
        <time>2012-08-19T05:58:42Z</time>
      </trkpt>
      <trkpt lat="43.96286" lon="7.28303">
        <ele>823.1</ele>
        <time>2012-08-19T05:58:45Z</time>
      </trkpt>
      <trkpt lat="43.96278" lon="7.2831">
        <ele>821.7</ele>
        <time>2012-08-19T05:58:48Z</time>
      </trkpt>
      <trkpt lat="43.96269" lon="7.28311">
        <ele>820.4</ele>
        <time>2012-08-19T05:58:51Z</time>
      </trkpt>
      <trkpt lat="43.9626" lon="7.28306">
        <ele>819</ele>
        <time>2012-08-19T05:58:54Z</time>
      </trkpt>
      <trkpt lat="43.96253" lon="7.28297">
        <ele>815.5</ele>
        <time>2012-08-19T05:58:57Z</time>
      </trkpt>
      <trkpt lat="43.96246" lon="7.28288">
        <ele>812.2</ele>
        <time>2012-08-19T05:59:00Z</time>
      </trkpt>
      <trkpt lat="43.96236" lon="7.28285">
        <ele>808.8</ele>
        <time>2012-08-19T05:59:05Z</time>
      </trkpt>
      <trkpt lat="43.96225" lon="7.28287">
        <ele>805.5</ele>
        <time>2012-08-19T05:59:10Z</time>
      </trkpt>
      <trkpt lat="43.96216" lon="7.28286">
        <ele>802.1</ele>
        <time>2012-08-19T05:59:14Z</time>
      </trkpt>
      <trkpt lat="43.96206" lon="7.28287">
        <ele>800.2</ele>
        <time>2012-08-19T05:59:18Z</time>
      </trkpt>
      <trkpt lat="43.96196" lon="7.28288">
        <ele>798.3</ele>
        <time>2012-08-19T05:59:23Z</time>
      </trkpt>
      <trkpt lat="43.96185" lon="7.28287">
        <ele>797.6</ele>
        <time>2012-08-19T05:59:27Z</time>
      </trkpt>
      <trkpt lat="43.96174" lon="7.28291">
        <ele>797</ele>
        <time>2012-08-19T05:59:31Z</time>
      </trkpt>
      <trkpt lat="43.96164" lon="7.28292">
        <ele>796.4</ele>
        <time>2012-08-19T05:59:35Z</time>
      </trkpt>
      <trkpt lat="43.96153" lon="7.28296">
        <ele>795.7</ele>
        <time>2012-08-19T05:59:39Z</time>
      </trkpt>
      <trkpt lat="43.96145" lon="7.28299">
        <ele>797.2</ele>
        <time>2012-08-19T05:59:43Z</time>
      </trkpt>
      <trkpt lat="43.96136" lon="7.28306">
        <ele>794.3</ele>
        <time>2012-08-19T05:59:49Z</time>
      </trkpt>
      <trkpt lat="43.96132" lon="7.28318">
        <ele>791.4</ele>
        <time>2012-08-19T05:59:55Z</time>
      </trkpt>
      <trkpt lat="43.96131" lon="7.28333">
        <ele>788.5</ele>
        <time>2012-08-19T05:59:59Z</time>
      </trkpt>
      <trkpt lat="43.96129" lon="7.28347">
        <ele>785.5</ele>
        <time>2012-08-19T06:00:02Z</time>
      </trkpt>
      <trkpt lat="43.96127" lon="7.28364">
        <ele>781.2</ele>
        <time>2012-08-19T06:00:06Z</time>
      </trkpt>
      <trkpt lat="43.96126" lon="7.28379">
        <ele>776.8</ele>
        <time>2012-08-19T06:00:10Z</time>
      </trkpt>
      <trkpt lat="43.96124" lon="7.28393">
        <ele>772.5</ele>
        <time>2012-08-19T06:00:13Z</time>
      </trkpt>
      <trkpt lat="43.96116" lon="7.28403">
        <ele>768.2</ele>
        <time>2012-08-19T06:00:18Z</time>
      </trkpt>
      <trkpt lat="43.9611" lon="7.28416">
        <ele>763.9</ele>
        <time>2012-08-19T06:00:22Z</time>
      </trkpt>
      <trkpt lat="43.96106" lon="7.28428">
        <ele>759.6</ele>
        <time>2012-08-19T06:00:27Z</time>
      </trkpt>
      <trkpt lat="43.96103" lon="7.2844">
        <ele>755.4</ele>
        <time>2012-08-19T06:00:35Z</time>
      </trkpt>
      <trkpt lat="43.96098" lon="7.28451">
        <ele>755.5</ele>
        <time>2012-08-19T06:00:41Z</time>
      </trkpt>
      <trkpt lat="43.961" lon="7.28466">
        <ele>755.5</ele>
        <time>2012-08-19T06:00:47Z</time>
      </trkpt>
      <trkpt lat="43.96105" lon="7.28481">
        <ele>759.8</ele>
        <time>2012-08-19T06:00:51Z</time>
      </trkpt>
      <trkpt lat="43.96107" lon="7.28497">
        <ele>764.1</ele>
        <time>2012-08-19T06:00:54Z</time>
      </trkpt>
      <trkpt lat="43.96106" lon="7.28513">
        <ele>768.4</ele>
        <time>2012-08-19T06:00:57Z</time>
      </trkpt>
      <trkpt lat="43.96108" lon="7.28527">
        <ele>772.6</ele>
        <time>2012-08-19T06:00:59Z</time>
      </trkpt>
      <trkpt lat="43.96116" lon="7.28538">
        <ele>776.9</ele>
        <time>2012-08-19T06:01:01Z</time>
      </trkpt>
      <trkpt lat="43.96129" lon="7.2855">
        <ele>781.1</ele>
        <time>2012-08-19T06:01:03Z</time>
      </trkpt>
      <trkpt lat="43.96139" lon="7.28563">
        <ele>785.3</ele>
        <time>2012-08-19T06:01:05Z</time>
      </trkpt>
      <trkpt lat="43.96147" lon="7.2857">
        <ele>789.5</ele>
        <time>2012-08-19T06:01:07Z</time>
      </trkpt>
      <trkpt lat="43.96151" lon="7.28583">
        <ele>792.5</ele>
        <time>2012-08-19T06:01:10Z</time>
      </trkpt>
      <trkpt lat="43.9615" lon="7.28595">
        <ele>795.5</ele>
        <time>2012-08-19T06:01:14Z</time>
      </trkpt>
      <trkpt lat="43.96149" lon="7.28609">
        <ele>798.5</ele>
        <time>2012-08-19T06:01:19Z</time>
      </trkpt>
      <trkpt lat="43.96147" lon="7.28624">
        <ele>797.3</ele>
        <time>2012-08-19T06:01:24Z</time>
      </trkpt>
      <trkpt lat="43.96148" lon="7.28637">
        <ele>796.1</ele>
        <time>2012-08-19T06:01:29Z</time>
      </trkpt>
      <trkpt lat="43.96147" lon="7.28649">
        <ele>794.9</ele>
        <time>2012-08-19T06:01:33Z</time>
      </trkpt>
      <trkpt lat="43.96144" lon="7.28665">
        <ele>792.1</ele>
        <time>2012-08-19T06:01:38Z</time>
      </trkpt>
      <trkpt lat="43.96143" lon="7.28678">
        <ele>784.4</ele>
        <time>2012-08-19T06:01:41Z</time>
      </trkpt>
      <trkpt lat="43.96137" lon="7.28688">
        <ele>776.6</ele>
        <time>2012-08-19T06:01:44Z</time>
      </trkpt>
      <trkpt lat="43.96134" lon="7.28701">
        <ele>768.9</ele>
        <time>2012-08-19T06:01:48Z</time>
      </trkpt>
      <trkpt lat="43.96132" lon="7.28714">
        <ele>766.1</ele>
        <time>2012-08-19T06:01:52Z</time>
      </trkpt>
      <trkpt lat="43.96128" lon="7.28727">
        <ele>764.5</ele>
        <time>2012-08-19T06:01:56Z</time>
      </trkpt>
      <trkpt lat="43.96123" lon="7.28739">
        <ele>760.7</ele>
        <time>2012-08-19T06:02:04Z</time>
      </trkpt>
      <trkpt lat="43.96123" lon="7.28752">
        <ele>757</ele>
        <time>2012-08-19T06:02:10Z</time>
      </trkpt>
      <trkpt lat="43.96125" lon="7.28765">
        <ele>753.3</ele>
        <time>2012-08-19T06:02:14Z</time>
      </trkpt>
      <trkpt lat="43.96131" lon="7.28778">
        <ele>749.5</ele>
        <time>2012-08-19T06:02:18Z</time>
      </trkpt>
      <trkpt lat="43.96128" lon="7.2879">
        <ele>745.8</ele>
        <time>2012-08-19T06:02:25Z</time>
      </trkpt>
      <trkpt lat="43.96132" lon="7.28804">
        <ele>743.7</ele>
        <time>2012-08-19T06:02:32Z</time>
      </trkpt>
      <trkpt lat="43.96135" lon="7.28818">
        <ele>746.5</ele>
        <time>2012-08-19T06:02:37Z</time>
      </trkpt>
      <trkpt lat="43.96137" lon="7.28831">
        <ele>745.6</ele>
        <time>2012-08-19T06:02:45Z</time>
      </trkpt>
      <trkpt lat="43.96143" lon="7.2884">
        <ele>744.7</ele>
        <time>2012-08-19T06:02:51Z</time>
      </trkpt>
      <trkpt lat="43.96143" lon="7.28853">
        <ele>738.9</ele>
        <time>2012-08-19T06:03:00Z</time>
      </trkpt>
      <trkpt lat="43.96134" lon="7.28862">
        <ele>733.1</ele>
        <time>2012-08-19T06:03:06Z</time>
      </trkpt>
      <trkpt lat="43.96126" lon="7.28869">
        <ele>729.4</ele>
        <time>2012-08-19T06:03:11Z</time>
      </trkpt>
      <trkpt lat="43.96118" lon="7.28875">
        <ele>725.6</ele>
        <time>2012-08-19T06:03:16Z</time>
      </trkpt>
      <trkpt lat="43.96108" lon="7.28874">
        <ele>721.9</ele>
        <time>2012-08-19T06:03:23Z</time>
      </trkpt>
      <trkpt lat="43.96098" lon="7.28879">
        <ele>718.2</ele>
        <time>2012-08-19T06:03:30Z</time>
      </trkpt>
      <trkpt lat="43.96092" lon="7.28869">
        <ele>714.5</ele>
        <time>2012-08-19T06:03:34Z</time>
      </trkpt>
      <trkpt lat="43.96083" lon="7.28868">
        <ele>706.4</ele>
        <time>2012-08-19T06:03:43Z</time>
      </trkpt>
      <trkpt lat="43.96076" lon="7.28861">
        <ele>698.3</ele>
        <time>2012-08-19T06:03:50Z</time>
      </trkpt>
      <trkpt lat="43.96066" lon="7.28861">
        <ele>693.9</ele>
        <time>2012-08-19T06:04:09Z</time>
      </trkpt>
      <trkpt lat="43.96057" lon="7.28855">
        <ele>690.7</ele>
        <time>2012-08-19T06:04:15Z</time>
      </trkpt>
      <trkpt lat="43.96049" lon="7.28847">
        <ele>687.5</ele>
        <time>2012-08-19T06:04:20Z</time>
      </trkpt>
      <trkpt lat="43.96043" lon="7.28838">
        <ele>684.4</ele>
        <time>2012-08-19T06:04:23Z</time>
      </trkpt>
      <trkpt lat="43.9604" lon="7.28825">
        <ele>681.2</ele>
        <time>2012-08-19T06:04:26Z</time>
      </trkpt>
      <trkpt lat="43.96036" lon="7.28809">
        <ele>678</ele>
        <time>2012-08-19T06:04:30Z</time>
      </trkpt>
      <trkpt lat="43.9603" lon="7.28799">
        <ele>674.8</ele>
        <time>2012-08-19T06:04:33Z</time>
      </trkpt>
      <trkpt lat="43.96023" lon="7.28787">
        <ele>671.6</ele>
        <time>2012-08-19T06:04:37Z</time>
      </trkpt>
      <trkpt lat="43.96017" lon="7.28775">
        <ele>668.5</ele>
        <time>2012-08-19T06:04:41Z</time>
      </trkpt>
      <trkpt lat="43.96021" lon="7.2876">
        <ele>669.6</ele>
        <time>2012-08-19T06:04:46Z</time>
      </trkpt>
      <trkpt lat="43.96018" lon="7.28748">
        <ele>670.8</ele>
        <time>2012-08-19T06:04:52Z</time>
      </trkpt>
      <trkpt lat="43.96014" lon="7.28736">
        <ele>672</ele>
        <time>2012-08-19T06:04:59Z</time>
      </trkpt>
      <trkpt lat="43.96006" lon="7.28728">
        <ele>672</ele>
        <time>2012-08-19T06:05:06Z</time>
      </trkpt>
      <trkpt lat="43.95997" lon="7.28728">
        <ele>670.9</ele>
        <time>2012-08-19T06:05:15Z</time>
      </trkpt>
      <trkpt lat="43.95988" lon="7.28731">
        <ele>669.8</ele>
        <time>2012-08-19T06:05:25Z</time>
      </trkpt>
      <trkpt lat="43.95977" lon="7.28732">
        <ele>668.7</ele>
        <time>2012-08-19T06:05:31Z</time>
      </trkpt>
      <trkpt lat="43.95969" lon="7.28738">
        <ele>667.6</ele>
        <time>2012-08-19T06:05:36Z</time>
      </trkpt>
      <trkpt lat="43.95964" lon="7.2875">
        <ele>664.5</ele>
        <time>2012-08-19T06:05:40Z</time>
      </trkpt>
      <trkpt lat="43.95957" lon="7.2876">
        <ele>661.3</ele>
        <time>2012-08-19T06:05:45Z</time>
      </trkpt>
      <trkpt lat="43.95949" lon="7.28769">
        <ele>658.1</ele>
        <time>2012-08-19T06:05:51Z</time>
      </trkpt>
      <trkpt lat="43.95942" lon="7.28778">
        <ele>654.9</ele>
        <time>2012-08-19T06:05:54Z</time>
      </trkpt>
      <trkpt lat="43.95935" lon="7.28791">
        <ele>651.7</ele>
        <time>2012-08-19T06:05:58Z</time>
      </trkpt>
      <trkpt lat="43.95934" lon="7.28805">
        <ele>648.5</ele>
        <time>2012-08-19T06:06:03Z</time>
      </trkpt>
      <trkpt lat="43.95927" lon="7.28813">
        <ele>644.5</ele>
        <time>2012-08-19T06:06:08Z</time>
      </trkpt>
      <trkpt lat="43.95918" lon="7.2881">
        <ele>641.6</ele>
        <time>2012-08-19T06:06:14Z</time>
      </trkpt>
      <trkpt lat="43.95907" lon="7.28807">
        <ele>638.7</ele>
        <time>2012-08-19T06:06:20Z</time>
      </trkpt>
      <trkpt lat="43.95896" lon="7.28812">
        <ele>636</ele>
        <time>2012-08-19T06:06:24Z</time>
      </trkpt>
      <trkpt lat="43.95886" lon="7.28818">
        <ele>633.3</ele>
        <time>2012-08-19T06:06:28Z</time>
      </trkpt>
      <trkpt lat="43.95876" lon="7.28818">
        <ele>632.6</ele>
        <time>2012-08-19T06:06:33Z</time>
      </trkpt>
      <trkpt lat="43.95866" lon="7.28818">
        <ele>632</ele>
        <time>2012-08-19T06:06:38Z</time>
      </trkpt>
      <trkpt lat="43.9586" lon="7.28809">
        <ele>631.4</ele>
        <time>2012-08-19T06:06:42Z</time>
      </trkpt>
      <trkpt lat="43.95856" lon="7.28795">
        <ele>630.7</ele>
        <time>2012-08-19T06:06:46Z</time>
      </trkpt>
      <trkpt lat="43.9585" lon="7.28783">
        <ele>628.8</ele>
        <time>2012-08-19T06:06:52Z</time>
      </trkpt>
      <trkpt lat="43.95845" lon="7.2877">
        <ele>626.9</ele>
        <time>2012-08-19T06:06:58Z</time>
      </trkpt>
      <trkpt lat="43.95841" lon="7.28758">
        <ele>625.8</ele>
        <time>2012-08-19T06:07:02Z</time>
      </trkpt>
      <trkpt lat="43.95836" lon="7.28747">
        <ele>624.7</ele>
        <time>2012-08-19T06:07:05Z</time>
      </trkpt>
      <trkpt lat="43.95832" lon="7.28734">
        <ele>623.6</ele>
        <time>2012-08-19T06:07:09Z</time>
      </trkpt>
      <trkpt lat="43.9583" lon="7.28719">
        <ele>622.4</ele>
        <time>2012-08-19T06:07:13Z</time>
      </trkpt>
      <trkpt lat="43.95828" lon="7.28704">
        <ele>619</ele>
        <time>2012-08-19T06:07:17Z</time>
      </trkpt>
      <trkpt lat="43.95823" lon="7.2869">
        <ele>615.6</ele>
        <time>2012-08-19T06:07:20Z</time>
      </trkpt>
      <trkpt lat="43.9582" lon="7.28674">
        <ele>612.3</ele>
        <time>2012-08-19T06:07:23Z</time>
      </trkpt>
      <trkpt lat="43.95818" lon="7.28662">
        <ele>608.9</ele>
        <time>2012-08-19T06:07:26Z</time>
      </trkpt>
      <trkpt lat="43.95813" lon="7.28648">
        <ele>605.5</ele>
        <time>2012-08-19T06:07:30Z</time>
      </trkpt>
      <trkpt lat="43.95817" lon="7.28634">
        <ele>603.5</ele>
        <time>2012-08-19T06:07:34Z</time>
      </trkpt>
      <trkpt lat="43.95825" lon="7.28628">
        <ele>601.4</ele>
        <time>2012-08-19T06:07:36Z</time>
      </trkpt>
      <trkpt lat="43.95832" lon="7.28619">
        <ele>599.3</ele>
        <time>2012-08-19T06:07:39Z</time>
      </trkpt>
      <trkpt lat="43.95837" lon="7.28607">
        <ele>596.6</ele>
        <time>2012-08-19T06:07:43Z</time>
      </trkpt>
      <trkpt lat="43.95842" lon="7.28593">
        <ele>594</ele>
        <time>2012-08-19T06:07:48Z</time>
      </trkpt>
      <trkpt lat="43.95847" lon="7.28581">
        <ele>591.4</ele>
        <time>2012-08-19T06:07:52Z</time>
      </trkpt>
      <trkpt lat="43.95854" lon="7.28569">
        <ele>590.8</ele>
        <time>2012-08-19T06:07:57Z</time>
      </trkpt>
      <trkpt lat="43.95851" lon="7.28557">
        <ele>590.3</ele>
        <time>2012-08-19T06:08:03Z</time>
      </trkpt>
      <trkpt lat="43.95852" lon="7.28542">
        <ele>589.7</ele>
        <time>2012-08-19T06:08:08Z</time>
      </trkpt>
      <trkpt lat="43.95852" lon="7.28526">
        <ele>589.2</ele>
        <time>2012-08-19T06:08:12Z</time>
      </trkpt>
      <trkpt lat="43.95855" lon="7.28512">
        <ele>590</ele>
        <time>2012-08-19T06:08:18Z</time>
      </trkpt>
      <trkpt lat="43.95848" lon="7.28501">
        <ele>590.8</ele>
        <time>2012-08-19T06:08:27Z</time>
      </trkpt>
      <trkpt lat="43.9584" lon="7.2849">
        <ele>591.6</ele>
        <time>2012-08-19T06:08:31Z</time>
      </trkpt>
      <trkpt lat="43.95835" lon="7.28476">
        <ele>592.5</ele>
        <time>2012-08-19T06:08:35Z</time>
      </trkpt>
      <trkpt lat="43.95833" lon="7.28463">
        <ele>593.8</ele>
        <time>2012-08-19T06:08:39Z</time>
      </trkpt>
      <trkpt lat="43.95834" lon="7.28449">
        <ele>595.2</ele>
        <time>2012-08-19T06:08:44Z</time>
      </trkpt>
      <trkpt lat="43.95835" lon="7.28435">
        <ele>597.5</ele>
        <time>2012-08-19T06:08:49Z</time>
      </trkpt>
      <trkpt lat="43.95835" lon="7.28421">
        <ele>599.9</ele>
        <time>2012-08-19T06:08:54Z</time>
      </trkpt>
      <trkpt lat="43.95833" lon="7.28406">
        <ele>602.3</ele>
        <time>2012-08-19T06:09:00Z</time>
      </trkpt>
      <trkpt lat="43.95833" lon="7.28393">
        <ele>604.6</ele>
        <time>2012-08-19T06:09:06Z</time>
      </trkpt>
      <trkpt lat="43.95836" lon="7.28381">
        <ele>607</ele>
        <time>2012-08-19T06:09:13Z</time>
      </trkpt>
      <trkpt lat="43.95834" lon="7.28368">
        <ele>608</ele>
        <time>2012-08-19T06:09:24Z</time>
      </trkpt>
      <trkpt lat="43.95834" lon="7.28356">
        <ele>609</ele>
        <time>2012-08-19T06:09:30Z</time>
      </trkpt>
      <trkpt lat="43.95836" lon="7.28342">
        <ele>610</ele>
        <time>2012-08-19T06:09:35Z</time>
      </trkpt>
      <trkpt lat="43.95834" lon="7.28328">
        <ele>611</ele>
        <time>2012-08-19T06:09:41Z</time>
      </trkpt>
      <trkpt lat="43.95829" lon="7.28317">
        <ele>612</ele>
        <time>2012-08-19T06:09:50Z</time>
      </trkpt>
      <trkpt lat="43.95834" lon="7.28306">
        <ele>612.3</ele>
        <time>2012-08-19T06:10:05Z</time>
      </trkpt>
      <trkpt lat="43.95825" lon="7.28309">
        <ele>611.5</ele>
        <time>2012-08-19T06:10:23Z</time>
      </trkpt>
      <trkpt lat="43.95817" lon="7.28317">
        <ele>612.6</ele>
        <time>2012-08-19T06:10:34Z</time>
      </trkpt>
      <trkpt lat="43.95807" lon="7.28322">
        <ele>613.7</ele>
        <time>2012-08-19T06:10:43Z</time>
      </trkpt>
      <trkpt lat="43.95798" lon="7.28321">
        <ele>614.8</ele>
        <time>2012-08-19T06:10:50Z</time>
      </trkpt>
      <trkpt lat="43.95792" lon="7.28312">
        <ele>615.9</ele>
        <time>2012-08-19T06:10:56Z</time>
      </trkpt>
      <trkpt lat="43.95792" lon="7.28299">
        <ele>617</ele>
        <time>2012-08-19T06:11:03Z</time>
      </trkpt>
      <trkpt lat="43.95795" lon="7.28287">
        <ele>618.1</ele>
        <time>2012-08-19T06:11:11Z</time>
      </trkpt>
      <trkpt lat="43.95792" lon="7.28275">
        <ele>619.2</ele>
        <time>2012-08-19T06:11:17Z</time>
      </trkpt>
      <trkpt lat="43.95796" lon="7.28263">
        <ele>620.3</ele>
        <time>2012-08-19T06:11:24Z</time>
      </trkpt>
      <trkpt lat="43.95803" lon="7.28254">
        <ele>621.4</ele>
        <time>2012-08-19T06:11:32Z</time>
      </trkpt>
      <trkpt lat="43.95805" lon="7.28241">
        <ele>623.2</ele>
        <time>2012-08-19T06:11:47Z</time>
      </trkpt>
      <trkpt lat="43.95795" lon="7.2824">
        <ele>625</ele>
        <time>2012-08-19T06:11:55Z</time>
      </trkpt>
      <trkpt lat="43.95786" lon="7.28238">
        <ele>625</ele>
        <time>2012-08-19T06:12:02Z</time>
      </trkpt>
      <trkpt lat="43.95777" lon="7.28236">
        <ele>625</ele>
        <time>2012-08-19T06:12:09Z</time>
      </trkpt>
      <trkpt lat="43.95767" lon="7.28238">
        <ele>625</ele>
        <time>2012-08-19T06:12:14Z</time>
      </trkpt>
      <trkpt lat="43.95758" lon="7.28241">
        <ele>625</ele>
        <time>2012-08-19T06:12:18Z</time>
      </trkpt>
      <trkpt lat="43.95748" lon="7.28241">
        <ele>625.3</ele>
        <time>2012-08-19T06:12:24Z</time>
      </trkpt>
      <trkpt lat="43.95739" lon="7.28238">
        <ele>625.5</ele>
        <time>2012-08-19T06:12:32Z</time>
      </trkpt>
      <trkpt lat="43.9573" lon="7.28235">
        <ele>625.8</ele>
        <time>2012-08-19T06:12:42Z</time>
      </trkpt>
      <trkpt lat="43.95721" lon="7.28234">
        <ele>626.1</ele>
        <time>2012-08-19T06:12:51Z</time>
      </trkpt>
      <trkpt lat="43.95712" lon="7.28233">
        <ele>626.4</ele>
        <time>2012-08-19T06:13:01Z</time>
      </trkpt>
      <trkpt lat="43.95702" lon="7.28235">
        <ele>626.6</ele>
        <time>2012-08-19T06:13:10Z</time>
      </trkpt>
      <trkpt lat="43.95693" lon="7.28237">
        <ele>626.9</ele>
        <time>2012-08-19T06:13:17Z</time>
      </trkpt>
      <trkpt lat="43.95683" lon="7.28236">
        <ele>627.2</ele>
        <time>2012-08-19T06:13:23Z</time>
      </trkpt>
      <trkpt lat="43.95674" lon="7.28237">
        <ele>629</ele>
        <time>2012-08-19T06:13:30Z</time>
      </trkpt>
      <trkpt lat="43.95665" lon="7.28234">
        <ele>629.9</ele>
        <time>2012-08-19T06:13:36Z</time>
      </trkpt>
      <trkpt lat="43.95655" lon="7.28231">
        <ele>630.8</ele>
        <time>2012-08-19T06:13:41Z</time>
      </trkpt>
      <trkpt lat="43.95645" lon="7.2823">
        <ele>631.5</ele>
        <time>2012-08-19T06:13:48Z</time>
      </trkpt>
      <trkpt lat="43.95637" lon="7.28224">
        <ele>632.1</ele>
        <time>2012-08-19T06:13:57Z</time>
      </trkpt>
      <trkpt lat="43.95631" lon="7.28213">
        <ele>632.7</ele>
        <time>2012-08-19T06:14:03Z</time>
      </trkpt>
      <trkpt lat="43.95626" lon="7.28202">
        <ele>633.4</ele>
        <time>2012-08-19T06:14:09Z</time>
      </trkpt>
      <trkpt lat="43.9562" lon="7.28192">
        <ele>634</ele>
        <time>2012-08-19T06:14:16Z</time>
      </trkpt>
      <trkpt lat="43.95612" lon="7.28185">
        <ele>634.6</ele>
        <time>2012-08-19T06:14:23Z</time>
      </trkpt>
      <trkpt lat="43.95604" lon="7.28178">
        <ele>635.3</ele>
        <time>2012-08-19T06:14:33Z</time>
      </trkpt>
      <trkpt lat="43.95595" lon="7.28171">
        <ele>636.8</ele>
        <time>2012-08-19T06:14:43Z</time>
      </trkpt>
      <trkpt lat="43.95589" lon="7.28162">
        <ele>636.8</ele>
        <time>2012-08-19T06:14:49Z</time>
      </trkpt>
      <trkpt lat="43.95587" lon="7.28146">
        <ele>637.7</ele>
        <time>2012-08-19T06:15:14Z</time>
      </trkpt>
      <trkpt lat="43.9558" lon="7.28136">
        <ele>638.6</ele>
        <time>2012-08-19T06:15:27Z</time>
      </trkpt>
      <trkpt lat="43.95572" lon="7.28131">
        <ele>640.3</ele>
        <time>2012-08-19T06:15:38Z</time>
      </trkpt>
      <trkpt lat="43.95564" lon="7.28124">
        <ele>641.9</ele>
        <time>2012-08-19T06:15:45Z</time>
      </trkpt>
      <trkpt lat="43.95556" lon="7.28116">
        <ele>643.5</ele>
        <time>2012-08-19T06:15:52Z</time>
      </trkpt>
      <trkpt lat="43.9555" lon="7.28105">
        <ele>645.5</ele>
        <time>2012-08-19T06:16:00Z</time>
      </trkpt>
      <trkpt lat="43.95544" lon="7.28095">
        <ele>647.5</ele>
        <time>2012-08-19T06:16:09Z</time>
      </trkpt>
      <trkpt lat="43.95538" lon="7.28084">
        <ele>649.5</ele>
        <time>2012-08-19T06:16:18Z</time>
      </trkpt>
      <trkpt lat="43.95533" lon="7.28072">
        <ele>651.5</ele>
        <time>2012-08-19T06:16:24Z</time>
      </trkpt>
      <trkpt lat="43.95532" lon="7.28059">
        <ele>652.6</ele>
        <time>2012-08-19T06:16:31Z</time>
      </trkpt>
      <trkpt lat="43.95533" lon="7.28045">
        <ele>653.7</ele>
        <time>2012-08-19T06:16:37Z</time>
      </trkpt>
      <trkpt lat="43.95534" lon="7.28029">
        <ele>654.8</ele>
        <time>2012-08-19T06:16:42Z</time>
      </trkpt>
      <trkpt lat="43.95533" lon="7.28015">
        <ele>655.7</ele>
        <time>2012-08-19T06:16:47Z</time>
      </trkpt>
      <trkpt lat="43.95532" lon="7.28002">
        <ele>655.9</ele>
        <time>2012-08-19T06:16:52Z</time>
      </trkpt>
      <trkpt lat="43.95528" lon="7.2799">
        <ele>656.1</ele>
        <time>2012-08-19T06:16:57Z</time>
      </trkpt>
      <trkpt lat="43.9553" lon="7.27978">
        <ele>656.3</ele>
        <time>2012-08-19T06:17:03Z</time>
      </trkpt>
      <trkpt lat="43.95537" lon="7.27968">
        <ele>656.2</ele>
        <time>2012-08-19T06:17:09Z</time>
      </trkpt>
      <trkpt lat="43.95546" lon="7.27974">
        <ele>656.1</ele>
        <time>2012-08-19T06:17:14Z</time>
      </trkpt>
      <trkpt lat="43.95554" lon="7.27984">
        <ele>656</ele>
        <time>2012-08-19T06:17:18Z</time>
      </trkpt>
      <trkpt lat="43.95561" lon="7.27994">
        <ele>655.9</ele>
        <time>2012-08-19T06:17:22Z</time>
      </trkpt>
      <trkpt lat="43.95568" lon="7.28003">
        <ele>655.7</ele>
        <time>2012-08-19T06:17:27Z</time>
      </trkpt>
    </trkseg>
  </trk>
</gpx>